<?xml version="1.0" encoding="UTF-8" standalone="no" ?>
<gpx xmlns="http://www.topografix.com/GPX/1/1" xmlns:xsi="http://www.w3.org/2001/XMLSchema-instance" xsi:schemaLocation="http://www.topografix.com/GPX/1/1 http://www.topografix.com/GPX/1/1/gpx.xsd" version="1.1" creator="VisuGPX - https://www.visugpx.com">
  <metadata>
    <name>4 - Col du Béal - Les Pradeaux</name>
  </metadata>
  <trk>
    <name><![CDATA[29-AVR-16 14-31-05]]></name>
    <trkseg>
      <trkpt lat="45.68555" lon="3.78256">
        <ele>1363</ele>
        <time>2016-04-29T07:30:11Z</time>
      </trkpt>
      <trkpt lat="45.68555" lon="3.78256">
        <ele>1363</ele>
        <time>2016-04-29T07:30:11Z</time>
      </trkpt>
      <trkpt lat="45.6856" lon="3.78257">
        <ele>1365</ele>
        <time>2016-04-29T07:30:30Z</time>
      </trkpt>
      <trkpt lat="45.68548" lon="3.78239">
        <ele>1365</ele>
        <time>2016-04-29T07:30:45Z</time>
      </trkpt>
      <trkpt lat="45.68538" lon="3.78237">
        <ele>1364</ele>
        <time>2016-04-29T07:30:53Z</time>
      </trkpt>
      <trkpt lat="45.68525" lon="3.78243">
        <ele>1365</ele>
        <time>2016-04-29T07:31:06Z</time>
      </trkpt>
      <trkpt lat="45.68521" lon="3.78252">
        <ele>1365</ele>
        <time>2016-04-29T07:31:20Z</time>
      </trkpt>
      <trkpt lat="45.68522" lon="3.78253">
        <ele>1368</ele>
        <time>2016-04-29T07:31:32Z</time>
      </trkpt>
      <trkpt lat="45.68521" lon="3.78253">
        <ele>1371</ele>
        <time>2016-04-29T07:31:36Z</time>
      </trkpt>
      <trkpt lat="45.68521" lon="3.78253">
        <ele>1371</ele>
        <time>2016-04-29T07:31:37Z</time>
      </trkpt>
      <trkpt lat="45.68518" lon="3.78254">
        <ele>1374</ele>
        <time>2016-04-29T07:31:42Z</time>
      </trkpt>
      <trkpt lat="45.68517" lon="3.78254">
        <ele>1374</ele>
        <time>2016-04-29T07:31:43Z</time>
      </trkpt>
      <trkpt lat="45.68515" lon="3.78255">
        <ele>1376</ele>
        <time>2016-04-29T07:31:45Z</time>
      </trkpt>
      <trkpt lat="45.68511" lon="3.78255">
        <ele>1377</ele>
        <time>2016-04-29T07:31:48Z</time>
      </trkpt>
      <trkpt lat="45.68505" lon="3.78255">
        <ele>1381</ele>
        <time>2016-04-29T07:31:53Z</time>
      </trkpt>
      <trkpt lat="45.68504" lon="3.78255">
        <ele>1381</ele>
        <time>2016-04-29T07:31:54Z</time>
      </trkpt>
      <trkpt lat="45.68498" lon="3.78255">
        <ele>1382</ele>
        <time>2016-04-29T07:31:58Z</time>
      </trkpt>
      <trkpt lat="45.68489" lon="3.78257">
        <ele>1385</ele>
        <time>2016-04-29T07:32:05Z</time>
      </trkpt>
      <trkpt lat="45.68476" lon="3.78261">
        <ele>1389</ele>
        <time>2016-04-29T07:32:16Z</time>
      </trkpt>
      <trkpt lat="45.68453" lon="3.78262">
        <ele>1392</ele>
        <time>2016-04-29T07:32:33Z</time>
      </trkpt>
      <trkpt lat="45.68431" lon="3.78262">
        <ele>1392</ele>
        <time>2016-04-29T07:32:49Z</time>
      </trkpt>
      <trkpt lat="45.6841" lon="3.78266">
        <ele>1394</ele>
        <time>2016-04-29T07:33:06Z</time>
      </trkpt>
      <trkpt lat="45.68388" lon="3.7827">
        <ele>1394</ele>
        <time>2016-04-29T07:33:23Z</time>
      </trkpt>
      <trkpt lat="45.68361" lon="3.78278">
        <ele>1395</ele>
        <time>2016-04-29T07:33:41Z</time>
      </trkpt>
      <trkpt lat="45.6834" lon="3.78283">
        <ele>1396</ele>
        <time>2016-04-29T07:33:58Z</time>
      </trkpt>
      <trkpt lat="45.68314" lon="3.78289">
        <ele>1397</ele>
        <time>2016-04-29T07:34:17Z</time>
      </trkpt>
      <trkpt lat="45.68294" lon="3.7829">
        <ele>1397</ele>
        <time>2016-04-29T07:34:31Z</time>
      </trkpt>
      <trkpt lat="45.68287" lon="3.78297">
        <ele>1399</ele>
        <time>2016-04-29T07:34:48Z</time>
      </trkpt>
      <trkpt lat="45.68269" lon="3.78298">
        <ele>1399</ele>
        <time>2016-04-29T07:35:04Z</time>
      </trkpt>
      <trkpt lat="45.6825" lon="3.783">
        <ele>1400</ele>
        <time>2016-04-29T07:35:19Z</time>
      </trkpt>
      <trkpt lat="45.68231" lon="3.78304">
        <ele>1401</ele>
        <time>2016-04-29T07:35:35Z</time>
      </trkpt>
      <trkpt lat="45.68211" lon="3.78308">
        <ele>1402</ele>
        <time>2016-04-29T07:35:51Z</time>
      </trkpt>
      <trkpt lat="45.68188" lon="3.78311">
        <ele>1402</ele>
        <time>2016-04-29T07:36:08Z</time>
      </trkpt>
      <trkpt lat="45.68164" lon="3.78312">
        <ele>1404</ele>
        <time>2016-04-29T07:36:25Z</time>
      </trkpt>
      <trkpt lat="45.68144" lon="3.78311">
        <ele>1405</ele>
        <time>2016-04-29T07:36:40Z</time>
      </trkpt>
      <trkpt lat="45.68121" lon="3.78311">
        <ele>1406</ele>
        <time>2016-04-29T07:36:57Z</time>
      </trkpt>
      <trkpt lat="45.68114" lon="3.78311">
        <ele>1406</ele>
        <time>2016-04-29T07:37:02Z</time>
      </trkpt>
      <trkpt lat="45.68085" lon="3.7831">
        <ele>1408</ele>
        <time>2016-04-29T07:37:23Z</time>
      </trkpt>
      <trkpt lat="45.68063" lon="3.78315">
        <ele>1409</ele>
        <time>2016-04-29T07:37:40Z</time>
      </trkpt>
      <trkpt lat="45.68039" lon="3.78324">
        <ele>1409</ele>
        <time>2016-04-29T07:37:58Z</time>
      </trkpt>
      <trkpt lat="45.68014" lon="3.78337">
        <ele>1410</ele>
        <time>2016-04-29T07:38:17Z</time>
      </trkpt>
      <trkpt lat="45.67994" lon="3.78353">
        <ele>1411</ele>
        <time>2016-04-29T07:38:34Z</time>
      </trkpt>
      <trkpt lat="45.67976" lon="3.78367">
        <ele>1412</ele>
        <time>2016-04-29T07:38:49Z</time>
      </trkpt>
      <trkpt lat="45.6796" lon="3.78381">
        <ele>1413</ele>
        <time>2016-04-29T07:39:04Z</time>
      </trkpt>
      <trkpt lat="45.6794" lon="3.78396">
        <ele>1414</ele>
        <time>2016-04-29T07:39:20Z</time>
      </trkpt>
      <trkpt lat="45.67921" lon="3.7841">
        <ele>1415</ele>
        <time>2016-04-29T07:39:36Z</time>
      </trkpt>
      <trkpt lat="45.67897" lon="3.78421">
        <ele>1415</ele>
        <time>2016-04-29T07:39:54Z</time>
      </trkpt>
      <trkpt lat="45.67876" lon="3.78431">
        <ele>1416</ele>
        <time>2016-04-29T07:40:11Z</time>
      </trkpt>
      <trkpt lat="45.6787" lon="3.78433">
        <ele>1417</ele>
        <time>2016-04-29T07:40:16Z</time>
      </trkpt>
      <trkpt lat="45.67863" lon="3.78437">
        <ele>1417</ele>
        <time>2016-04-29T07:40:21Z</time>
      </trkpt>
      <trkpt lat="45.67836" lon="3.78452">
        <ele>1418</ele>
        <time>2016-04-29T07:40:41Z</time>
      </trkpt>
      <trkpt lat="45.67814" lon="3.78465">
        <ele>1419</ele>
        <time>2016-04-29T07:40:57Z</time>
      </trkpt>
      <trkpt lat="45.67793" lon="3.7848">
        <ele>1419</ele>
        <time>2016-04-29T07:41:14Z</time>
      </trkpt>
      <trkpt lat="45.67783" lon="3.78488">
        <ele>1420</ele>
        <time>2016-04-29T07:41:23Z</time>
      </trkpt>
      <trkpt lat="45.67761" lon="3.78502">
        <ele>1421</ele>
        <time>2016-04-29T07:41:41Z</time>
      </trkpt>
      <trkpt lat="45.67743" lon="3.78513">
        <ele>1422</ele>
        <time>2016-04-29T07:41:56Z</time>
      </trkpt>
      <trkpt lat="45.6774" lon="3.78515">
        <ele>1423</ele>
        <time>2016-04-29T07:41:58Z</time>
      </trkpt>
      <trkpt lat="45.67715" lon="3.78532">
        <ele>1424</ele>
        <time>2016-04-29T07:42:19Z</time>
      </trkpt>
      <trkpt lat="45.67707" lon="3.78536">
        <ele>1424</ele>
        <time>2016-04-29T07:42:25Z</time>
      </trkpt>
      <trkpt lat="45.67684" lon="3.78554">
        <ele>1425</ele>
        <time>2016-04-29T07:42:43Z</time>
      </trkpt>
      <trkpt lat="45.67665" lon="3.78573">
        <ele>1426</ele>
        <time>2016-04-29T07:43:01Z</time>
      </trkpt>
      <trkpt lat="45.67645" lon="3.78582">
        <ele>1427</ele>
        <time>2016-04-29T07:43:19Z</time>
      </trkpt>
      <trkpt lat="45.67636" lon="3.78585">
        <ele>1428</ele>
        <time>2016-04-29T07:43:26Z</time>
      </trkpt>
      <trkpt lat="45.67625" lon="3.78586">
        <ele>1428</ele>
        <time>2016-04-29T07:43:35Z</time>
      </trkpt>
      <trkpt lat="45.67622" lon="3.78586">
        <ele>1428</ele>
        <time>2016-04-29T07:43:37Z</time>
      </trkpt>
      <trkpt lat="45.67595" lon="3.78595">
        <ele>1429</ele>
        <time>2016-04-29T07:43:58Z</time>
      </trkpt>
      <trkpt lat="45.67573" lon="3.78607">
        <ele>1430</ele>
        <time>2016-04-29T07:44:17Z</time>
      </trkpt>
      <trkpt lat="45.6755" lon="3.78616">
        <ele>1431</ele>
        <time>2016-04-29T07:44:35Z</time>
      </trkpt>
      <trkpt lat="45.6753" lon="3.78627">
        <ele>1432</ele>
        <time>2016-04-29T07:44:51Z</time>
      </trkpt>
      <trkpt lat="45.67508" lon="3.78639">
        <ele>1433</ele>
        <time>2016-04-29T07:45:08Z</time>
      </trkpt>
      <trkpt lat="45.67486" lon="3.78656">
        <ele>1433</ele>
        <time>2016-04-29T07:45:25Z</time>
      </trkpt>
      <trkpt lat="45.67466" lon="3.78676">
        <ele>1434</ele>
        <time>2016-04-29T07:45:43Z</time>
      </trkpt>
      <trkpt lat="45.67448" lon="3.78697">
        <ele>1435</ele>
        <time>2016-04-29T07:46:00Z</time>
      </trkpt>
      <trkpt lat="45.67434" lon="3.78716">
        <ele>1437</ele>
        <time>2016-04-29T07:46:15Z</time>
      </trkpt>
      <trkpt lat="45.67418" lon="3.78734">
        <ele>1437</ele>
        <time>2016-04-29T07:46:31Z</time>
      </trkpt>
      <trkpt lat="45.67414" lon="3.78738">
        <ele>1438</ele>
        <time>2016-04-29T07:46:35Z</time>
      </trkpt>
      <trkpt lat="45.67398" lon="3.78759">
        <ele>1439</ele>
        <time>2016-04-29T07:46:51Z</time>
      </trkpt>
      <trkpt lat="45.67381" lon="3.78781">
        <ele>1440</ele>
        <time>2016-04-29T07:47:09Z</time>
      </trkpt>
      <trkpt lat="45.67366" lon="3.78808">
        <ele>1442</ele>
        <time>2016-04-29T07:47:26Z</time>
      </trkpt>
      <trkpt lat="45.67354" lon="3.78825">
        <ele>1443</ele>
        <time>2016-04-29T07:47:39Z</time>
      </trkpt>
      <trkpt lat="45.67353" lon="3.78828">
        <ele>1444</ele>
        <time>2016-04-29T07:47:41Z</time>
      </trkpt>
      <trkpt lat="45.67339" lon="3.78854">
        <ele>1445</ele>
        <time>2016-04-29T07:47:58Z</time>
      </trkpt>
      <trkpt lat="45.67337" lon="3.78861">
        <ele>1445</ele>
        <time>2016-04-29T07:48:03Z</time>
      </trkpt>
      <trkpt lat="45.67328" lon="3.78876">
        <ele>1445</ele>
        <time>2016-04-29T07:48:13Z</time>
      </trkpt>
      <trkpt lat="45.67313" lon="3.78904">
        <ele>1446</ele>
        <time>2016-04-29T07:48:32Z</time>
      </trkpt>
      <trkpt lat="45.67298" lon="3.78933">
        <ele>1447</ele>
        <time>2016-04-29T07:48:51Z</time>
      </trkpt>
      <trkpt lat="45.67285" lon="3.78963">
        <ele>1448</ele>
        <time>2016-04-29T07:49:09Z</time>
      </trkpt>
      <trkpt lat="45.67277" lon="3.7898">
        <ele>1450</ele>
        <time>2016-04-29T07:49:21Z</time>
      </trkpt>
      <trkpt lat="45.67268" lon="3.79002">
        <ele>1451</ele>
        <time>2016-04-29T07:49:35Z</time>
      </trkpt>
      <trkpt lat="45.67263" lon="3.79012">
        <ele>1451</ele>
        <time>2016-04-29T07:49:42Z</time>
      </trkpt>
      <trkpt lat="45.67254" lon="3.7904">
        <ele>1452</ele>
        <time>2016-04-29T07:49:59Z</time>
      </trkpt>
      <trkpt lat="45.67253" lon="3.79043">
        <ele>1452</ele>
        <time>2016-04-29T07:50:01Z</time>
      </trkpt>
      <trkpt lat="45.67242" lon="3.79071">
        <ele>1453</ele>
        <time>2016-04-29T07:50:18Z</time>
      </trkpt>
      <trkpt lat="45.67228" lon="3.79096">
        <ele>1455</ele>
        <time>2016-04-29T07:50:33Z</time>
      </trkpt>
      <trkpt lat="45.67215" lon="3.79121">
        <ele>1456</ele>
        <time>2016-04-29T07:50:49Z</time>
      </trkpt>
      <trkpt lat="45.67205" lon="3.79142">
        <ele>1457</ele>
        <time>2016-04-29T07:51:03Z</time>
      </trkpt>
      <trkpt lat="45.67192" lon="3.79165">
        <ele>1458</ele>
        <time>2016-04-29T07:51:18Z</time>
      </trkpt>
      <trkpt lat="45.67182" lon="3.79186">
        <ele>1459</ele>
        <time>2016-04-29T07:51:31Z</time>
      </trkpt>
      <trkpt lat="45.67173" lon="3.7921">
        <ele>1461</ele>
        <time>2016-04-29T07:51:46Z</time>
      </trkpt>
      <trkpt lat="45.67165" lon="3.79228">
        <ele>1461</ele>
        <time>2016-04-29T07:51:57Z</time>
      </trkpt>
      <trkpt lat="45.67158" lon="3.79239">
        <ele>1462</ele>
        <time>2016-04-29T07:52:04Z</time>
      </trkpt>
      <trkpt lat="45.67143" lon="3.79264">
        <ele>1463</ele>
        <time>2016-04-29T07:52:21Z</time>
      </trkpt>
      <trkpt lat="45.67131" lon="3.79281">
        <ele>1465</ele>
        <time>2016-04-29T07:52:35Z</time>
      </trkpt>
      <trkpt lat="45.67119" lon="3.79298">
        <ele>1466</ele>
        <time>2016-04-29T07:52:49Z</time>
      </trkpt>
      <trkpt lat="45.67106" lon="3.79314">
        <ele>1467</ele>
        <time>2016-04-29T07:53:03Z</time>
      </trkpt>
      <trkpt lat="45.67094" lon="3.79326">
        <ele>1467</ele>
        <time>2016-04-29T07:53:15Z</time>
      </trkpt>
      <trkpt lat="45.6708" lon="3.79345">
        <ele>1469</ele>
        <time>2016-04-29T07:53:30Z</time>
      </trkpt>
      <trkpt lat="45.67065" lon="3.79367">
        <ele>1470</ele>
        <time>2016-04-29T07:53:45Z</time>
      </trkpt>
      <trkpt lat="45.67061" lon="3.79372">
        <ele>1470</ele>
        <time>2016-04-29T07:53:49Z</time>
      </trkpt>
      <trkpt lat="45.67048" lon="3.79393">
        <ele>1472</ele>
        <time>2016-04-29T07:54:04Z</time>
      </trkpt>
      <trkpt lat="45.6704" lon="3.79407">
        <ele>1473</ele>
        <time>2016-04-29T07:54:14Z</time>
      </trkpt>
      <trkpt lat="45.67027" lon="3.79429">
        <ele>1474</ele>
        <time>2016-04-29T07:54:30Z</time>
      </trkpt>
      <trkpt lat="45.67013" lon="3.79452">
        <ele>1476</ele>
        <time>2016-04-29T07:54:45Z</time>
      </trkpt>
      <trkpt lat="45.67005" lon="3.79466">
        <ele>1477</ele>
        <time>2016-04-29T07:54:54Z</time>
      </trkpt>
      <trkpt lat="45.66986" lon="3.79488">
        <ele>1478</ele>
        <time>2016-04-29T07:55:10Z</time>
      </trkpt>
      <trkpt lat="45.66966" lon="3.79507">
        <ele>1479</ele>
        <time>2016-04-29T07:55:27Z</time>
      </trkpt>
      <trkpt lat="45.66951" lon="3.79526">
        <ele>1481</ele>
        <time>2016-04-29T07:55:41Z</time>
      </trkpt>
      <trkpt lat="45.66934" lon="3.79549">
        <ele>1482</ele>
        <time>2016-04-29T07:55:58Z</time>
      </trkpt>
      <trkpt lat="45.66921" lon="3.79571">
        <ele>1483</ele>
        <time>2016-04-29T07:56:12Z</time>
      </trkpt>
      <trkpt lat="45.66908" lon="3.79591">
        <ele>1484</ele>
        <time>2016-04-29T07:56:26Z</time>
      </trkpt>
      <trkpt lat="45.66893" lon="3.79609">
        <ele>1485</ele>
        <time>2016-04-29T07:56:40Z</time>
      </trkpt>
      <trkpt lat="45.66876" lon="3.79629">
        <ele>1485</ele>
        <time>2016-04-29T07:56:55Z</time>
      </trkpt>
      <trkpt lat="45.66861" lon="3.79647">
        <ele>1486</ele>
        <time>2016-04-29T07:57:09Z</time>
      </trkpt>
      <trkpt lat="45.66859" lon="3.79649">
        <ele>1486</ele>
        <time>2016-04-29T07:57:11Z</time>
      </trkpt>
      <trkpt lat="45.66845" lon="3.79665">
        <ele>1487</ele>
        <time>2016-04-29T07:57:25Z</time>
      </trkpt>
      <trkpt lat="45.66829" lon="3.79682">
        <ele>1489</ele>
        <time>2016-04-29T07:57:40Z</time>
      </trkpt>
      <trkpt lat="45.66812" lon="3.79696">
        <ele>1490</ele>
        <time>2016-04-29T07:57:55Z</time>
      </trkpt>
      <trkpt lat="45.66798" lon="3.797">
        <ele>1490</ele>
        <time>2016-04-29T07:58:08Z</time>
      </trkpt>
      <trkpt lat="45.66797" lon="3.797">
        <ele>1490</ele>
        <time>2016-04-29T07:58:25Z</time>
      </trkpt>
      <trkpt lat="45.66793" lon="3.797">
        <ele>1490</ele>
        <time>2016-04-29T07:58:56Z</time>
      </trkpt>
      <trkpt lat="45.66785" lon="3.79703">
        <ele>1492</ele>
        <time>2016-04-29T07:59:17Z</time>
      </trkpt>
      <trkpt lat="45.66767" lon="3.79707">
        <ele>1494</ele>
        <time>2016-04-29T07:59:32Z</time>
      </trkpt>
      <trkpt lat="45.66747" lon="3.79709">
        <ele>1495</ele>
        <time>2016-04-29T07:59:49Z</time>
      </trkpt>
      <trkpt lat="45.66737" lon="3.79708">
        <ele>1496</ele>
        <time>2016-04-29T07:59:57Z</time>
      </trkpt>
      <trkpt lat="45.66732" lon="3.79703">
        <ele>1497</ele>
        <time>2016-04-29T08:00:01Z</time>
      </trkpt>
      <trkpt lat="45.6671" lon="3.79686">
        <ele>1499</ele>
        <time>2016-04-29T08:00:19Z</time>
      </trkpt>
      <trkpt lat="45.66688" lon="3.79674">
        <ele>1502</ele>
        <time>2016-04-29T08:00:38Z</time>
      </trkpt>
      <trkpt lat="45.66672" lon="3.79668">
        <ele>1504</ele>
        <time>2016-04-29T08:00:53Z</time>
      </trkpt>
      <trkpt lat="45.66652" lon="3.7966">
        <ele>1505</ele>
        <time>2016-04-29T08:01:10Z</time>
      </trkpt>
      <trkpt lat="45.66627" lon="3.79666">
        <ele>1508</ele>
        <time>2016-04-29T08:01:30Z</time>
      </trkpt>
      <trkpt lat="45.66622" lon="3.79672">
        <ele>1509</ele>
        <time>2016-04-29T08:01:35Z</time>
      </trkpt>
      <trkpt lat="45.66617" lon="3.79676">
        <ele>1509</ele>
        <time>2016-04-29T08:01:39Z</time>
      </trkpt>
      <trkpt lat="45.666" lon="3.79693">
        <ele>1511</ele>
        <time>2016-04-29T08:01:55Z</time>
      </trkpt>
      <trkpt lat="45.66582" lon="3.7971">
        <ele>1513</ele>
        <time>2016-04-29T08:02:11Z</time>
      </trkpt>
      <trkpt lat="45.66573" lon="3.79719">
        <ele>1514</ele>
        <time>2016-04-29T08:02:21Z</time>
      </trkpt>
      <trkpt lat="45.66553" lon="3.79738">
        <ele>1515</ele>
        <time>2016-04-29T08:02:39Z</time>
      </trkpt>
      <trkpt lat="45.66536" lon="3.79755">
        <ele>1517</ele>
        <time>2016-04-29T08:02:55Z</time>
      </trkpt>
      <trkpt lat="45.66528" lon="3.79763">
        <ele>1518</ele>
        <time>2016-04-29T08:03:02Z</time>
      </trkpt>
      <trkpt lat="45.66524" lon="3.79766">
        <ele>1518</ele>
        <time>2016-04-29T08:03:05Z</time>
      </trkpt>
      <trkpt lat="45.66519" lon="3.79769">
        <ele>1518</ele>
        <time>2016-04-29T08:03:09Z</time>
      </trkpt>
      <trkpt lat="45.665" lon="3.79786">
        <ele>1519</ele>
        <time>2016-04-29T08:03:26Z</time>
      </trkpt>
      <trkpt lat="45.66485" lon="3.79795">
        <ele>1521</ele>
        <time>2016-04-29T08:03:39Z</time>
      </trkpt>
      <trkpt lat="45.66465" lon="3.79806">
        <ele>1522</ele>
        <time>2016-04-29T08:03:55Z</time>
      </trkpt>
      <trkpt lat="45.66463" lon="3.79807">
        <ele>1522</ele>
        <time>2016-04-29T08:03:57Z</time>
      </trkpt>
      <trkpt lat="45.66442" lon="3.79818">
        <ele>1524</ele>
        <time>2016-04-29T08:04:13Z</time>
      </trkpt>
      <trkpt lat="45.66421" lon="3.79829">
        <ele>1525</ele>
        <time>2016-04-29T08:04:29Z</time>
      </trkpt>
      <trkpt lat="45.66401" lon="3.79836">
        <ele>1527</ele>
        <time>2016-04-29T08:04:45Z</time>
      </trkpt>
      <trkpt lat="45.66379" lon="3.79834">
        <ele>1530</ele>
        <time>2016-04-29T08:05:02Z</time>
      </trkpt>
      <trkpt lat="45.66368" lon="3.79831">
        <ele>1531</ele>
        <time>2016-04-29T08:05:11Z</time>
      </trkpt>
      <trkpt lat="45.66346" lon="3.79826">
        <ele>1532</ele>
        <time>2016-04-29T08:05:28Z</time>
      </trkpt>
      <trkpt lat="45.66324" lon="3.79823">
        <ele>1534</ele>
        <time>2016-04-29T08:05:44Z</time>
      </trkpt>
      <trkpt lat="45.66303" lon="3.7982">
        <ele>1536</ele>
        <time>2016-04-29T08:06:00Z</time>
      </trkpt>
      <trkpt lat="45.6628" lon="3.79825">
        <ele>1537</ele>
        <time>2016-04-29T08:06:17Z</time>
      </trkpt>
      <trkpt lat="45.66261" lon="3.79837">
        <ele>1540</ele>
        <time>2016-04-29T08:06:34Z</time>
      </trkpt>
      <trkpt lat="45.66241" lon="3.7985">
        <ele>1541</ele>
        <time>2016-04-29T08:06:49Z</time>
      </trkpt>
      <trkpt lat="45.66226" lon="3.79861">
        <ele>1543</ele>
        <time>2016-04-29T08:07:02Z</time>
      </trkpt>
      <trkpt lat="45.66206" lon="3.79875">
        <ele>1544</ele>
        <time>2016-04-29T08:07:18Z</time>
      </trkpt>
      <trkpt lat="45.66189" lon="3.79886">
        <ele>1546</ele>
        <time>2016-04-29T08:07:32Z</time>
      </trkpt>
      <trkpt lat="45.66171" lon="3.79898">
        <ele>1547</ele>
        <time>2016-04-29T08:07:47Z</time>
      </trkpt>
      <trkpt lat="45.66154" lon="3.79911">
        <ele>1548</ele>
        <time>2016-04-29T08:08:01Z</time>
      </trkpt>
      <trkpt lat="45.66134" lon="3.79925">
        <ele>1550</ele>
        <time>2016-04-29T08:08:19Z</time>
      </trkpt>
      <trkpt lat="45.66118" lon="3.79939">
        <ele>1553</ele>
        <time>2016-04-29T08:08:34Z</time>
      </trkpt>
      <trkpt lat="45.66102" lon="3.79952">
        <ele>1554</ele>
        <time>2016-04-29T08:08:48Z</time>
      </trkpt>
      <trkpt lat="45.66084" lon="3.79973">
        <ele>1556</ele>
        <time>2016-04-29T08:09:04Z</time>
      </trkpt>
      <trkpt lat="45.66073" lon="3.79991">
        <ele>1557</ele>
        <time>2016-04-29T08:09:19Z</time>
      </trkpt>
      <trkpt lat="45.6607" lon="3.79999">
        <ele>1557</ele>
        <time>2016-04-29T08:09:36Z</time>
      </trkpt>
      <trkpt lat="45.6607" lon="3.79999">
        <ele>1557</ele>
        <time>2016-04-29T08:09:54Z</time>
      </trkpt>
      <trkpt lat="45.66069" lon="3.79999">
        <ele>1546</ele>
        <time>2016-04-29T08:10:02Z</time>
      </trkpt>
      <trkpt lat="45.66069" lon="3.79999">
        <ele>1560</ele>
        <time>2016-04-29T08:10:03Z</time>
      </trkpt>
      <trkpt lat="45.66069" lon="3.8">
        <ele>1564</ele>
        <time>2016-04-29T08:10:04Z</time>
      </trkpt>
      <trkpt lat="45.66069" lon="3.80001">
        <ele>1558</ele>
        <time>2016-04-29T08:10:05Z</time>
      </trkpt>
      <trkpt lat="45.66069" lon="3.80001">
        <ele>1557</ele>
        <time>2016-04-29T08:10:27Z</time>
      </trkpt>
      <trkpt lat="45.66056" lon="3.80018">
        <ele>1557</ele>
        <time>2016-04-29T08:10:42Z</time>
      </trkpt>
      <trkpt lat="45.66037" lon="3.80049">
        <ele>1559</ele>
        <time>2016-04-29T08:11:01Z</time>
      </trkpt>
      <trkpt lat="45.66018" lon="3.8008">
        <ele>1562</ele>
        <time>2016-04-29T08:11:21Z</time>
      </trkpt>
      <trkpt lat="45.65992" lon="3.80117">
        <ele>1564</ele>
        <time>2016-04-29T08:11:45Z</time>
      </trkpt>
      <trkpt lat="45.65971" lon="3.80146">
        <ele>1568</ele>
        <time>2016-04-29T08:12:05Z</time>
      </trkpt>
      <trkpt lat="45.65951" lon="3.80175">
        <ele>1569</ele>
        <time>2016-04-29T08:12:24Z</time>
      </trkpt>
      <trkpt lat="45.6593" lon="3.80203">
        <ele>1572</ele>
        <time>2016-04-29T08:12:43Z</time>
      </trkpt>
      <trkpt lat="45.65906" lon="3.80236">
        <ele>1575</ele>
        <time>2016-04-29T08:13:05Z</time>
      </trkpt>
      <trkpt lat="45.65885" lon="3.80266">
        <ele>1578</ele>
        <time>2016-04-29T08:13:25Z</time>
      </trkpt>
      <trkpt lat="45.65861" lon="3.80298">
        <ele>1580</ele>
        <time>2016-04-29T08:13:47Z</time>
      </trkpt>
      <trkpt lat="45.65838" lon="3.80329">
        <ele>1582</ele>
        <time>2016-04-29T08:14:07Z</time>
      </trkpt>
      <trkpt lat="45.65819" lon="3.80357">
        <ele>1584</ele>
        <time>2016-04-29T08:14:26Z</time>
      </trkpt>
      <trkpt lat="45.65796" lon="3.80388">
        <ele>1586</ele>
        <time>2016-04-29T08:14:46Z</time>
      </trkpt>
      <trkpt lat="45.65778" lon="3.80414">
        <ele>1588</ele>
        <time>2016-04-29T08:15:03Z</time>
      </trkpt>
      <trkpt lat="45.65757" lon="3.80446">
        <ele>1590</ele>
        <time>2016-04-29T08:15:24Z</time>
      </trkpt>
      <trkpt lat="45.65735" lon="3.80472">
        <ele>1591</ele>
        <time>2016-04-29T08:15:43Z</time>
      </trkpt>
      <trkpt lat="45.65713" lon="3.80502">
        <ele>1593</ele>
        <time>2016-04-29T08:16:03Z</time>
      </trkpt>
      <trkpt lat="45.65705" lon="3.8051">
        <ele>1594</ele>
        <time>2016-04-29T08:16:17Z</time>
      </trkpt>
      <trkpt lat="45.65689" lon="3.80525">
        <ele>1595</ele>
        <time>2016-04-29T08:16:30Z</time>
      </trkpt>
      <trkpt lat="45.65662" lon="3.80536">
        <ele>1596</ele>
        <time>2016-04-29T08:16:48Z</time>
      </trkpt>
      <trkpt lat="45.65639" lon="3.80541">
        <ele>1600</ele>
        <time>2016-04-29T08:17:03Z</time>
      </trkpt>
      <trkpt lat="45.65636" lon="3.80542">
        <ele>1596</ele>
        <time>2016-04-29T08:17:05Z</time>
      </trkpt>
      <trkpt lat="45.65635" lon="3.80542">
        <ele>1601</ele>
        <time>2016-04-29T08:17:06Z</time>
      </trkpt>
      <trkpt lat="45.65608" lon="3.80551">
        <ele>1601</ele>
        <time>2016-04-29T08:17:24Z</time>
      </trkpt>
      <trkpt lat="45.65582" lon="3.80559">
        <ele>1602</ele>
        <time>2016-04-29T08:17:43Z</time>
      </trkpt>
      <trkpt lat="45.65565" lon="3.80543">
        <ele>1604</ele>
        <time>2016-04-29T08:17:59Z</time>
      </trkpt>
      <trkpt lat="45.65547" lon="3.80517">
        <ele>1603</ele>
        <time>2016-04-29T08:18:16Z</time>
      </trkpt>
      <trkpt lat="45.65522" lon="3.8052">
        <ele>1605</ele>
        <time>2016-04-29T08:18:34Z</time>
      </trkpt>
      <trkpt lat="45.65496" lon="3.80524">
        <ele>1606</ele>
        <time>2016-04-29T08:18:53Z</time>
      </trkpt>
      <trkpt lat="45.6547" lon="3.80529">
        <ele>1606</ele>
        <time>2016-04-29T08:19:12Z</time>
      </trkpt>
      <trkpt lat="45.65464" lon="3.80532">
        <ele>1608</ele>
        <time>2016-04-29T08:19:17Z</time>
      </trkpt>
      <trkpt lat="45.65437" lon="3.80544">
        <ele>1609</ele>
        <time>2016-04-29T08:19:38Z</time>
      </trkpt>
      <trkpt lat="45.65405" lon="3.80549">
        <ele>1609</ele>
        <time>2016-04-29T08:20:00Z</time>
      </trkpt>
      <trkpt lat="45.65372" lon="3.80558">
        <ele>1610</ele>
        <time>2016-04-29T08:20:22Z</time>
      </trkpt>
      <trkpt lat="45.65335" lon="3.80569">
        <ele>1609</ele>
        <time>2016-04-29T08:20:44Z</time>
      </trkpt>
      <trkpt lat="45.65306" lon="3.80578">
        <ele>1609</ele>
        <time>2016-04-29T08:21:03Z</time>
      </trkpt>
      <trkpt lat="45.65273" lon="3.80589">
        <ele>1608</ele>
        <time>2016-04-29T08:21:26Z</time>
      </trkpt>
      <trkpt lat="45.65246" lon="3.80595">
        <ele>1606</ele>
        <time>2016-04-29T08:21:44Z</time>
      </trkpt>
      <trkpt lat="45.65228" lon="3.80604">
        <ele>1604</ele>
        <time>2016-04-29T08:21:57Z</time>
      </trkpt>
      <trkpt lat="45.65207" lon="3.80625">
        <ele>1605</ele>
        <time>2016-04-29T08:22:12Z</time>
      </trkpt>
      <trkpt lat="45.65206" lon="3.80626">
        <ele>1604</ele>
        <time>2016-04-29T08:22:13Z</time>
      </trkpt>
      <trkpt lat="45.65206" lon="3.80628">
        <ele>1604</ele>
        <time>2016-04-29T08:22:14Z</time>
      </trkpt>
      <trkpt lat="45.65204" lon="3.80628">
        <ele>1604</ele>
        <time>2016-04-29T08:22:30Z</time>
      </trkpt>
      <trkpt lat="45.65195" lon="3.80637">
        <ele>1605</ele>
        <time>2016-04-29T08:22:44Z</time>
      </trkpt>
      <trkpt lat="45.65176" lon="3.80661">
        <ele>1604</ele>
        <time>2016-04-29T08:23:01Z</time>
      </trkpt>
      <trkpt lat="45.65157" lon="3.80686">
        <ele>1603</ele>
        <time>2016-04-29T08:23:18Z</time>
      </trkpt>
      <trkpt lat="45.65149" lon="3.80698">
        <ele>1603</ele>
        <time>2016-04-29T08:23:26Z</time>
      </trkpt>
      <trkpt lat="45.65141" lon="3.80733">
        <ele>1603</ele>
        <time>2016-04-29T08:23:43Z</time>
      </trkpt>
      <trkpt lat="45.65139" lon="3.80765">
        <ele>1605</ele>
        <time>2016-04-29T08:23:59Z</time>
      </trkpt>
      <trkpt lat="45.65136" lon="3.80804">
        <ele>1607</ele>
        <time>2016-04-29T08:24:19Z</time>
      </trkpt>
      <trkpt lat="45.65133" lon="3.80842">
        <ele>1609</ele>
        <time>2016-04-29T08:24:37Z</time>
      </trkpt>
      <trkpt lat="45.65134" lon="3.80874">
        <ele>1611</ele>
        <time>2016-04-29T08:24:53Z</time>
      </trkpt>
      <trkpt lat="45.65137" lon="3.80908">
        <ele>1613</ele>
        <time>2016-04-29T08:25:10Z</time>
      </trkpt>
      <trkpt lat="45.6514" lon="3.80947">
        <ele>1615</ele>
        <time>2016-04-29T08:25:30Z</time>
      </trkpt>
      <trkpt lat="45.65141" lon="3.80978">
        <ele>1616</ele>
        <time>2016-04-29T08:25:45Z</time>
      </trkpt>
      <trkpt lat="45.65146" lon="3.81014">
        <ele>1616</ele>
        <time>2016-04-29T08:26:02Z</time>
      </trkpt>
      <trkpt lat="45.65144" lon="3.81016">
        <ele>1617</ele>
        <time>2016-04-29T08:26:14Z</time>
      </trkpt>
      <trkpt lat="45.65146" lon="3.81016">
        <ele>1615</ele>
        <time>2016-04-29T08:26:33Z</time>
      </trkpt>
      <trkpt lat="45.65145" lon="3.81017">
        <ele>1615</ele>
        <time>2016-04-29T08:26:46Z</time>
      </trkpt>
      <trkpt lat="45.65144" lon="3.81016">
        <ele>1615</ele>
        <time>2016-04-29T08:27:05Z</time>
      </trkpt>
      <trkpt lat="45.65146" lon="3.81019">
        <ele>1615</ele>
        <time>2016-04-29T08:27:24Z</time>
      </trkpt>
      <trkpt lat="45.65146" lon="3.8102">
        <ele>1615</ele>
        <time>2016-04-29T08:27:47Z</time>
      </trkpt>
      <trkpt lat="45.65145" lon="3.81018">
        <ele>1615</ele>
        <time>2016-04-29T08:28:04Z</time>
      </trkpt>
      <trkpt lat="45.65146" lon="3.81015">
        <ele>1616</ele>
        <time>2016-04-29T08:28:19Z</time>
      </trkpt>
      <trkpt lat="45.65145" lon="3.81021">
        <ele>1615</ele>
        <time>2016-04-29T08:28:41Z</time>
      </trkpt>
      <trkpt lat="45.65146" lon="3.81024">
        <ele>1615</ele>
        <time>2016-04-29T08:28:56Z</time>
      </trkpt>
      <trkpt lat="45.65147" lon="3.81024">
        <ele>1615</ele>
        <time>2016-04-29T08:29:10Z</time>
      </trkpt>
      <trkpt lat="45.65147" lon="3.81024">
        <ele>1615</ele>
        <time>2016-04-29T08:29:33Z</time>
      </trkpt>
      <trkpt lat="45.65148" lon="3.81024">
        <ele>1616</ele>
        <time>2016-04-29T08:29:58Z</time>
      </trkpt>
      <trkpt lat="45.6515" lon="3.81027">
        <ele>1617</ele>
        <time>2016-04-29T08:30:27Z</time>
      </trkpt>
      <trkpt lat="45.65149" lon="3.81019">
        <ele>1616</ele>
        <time>2016-04-29T08:30:43Z</time>
      </trkpt>
      <trkpt lat="45.65146" lon="3.81033">
        <ele>1615</ele>
        <time>2016-04-29T08:30:56Z</time>
      </trkpt>
      <trkpt lat="45.65144" lon="3.81036">
        <ele>1615</ele>
        <time>2016-04-29T08:31:12Z</time>
      </trkpt>
      <trkpt lat="45.65144" lon="3.81051">
        <ele>1614</ele>
        <time>2016-04-29T08:31:28Z</time>
      </trkpt>
      <trkpt lat="45.6514" lon="3.81075">
        <ele>1613</ele>
        <time>2016-04-29T08:31:40Z</time>
      </trkpt>
      <trkpt lat="45.65138" lon="3.81098">
        <ele>1611</ele>
        <time>2016-04-29T08:31:54Z</time>
      </trkpt>
      <trkpt lat="45.65131" lon="3.81128">
        <ele>1608</ele>
        <time>2016-04-29T08:32:12Z</time>
      </trkpt>
      <trkpt lat="45.65126" lon="3.81152">
        <ele>1606</ele>
        <time>2016-04-29T08:32:27Z</time>
      </trkpt>
      <trkpt lat="45.65121" lon="3.81184">
        <ele>1604</ele>
        <time>2016-04-29T08:32:43Z</time>
      </trkpt>
      <trkpt lat="45.65119" lon="3.812">
        <ele>1603</ele>
        <time>2016-04-29T08:32:52Z</time>
      </trkpt>
      <trkpt lat="45.65118" lon="3.81202">
        <ele>1603</ele>
        <time>2016-04-29T08:32:53Z</time>
      </trkpt>
      <trkpt lat="45.65114" lon="3.81224">
        <ele>1601</ele>
        <time>2016-04-29T08:33:06Z</time>
      </trkpt>
      <trkpt lat="45.65105" lon="3.81249">
        <ele>1601</ele>
        <time>2016-04-29T08:33:20Z</time>
      </trkpt>
      <trkpt lat="45.65105" lon="3.81251">
        <ele>1601</ele>
        <time>2016-04-29T08:33:21Z</time>
      </trkpt>
      <trkpt lat="45.65096" lon="3.81277">
        <ele>1600</ele>
        <time>2016-04-29T08:33:36Z</time>
      </trkpt>
      <trkpt lat="45.65086" lon="3.81306">
        <ele>1599</ele>
        <time>2016-04-29T08:33:53Z</time>
      </trkpt>
      <trkpt lat="45.65078" lon="3.81336">
        <ele>1598</ele>
        <time>2016-04-29T08:34:09Z</time>
      </trkpt>
      <trkpt lat="45.65071" lon="3.81365">
        <ele>1596</ele>
        <time>2016-04-29T08:34:25Z</time>
      </trkpt>
      <trkpt lat="45.65063" lon="3.81394">
        <ele>1596</ele>
        <time>2016-04-29T08:34:42Z</time>
      </trkpt>
      <trkpt lat="45.65058" lon="3.81415">
        <ele>1595</ele>
        <time>2016-04-29T08:34:58Z</time>
      </trkpt>
      <trkpt lat="45.65056" lon="3.81427">
        <ele>1595</ele>
        <time>2016-04-29T08:35:23Z</time>
      </trkpt>
      <trkpt lat="45.65054" lon="3.8143">
        <ele>1595</ele>
        <time>2016-04-29T08:35:26Z</time>
      </trkpt>
      <trkpt lat="45.65053" lon="3.81431">
        <ele>1595</ele>
        <time>2016-04-29T08:35:27Z</time>
      </trkpt>
      <trkpt lat="45.6505" lon="3.81447">
        <ele>1594</ele>
        <time>2016-04-29T08:35:37Z</time>
      </trkpt>
      <trkpt lat="45.6505" lon="3.81448">
        <ele>1594</ele>
        <time>2016-04-29T08:35:38Z</time>
      </trkpt>
      <trkpt lat="45.6505" lon="3.8145">
        <ele>1594</ele>
        <time>2016-04-29T08:35:39Z</time>
      </trkpt>
      <trkpt lat="45.65049" lon="3.81452">
        <ele>1594</ele>
        <time>2016-04-29T08:35:40Z</time>
      </trkpt>
      <trkpt lat="45.65048" lon="3.81481">
        <ele>1593</ele>
        <time>2016-04-29T08:35:56Z</time>
      </trkpt>
      <trkpt lat="45.65045" lon="3.81507">
        <ele>1593</ele>
        <time>2016-04-29T08:36:11Z</time>
      </trkpt>
      <trkpt lat="45.65045" lon="3.81514">
        <ele>1592</ele>
        <time>2016-04-29T08:36:15Z</time>
      </trkpt>
      <trkpt lat="45.65045" lon="3.81516">
        <ele>1592</ele>
        <time>2016-04-29T08:36:16Z</time>
      </trkpt>
      <trkpt lat="45.65042" lon="3.8154">
        <ele>1591</ele>
        <time>2016-04-29T08:36:30Z</time>
      </trkpt>
      <trkpt lat="45.65041" lon="3.81571">
        <ele>1590</ele>
        <time>2016-04-29T08:36:45Z</time>
      </trkpt>
      <trkpt lat="45.65035" lon="3.816">
        <ele>1590</ele>
        <time>2016-04-29T08:37:01Z</time>
      </trkpt>
      <trkpt lat="45.65023" lon="3.81621">
        <ele>1590</ele>
        <time>2016-04-29T08:37:14Z</time>
      </trkpt>
      <trkpt lat="45.6501" lon="3.81644">
        <ele>1592</ele>
        <time>2016-04-29T08:37:30Z</time>
      </trkpt>
      <trkpt lat="45.65001" lon="3.81665">
        <ele>1592</ele>
        <time>2016-04-29T08:37:44Z</time>
      </trkpt>
      <trkpt lat="45.64994" lon="3.81677">
        <ele>1593</ele>
        <time>2016-04-29T08:37:56Z</time>
      </trkpt>
      <trkpt lat="45.64991" lon="3.81679">
        <ele>1592</ele>
        <time>2016-04-29T08:38:16Z</time>
      </trkpt>
      <trkpt lat="45.64989" lon="3.81681">
        <ele>1593</ele>
        <time>2016-04-29T08:38:18Z</time>
      </trkpt>
      <trkpt lat="45.64973" lon="3.81694">
        <ele>1593</ele>
        <time>2016-04-29T08:38:31Z</time>
      </trkpt>
      <trkpt lat="45.64966" lon="3.817">
        <ele>1594</ele>
        <time>2016-04-29T08:38:37Z</time>
      </trkpt>
      <trkpt lat="45.64944" lon="3.81699">
        <ele>1595</ele>
        <time>2016-04-29T08:38:54Z</time>
      </trkpt>
      <trkpt lat="45.64927" lon="3.81696">
        <ele>1597</ele>
        <time>2016-04-29T08:39:07Z</time>
      </trkpt>
      <trkpt lat="45.64908" lon="3.81691">
        <ele>1598</ele>
        <time>2016-04-29T08:39:23Z</time>
      </trkpt>
      <trkpt lat="45.64883" lon="3.81683">
        <ele>1598</ele>
        <time>2016-04-29T08:39:40Z</time>
      </trkpt>
      <trkpt lat="45.64864" lon="3.81671">
        <ele>1598</ele>
        <time>2016-04-29T08:39:57Z</time>
      </trkpt>
      <trkpt lat="45.64842" lon="3.81653">
        <ele>1597</ele>
        <time>2016-04-29T08:40:15Z</time>
      </trkpt>
      <trkpt lat="45.64819" lon="3.81637">
        <ele>1596</ele>
        <time>2016-04-29T08:40:33Z</time>
      </trkpt>
      <trkpt lat="45.64798" lon="3.81623">
        <ele>1594</ele>
        <time>2016-04-29T08:40:51Z</time>
      </trkpt>
      <trkpt lat="45.64778" lon="3.81609">
        <ele>1593</ele>
        <time>2016-04-29T08:41:08Z</time>
      </trkpt>
      <trkpt lat="45.64761" lon="3.81594">
        <ele>1590</ele>
        <time>2016-04-29T08:41:24Z</time>
      </trkpt>
      <trkpt lat="45.64743" lon="3.81575">
        <ele>1589</ele>
        <time>2016-04-29T08:41:41Z</time>
      </trkpt>
      <trkpt lat="45.64741" lon="3.81572">
        <ele>1588</ele>
        <time>2016-04-29T08:41:43Z</time>
      </trkpt>
      <trkpt lat="45.6474" lon="3.81571">
        <ele>1588</ele>
        <time>2016-04-29T08:41:44Z</time>
      </trkpt>
      <trkpt lat="45.6474" lon="3.8157">
        <ele>1588</ele>
        <time>2016-04-29T08:41:45Z</time>
      </trkpt>
      <trkpt lat="45.64723" lon="3.81551">
        <ele>1586</ele>
        <time>2016-04-29T08:42:02Z</time>
      </trkpt>
      <trkpt lat="45.64705" lon="3.81535">
        <ele>1584</ele>
        <time>2016-04-29T08:42:17Z</time>
      </trkpt>
      <trkpt lat="45.64685" lon="3.81516">
        <ele>1582</ele>
        <time>2016-04-29T08:42:35Z</time>
      </trkpt>
      <trkpt lat="45.64665" lon="3.81497">
        <ele>1580</ele>
        <time>2016-04-29T08:42:53Z</time>
      </trkpt>
      <trkpt lat="45.64646" lon="3.81481">
        <ele>1578</ele>
        <time>2016-04-29T08:43:09Z</time>
      </trkpt>
      <trkpt lat="45.64628" lon="3.81465">
        <ele>1577</ele>
        <time>2016-04-29T08:43:25Z</time>
      </trkpt>
      <trkpt lat="45.64624" lon="3.81461">
        <ele>1577</ele>
        <time>2016-04-29T08:43:28Z</time>
      </trkpt>
      <trkpt lat="45.64623" lon="3.8146">
        <ele>1576</ele>
        <time>2016-04-29T08:43:29Z</time>
      </trkpt>
      <trkpt lat="45.64607" lon="3.81441">
        <ele>1575</ele>
        <time>2016-04-29T08:43:46Z</time>
      </trkpt>
      <trkpt lat="45.64592" lon="3.81425">
        <ele>1573</ele>
        <time>2016-04-29T08:44:00Z</time>
      </trkpt>
      <trkpt lat="45.64574" lon="3.81406">
        <ele>1573</ele>
        <time>2016-04-29T08:44:17Z</time>
      </trkpt>
      <trkpt lat="45.64557" lon="3.8139">
        <ele>1571</ele>
        <time>2016-04-29T08:44:32Z</time>
      </trkpt>
      <trkpt lat="45.64542" lon="3.81373">
        <ele>1569</ele>
        <time>2016-04-29T08:44:47Z</time>
      </trkpt>
      <trkpt lat="45.64523" lon="3.81355">
        <ele>1567</ele>
        <time>2016-04-29T08:45:04Z</time>
      </trkpt>
      <trkpt lat="45.64502" lon="3.8134">
        <ele>1566</ele>
        <time>2016-04-29T08:45:21Z</time>
      </trkpt>
      <trkpt lat="45.64482" lon="3.81325">
        <ele>1563</ele>
        <time>2016-04-29T08:45:38Z</time>
      </trkpt>
      <trkpt lat="45.64464" lon="3.81311">
        <ele>1560</ele>
        <time>2016-04-29T08:45:54Z</time>
      </trkpt>
      <trkpt lat="45.64448" lon="3.81301">
        <ele>1559</ele>
        <time>2016-04-29T08:46:08Z</time>
      </trkpt>
      <trkpt lat="45.64426" lon="3.81296">
        <ele>1556</ele>
        <time>2016-04-29T08:46:26Z</time>
      </trkpt>
      <trkpt lat="45.64406" lon="3.81292">
        <ele>1554</ele>
        <time>2016-04-29T08:46:42Z</time>
      </trkpt>
      <trkpt lat="45.64379" lon="3.81287">
        <ele>1551</ele>
        <time>2016-04-29T08:47:02Z</time>
      </trkpt>
      <trkpt lat="45.64359" lon="3.81284">
        <ele>1549</ele>
        <time>2016-04-29T08:47:18Z</time>
      </trkpt>
      <trkpt lat="45.64338" lon="3.81269">
        <ele>1548</ele>
        <time>2016-04-29T08:47:36Z</time>
      </trkpt>
      <trkpt lat="45.64318" lon="3.81254">
        <ele>1545</ele>
        <time>2016-04-29T08:47:53Z</time>
      </trkpt>
      <trkpt lat="45.64301" lon="3.81238">
        <ele>1542</ele>
        <time>2016-04-29T08:48:10Z</time>
      </trkpt>
      <trkpt lat="45.64282" lon="3.81225">
        <ele>1539</ele>
        <time>2016-04-29T08:48:27Z</time>
      </trkpt>
      <trkpt lat="45.64265" lon="3.81217">
        <ele>1537</ele>
        <time>2016-04-29T08:48:42Z</time>
      </trkpt>
      <trkpt lat="45.64246" lon="3.81208">
        <ele>1533</ele>
        <time>2016-04-29T08:48:58Z</time>
      </trkpt>
      <trkpt lat="45.64229" lon="3.812">
        <ele>1531</ele>
        <time>2016-04-29T08:49:13Z</time>
      </trkpt>
      <trkpt lat="45.64223" lon="3.81198">
        <ele>1530</ele>
        <time>2016-04-29T08:49:18Z</time>
      </trkpt>
      <trkpt lat="45.64222" lon="3.81198">
        <ele>1530</ele>
        <time>2016-04-29T08:49:19Z</time>
      </trkpt>
      <trkpt lat="45.64221" lon="3.81197">
        <ele>1529</ele>
        <time>2016-04-29T08:49:20Z</time>
      </trkpt>
      <trkpt lat="45.6422" lon="3.81196">
        <ele>1529</ele>
        <time>2016-04-29T08:49:21Z</time>
      </trkpt>
      <trkpt lat="45.642" lon="3.81185">
        <ele>1526</ele>
        <time>2016-04-29T08:49:39Z</time>
      </trkpt>
      <trkpt lat="45.64185" lon="3.81176">
        <ele>1523</ele>
        <time>2016-04-29T08:49:52Z</time>
      </trkpt>
      <trkpt lat="45.64168" lon="3.81163">
        <ele>1520</ele>
        <time>2016-04-29T08:50:08Z</time>
      </trkpt>
      <trkpt lat="45.64158" lon="3.81159">
        <ele>1520</ele>
        <time>2016-04-29T08:50:15Z</time>
      </trkpt>
      <trkpt lat="45.64157" lon="3.81158">
        <ele>1519</ele>
        <time>2016-04-29T08:50:16Z</time>
      </trkpt>
      <trkpt lat="45.64135" lon="3.81144">
        <ele>1516</ele>
        <time>2016-04-29T08:50:33Z</time>
      </trkpt>
      <trkpt lat="45.64134" lon="3.81144">
        <ele>1517</ele>
        <time>2016-04-29T08:50:34Z</time>
      </trkpt>
      <trkpt lat="45.64114" lon="3.81131">
        <ele>1514</ele>
        <time>2016-04-29T08:50:51Z</time>
      </trkpt>
      <trkpt lat="45.64097" lon="3.81119">
        <ele>1510</ele>
        <time>2016-04-29T08:51:06Z</time>
      </trkpt>
      <trkpt lat="45.64077" lon="3.81104">
        <ele>1508</ele>
        <time>2016-04-29T08:51:23Z</time>
      </trkpt>
      <trkpt lat="45.6406" lon="3.8109">
        <ele>1506</ele>
        <time>2016-04-29T08:51:39Z</time>
      </trkpt>
      <trkpt lat="45.64044" lon="3.81073">
        <ele>1504</ele>
        <time>2016-04-29T08:51:56Z</time>
      </trkpt>
      <trkpt lat="45.64042" lon="3.81072">
        <ele>1503</ele>
        <time>2016-04-29T08:51:58Z</time>
      </trkpt>
      <trkpt lat="45.64022" lon="3.81076">
        <ele>1502</ele>
        <time>2016-04-29T08:52:15Z</time>
      </trkpt>
      <trkpt lat="45.64012" lon="3.81092">
        <ele>1501</ele>
        <time>2016-04-29T08:52:28Z</time>
      </trkpt>
      <trkpt lat="45.64007" lon="3.81096">
        <ele>1500</ele>
        <time>2016-04-29T08:52:33Z</time>
      </trkpt>
      <trkpt lat="45.64005" lon="3.81096">
        <ele>1500</ele>
        <time>2016-04-29T08:52:34Z</time>
      </trkpt>
      <trkpt lat="45.63988" lon="3.81105">
        <ele>1497</ele>
        <time>2016-04-29T08:52:49Z</time>
      </trkpt>
      <trkpt lat="45.63981" lon="3.81112">
        <ele>1495</ele>
        <time>2016-04-29T08:52:57Z</time>
      </trkpt>
      <trkpt lat="45.63976" lon="3.81117">
        <ele>1494</ele>
        <time>2016-04-29T08:53:03Z</time>
      </trkpt>
      <trkpt lat="45.63972" lon="3.81121">
        <ele>1493</ele>
        <time>2016-04-29T08:53:07Z</time>
      </trkpt>
      <trkpt lat="45.63971" lon="3.81123">
        <ele>1493</ele>
        <time>2016-04-29T08:53:08Z</time>
      </trkpt>
      <trkpt lat="45.63962" lon="3.81131">
        <ele>1490</ele>
        <time>2016-04-29T08:53:18Z</time>
      </trkpt>
      <trkpt lat="45.63961" lon="3.81132">
        <ele>1490</ele>
        <time>2016-04-29T08:53:19Z</time>
      </trkpt>
      <trkpt lat="45.63947" lon="3.81148">
        <ele>1487</ele>
        <time>2016-04-29T08:53:33Z</time>
      </trkpt>
      <trkpt lat="45.63933" lon="3.81165">
        <ele>1484</ele>
        <time>2016-04-29T08:53:48Z</time>
      </trkpt>
      <trkpt lat="45.63915" lon="3.81186">
        <ele>1482</ele>
        <time>2016-04-29T08:54:03Z</time>
      </trkpt>
      <trkpt lat="45.63904" lon="3.81202">
        <ele>1481</ele>
        <time>2016-04-29T08:54:15Z</time>
      </trkpt>
      <trkpt lat="45.63891" lon="3.81223">
        <ele>1481</ele>
        <time>2016-04-29T08:54:29Z</time>
      </trkpt>
      <trkpt lat="45.63889" lon="3.81229">
        <ele>1480</ele>
        <time>2016-04-29T08:54:33Z</time>
      </trkpt>
      <trkpt lat="45.63876" lon="3.81248">
        <ele>1480</ele>
        <time>2016-04-29T08:54:47Z</time>
      </trkpt>
      <trkpt lat="45.63871" lon="3.81254">
        <ele>1480</ele>
        <time>2016-04-29T08:54:51Z</time>
      </trkpt>
      <trkpt lat="45.63871" lon="3.81256">
        <ele>1480</ele>
        <time>2016-04-29T08:54:52Z</time>
      </trkpt>
      <trkpt lat="45.63871" lon="3.81265">
        <ele>1480</ele>
        <time>2016-04-29T08:55:02Z</time>
      </trkpt>
      <trkpt lat="45.63868" lon="3.81264">
        <ele>1479</ele>
        <time>2016-04-29T08:55:31Z</time>
      </trkpt>
      <trkpt lat="45.63862" lon="3.81266">
        <ele>1480</ele>
        <time>2016-04-29T08:55:43Z</time>
      </trkpt>
      <trkpt lat="45.6386" lon="3.81268">
        <ele>1479</ele>
        <time>2016-04-29T08:55:57Z</time>
      </trkpt>
      <trkpt lat="45.63859" lon="3.81269">
        <ele>1479</ele>
        <time>2016-04-29T08:55:58Z</time>
      </trkpt>
      <trkpt lat="45.63856" lon="3.8127">
        <ele>1479</ele>
        <time>2016-04-29T08:56:01Z</time>
      </trkpt>
      <trkpt lat="45.63855" lon="3.8127">
        <ele>1479</ele>
        <time>2016-04-29T08:56:02Z</time>
      </trkpt>
      <trkpt lat="45.63853" lon="3.8127">
        <ele>1480</ele>
        <time>2016-04-29T08:56:03Z</time>
      </trkpt>
      <trkpt lat="45.63848" lon="3.81273">
        <ele>1479</ele>
        <time>2016-04-29T08:56:09Z</time>
      </trkpt>
      <trkpt lat="45.63842" lon="3.81274">
        <ele>1480</ele>
        <time>2016-04-29T08:56:23Z</time>
      </trkpt>
      <trkpt lat="45.63841" lon="3.81277">
        <ele>1480</ele>
        <time>2016-04-29T08:56:40Z</time>
      </trkpt>
      <trkpt lat="45.63841" lon="3.81277">
        <ele>1480</ele>
        <time>2016-04-29T08:56:51Z</time>
      </trkpt>
      <trkpt lat="45.6384" lon="3.81277">
        <ele>1479</ele>
        <time>2016-04-29T08:57:07Z</time>
      </trkpt>
      <trkpt lat="45.63841" lon="3.81276">
        <ele>1480</ele>
        <time>2016-04-29T08:57:24Z</time>
      </trkpt>
      <trkpt lat="45.63839" lon="3.81277">
        <ele>1489</ele>
        <time>2016-04-29T08:57:31Z</time>
      </trkpt>
      <trkpt lat="45.63839" lon="3.81278">
        <ele>1481</ele>
        <time>2016-04-29T08:57:32Z</time>
      </trkpt>
      <trkpt lat="45.63839" lon="3.81277">
        <ele>1481</ele>
        <time>2016-04-29T08:57:46Z</time>
      </trkpt>
      <trkpt lat="45.63838" lon="3.81277">
        <ele>1481</ele>
        <time>2016-04-29T08:58:06Z</time>
      </trkpt>
      <trkpt lat="45.63835" lon="3.81276">
        <ele>1481</ele>
        <time>2016-04-29T08:58:22Z</time>
      </trkpt>
      <trkpt lat="45.63833" lon="3.81275">
        <ele>1482</ele>
        <time>2016-04-29T08:58:23Z</time>
      </trkpt>
      <trkpt lat="45.63832" lon="3.81274">
        <ele>1481</ele>
        <time>2016-04-29T08:58:24Z</time>
      </trkpt>
      <trkpt lat="45.6383" lon="3.81275">
        <ele>1481</ele>
        <time>2016-04-29T08:58:25Z</time>
      </trkpt>
      <trkpt lat="45.63828" lon="3.81275">
        <ele>1481</ele>
        <time>2016-04-29T08:58:26Z</time>
      </trkpt>
      <trkpt lat="45.63806" lon="3.81285">
        <ele>1483</ele>
        <time>2016-04-29T08:58:41Z</time>
      </trkpt>
      <trkpt lat="45.63784" lon="3.81303">
        <ele>1486</ele>
        <time>2016-04-29T08:58:59Z</time>
      </trkpt>
      <trkpt lat="45.6377" lon="3.81309">
        <ele>1488</ele>
        <time>2016-04-29T08:59:09Z</time>
      </trkpt>
      <trkpt lat="45.63763" lon="3.81313">
        <ele>1489</ele>
        <time>2016-04-29T08:59:16Z</time>
      </trkpt>
      <trkpt lat="45.63762" lon="3.81314">
        <ele>1489</ele>
        <time>2016-04-29T08:59:17Z</time>
      </trkpt>
      <trkpt lat="45.6376" lon="3.81314">
        <ele>1489</ele>
        <time>2016-04-29T08:59:18Z</time>
      </trkpt>
      <trkpt lat="45.63759" lon="3.81315">
        <ele>1489</ele>
        <time>2016-04-29T08:59:19Z</time>
      </trkpt>
      <trkpt lat="45.63757" lon="3.81316">
        <ele>1490</ele>
        <time>2016-04-29T08:59:20Z</time>
      </trkpt>
      <trkpt lat="45.63742" lon="3.81329">
        <ele>1493</ele>
        <time>2016-04-29T08:59:33Z</time>
      </trkpt>
      <trkpt lat="45.63724" lon="3.81342">
        <ele>1496</ele>
        <time>2016-04-29T08:59:47Z</time>
      </trkpt>
      <trkpt lat="45.63723" lon="3.81343">
        <ele>1496</ele>
        <time>2016-04-29T08:59:48Z</time>
      </trkpt>
      <trkpt lat="45.63707" lon="3.81363">
        <ele>1497</ele>
        <time>2016-04-29T09:00:03Z</time>
      </trkpt>
      <trkpt lat="45.63689" lon="3.81391">
        <ele>1499</ele>
        <time>2016-04-29T09:00:21Z</time>
      </trkpt>
      <trkpt lat="45.63669" lon="3.81419">
        <ele>1500</ele>
        <time>2016-04-29T09:00:40Z</time>
      </trkpt>
      <trkpt lat="45.63652" lon="3.81445">
        <ele>1501</ele>
        <time>2016-04-29T09:00:56Z</time>
      </trkpt>
      <trkpt lat="45.63637" lon="3.8147">
        <ele>1501</ele>
        <time>2016-04-29T09:01:11Z</time>
      </trkpt>
      <trkpt lat="45.63617" lon="3.815">
        <ele>1502</ele>
        <time>2016-04-29T09:01:30Z</time>
      </trkpt>
      <trkpt lat="45.63593" lon="3.81537">
        <ele>1503</ele>
        <time>2016-04-29T09:01:52Z</time>
      </trkpt>
      <trkpt lat="45.63577" lon="3.81568">
        <ele>1504</ele>
        <time>2016-04-29T09:02:10Z</time>
      </trkpt>
      <trkpt lat="45.63563" lon="3.816">
        <ele>1506</ele>
        <time>2016-04-29T09:02:27Z</time>
      </trkpt>
      <trkpt lat="45.63549" lon="3.8164">
        <ele>1507</ele>
        <time>2016-04-29T09:02:48Z</time>
      </trkpt>
      <trkpt lat="45.63529" lon="3.8167">
        <ele>1508</ele>
        <time>2016-04-29T09:03:07Z</time>
      </trkpt>
      <trkpt lat="45.63497" lon="3.81687">
        <ele>1507</ele>
        <time>2016-04-29T09:03:28Z</time>
      </trkpt>
      <trkpt lat="45.63469" lon="3.81699">
        <ele>1507</ele>
        <time>2016-04-29T09:03:46Z</time>
      </trkpt>
      <trkpt lat="45.63436" lon="3.81714">
        <ele>1505</ele>
        <time>2016-04-29T09:04:08Z</time>
      </trkpt>
      <trkpt lat="45.63409" lon="3.81725">
        <ele>1505</ele>
        <time>2016-04-29T09:04:26Z</time>
      </trkpt>
      <trkpt lat="45.63376" lon="3.81739">
        <ele>1503</ele>
        <time>2016-04-29T09:04:47Z</time>
      </trkpt>
      <trkpt lat="45.63347" lon="3.81754">
        <ele>1501</ele>
        <time>2016-04-29T09:05:05Z</time>
      </trkpt>
      <trkpt lat="45.63317" lon="3.81769">
        <ele>1500</ele>
        <time>2016-04-29T09:05:25Z</time>
      </trkpt>
      <trkpt lat="45.6329" lon="3.81781">
        <ele>1498</ele>
        <time>2016-04-29T09:05:40Z</time>
      </trkpt>
      <trkpt lat="45.63262" lon="3.81799">
        <ele>1497</ele>
        <time>2016-04-29T09:05:58Z</time>
      </trkpt>
      <trkpt lat="45.63243" lon="3.81834">
        <ele>1496</ele>
        <time>2016-04-29T09:06:17Z</time>
      </trkpt>
      <trkpt lat="45.63229" lon="3.81867">
        <ele>1495</ele>
        <time>2016-04-29T09:06:35Z</time>
      </trkpt>
      <trkpt lat="45.63216" lon="3.81906">
        <ele>1496</ele>
        <time>2016-04-29T09:06:53Z</time>
      </trkpt>
      <trkpt lat="45.63204" lon="3.81944">
        <ele>1495</ele>
        <time>2016-04-29T09:07:12Z</time>
      </trkpt>
      <trkpt lat="45.63187" lon="3.81989">
        <ele>1493</ele>
        <time>2016-04-29T09:07:33Z</time>
      </trkpt>
      <trkpt lat="45.63181" lon="3.82009">
        <ele>1492</ele>
        <time>2016-04-29T09:07:49Z</time>
      </trkpt>
      <trkpt lat="45.63181" lon="3.82011">
        <ele>1492</ele>
        <time>2016-04-29T09:08:12Z</time>
      </trkpt>
      <trkpt lat="45.63179" lon="3.82015">
        <ele>1491</ele>
        <time>2016-04-29T09:08:28Z</time>
      </trkpt>
      <trkpt lat="45.63177" lon="3.82015">
        <ele>1491</ele>
        <time>2016-04-29T09:08:48Z</time>
      </trkpt>
      <trkpt lat="45.63175" lon="3.82015">
        <ele>1491</ele>
        <time>2016-04-29T09:09:03Z</time>
      </trkpt>
      <trkpt lat="45.63176" lon="3.82018">
        <ele>1491</ele>
        <time>2016-04-29T09:09:22Z</time>
      </trkpt>
      <trkpt lat="45.63178" lon="3.82013">
        <ele>1490</ele>
        <time>2016-04-29T09:09:40Z</time>
      </trkpt>
      <trkpt lat="45.63177" lon="3.82014">
        <ele>1490</ele>
        <time>2016-04-29T09:10:05Z</time>
      </trkpt>
      <trkpt lat="45.63176" lon="3.82022">
        <ele>1490</ele>
        <time>2016-04-29T09:10:19Z</time>
      </trkpt>
      <trkpt lat="45.63169" lon="3.82045">
        <ele>1488</ele>
        <time>2016-04-29T09:10:34Z</time>
      </trkpt>
      <trkpt lat="45.63164" lon="3.82068">
        <ele>1486</ele>
        <time>2016-04-29T09:10:49Z</time>
      </trkpt>
      <trkpt lat="45.63165" lon="3.82068">
        <ele>1486</ele>
        <time>2016-04-29T09:11:04Z</time>
      </trkpt>
      <trkpt lat="45.63158" lon="3.82089">
        <ele>1484</ele>
        <time>2016-04-29T09:11:18Z</time>
      </trkpt>
      <trkpt lat="45.63147" lon="3.82104">
        <ele>1483</ele>
        <time>2016-04-29T09:11:30Z</time>
      </trkpt>
      <trkpt lat="45.6313" lon="3.82127">
        <ele>1482</ele>
        <time>2016-04-29T09:11:48Z</time>
      </trkpt>
      <trkpt lat="45.63124" lon="3.82154">
        <ele>1481</ele>
        <time>2016-04-29T09:12:02Z</time>
      </trkpt>
      <trkpt lat="45.63124" lon="3.82164">
        <ele>1481</ele>
        <time>2016-04-29T09:12:08Z</time>
      </trkpt>
      <trkpt lat="45.63134" lon="3.82192">
        <ele>1480</ele>
        <time>2016-04-29T09:12:23Z</time>
      </trkpt>
      <trkpt lat="45.63144" lon="3.82212">
        <ele>1479</ele>
        <time>2016-04-29T09:12:37Z</time>
      </trkpt>
      <trkpt lat="45.63147" lon="3.82227">
        <ele>1477</ele>
        <time>2016-04-29T09:12:46Z</time>
      </trkpt>
      <trkpt lat="45.63142" lon="3.82248">
        <ele>1475</ele>
        <time>2016-04-29T09:12:59Z</time>
      </trkpt>
      <trkpt lat="45.63138" lon="3.82274">
        <ele>1473</ele>
        <time>2016-04-29T09:13:14Z</time>
      </trkpt>
      <trkpt lat="45.63135" lon="3.82303">
        <ele>1471</ele>
        <time>2016-04-29T09:13:30Z</time>
      </trkpt>
      <trkpt lat="45.63136" lon="3.82307">
        <ele>1470</ele>
        <time>2016-04-29T09:13:49Z</time>
      </trkpt>
      <trkpt lat="45.63134" lon="3.82332">
        <ele>1469</ele>
        <time>2016-04-29T09:14:04Z</time>
      </trkpt>
      <trkpt lat="45.63136" lon="3.82358">
        <ele>1466</ele>
        <time>2016-04-29T09:14:19Z</time>
      </trkpt>
      <trkpt lat="45.63138" lon="3.82376">
        <ele>1464</ele>
        <time>2016-04-29T09:14:30Z</time>
      </trkpt>
      <trkpt lat="45.63137" lon="3.82401">
        <ele>1460</ele>
        <time>2016-04-29T09:14:43Z</time>
      </trkpt>
      <trkpt lat="45.63136" lon="3.82425">
        <ele>1458</ele>
        <time>2016-04-29T09:14:57Z</time>
      </trkpt>
      <trkpt lat="45.63137" lon="3.82445">
        <ele>1454</ele>
        <time>2016-04-29T09:15:08Z</time>
      </trkpt>
      <trkpt lat="45.63137" lon="3.82447">
        <ele>1454</ele>
        <time>2016-04-29T09:15:09Z</time>
      </trkpt>
      <trkpt lat="45.63139" lon="3.82475">
        <ele>1451</ele>
        <time>2016-04-29T09:15:24Z</time>
      </trkpt>
      <trkpt lat="45.63143" lon="3.82502">
        <ele>1448</ele>
        <time>2016-04-29T09:15:39Z</time>
      </trkpt>
      <trkpt lat="45.63152" lon="3.82524">
        <ele>1446</ele>
        <time>2016-04-29T09:15:53Z</time>
      </trkpt>
      <trkpt lat="45.63157" lon="3.82527">
        <ele>1446</ele>
        <time>2016-04-29T09:15:57Z</time>
      </trkpt>
      <trkpt lat="45.63166" lon="3.82545">
        <ele>1445</ele>
        <time>2016-04-29T09:16:10Z</time>
      </trkpt>
      <trkpt lat="45.63169" lon="3.82554">
        <ele>1444</ele>
        <time>2016-04-29T09:16:16Z</time>
      </trkpt>
      <trkpt lat="45.63173" lon="3.82554">
        <ele>1444</ele>
        <time>2016-04-29T09:16:31Z</time>
      </trkpt>
      <trkpt lat="45.63173" lon="3.82553">
        <ele>1445</ele>
        <time>2016-04-29T09:16:52Z</time>
      </trkpt>
      <trkpt lat="45.63172" lon="3.82553">
        <ele>1440</ele>
        <time>2016-04-29T09:17:11Z</time>
      </trkpt>
      <trkpt lat="45.63172" lon="3.82553">
        <ele>1447</ele>
        <time>2016-04-29T09:17:12Z</time>
      </trkpt>
      <trkpt lat="45.63172" lon="3.82552">
        <ele>1447</ele>
        <time>2016-04-29T09:17:13Z</time>
      </trkpt>
      <trkpt lat="45.63172" lon="3.82552">
        <ele>1444</ele>
        <time>2016-04-29T09:17:16Z</time>
      </trkpt>
      <trkpt lat="45.63173" lon="3.82549">
        <ele>1445</ele>
        <time>2016-04-29T09:17:32Z</time>
      </trkpt>
      <trkpt lat="45.63172" lon="3.8255">
        <ele>1444</ele>
        <time>2016-04-29T09:17:34Z</time>
      </trkpt>
      <trkpt lat="45.63173" lon="3.82557">
        <ele>1444</ele>
        <time>2016-04-29T09:17:38Z</time>
      </trkpt>
      <trkpt lat="45.63176" lon="3.82583">
        <ele>1444</ele>
        <time>2016-04-29T09:17:56Z</time>
      </trkpt>
      <trkpt lat="45.63172" lon="3.82602">
        <ele>1443</ele>
        <time>2016-04-29T09:18:12Z</time>
      </trkpt>
      <trkpt lat="45.63159" lon="3.82645">
        <ele>1443</ele>
        <time>2016-04-29T09:18:32Z</time>
      </trkpt>
      <trkpt lat="45.63144" lon="3.82677">
        <ele>1442</ele>
        <time>2016-04-29T09:18:49Z</time>
      </trkpt>
      <trkpt lat="45.63141" lon="3.8272">
        <ele>1443</ele>
        <time>2016-04-29T09:19:07Z</time>
      </trkpt>
      <trkpt lat="45.63129" lon="3.82756">
        <ele>1444</ele>
        <time>2016-04-29T09:19:26Z</time>
      </trkpt>
      <trkpt lat="45.63113" lon="3.82796">
        <ele>1444</ele>
        <time>2016-04-29T09:19:46Z</time>
      </trkpt>
      <trkpt lat="45.631" lon="3.82842">
        <ele>1445</ele>
        <time>2016-04-29T09:20:07Z</time>
      </trkpt>
      <trkpt lat="45.63079" lon="3.82887">
        <ele>1445</ele>
        <time>2016-04-29T09:20:30Z</time>
      </trkpt>
      <trkpt lat="45.6306" lon="3.82925">
        <ele>1445</ele>
        <time>2016-04-29T09:20:50Z</time>
      </trkpt>
      <trkpt lat="45.63031" lon="3.82971">
        <ele>1446</ele>
        <time>2016-04-29T09:21:16Z</time>
      </trkpt>
      <trkpt lat="45.63013" lon="3.83006">
        <ele>1446</ele>
        <time>2016-04-29T09:21:35Z</time>
      </trkpt>
      <trkpt lat="45.62992" lon="3.83047">
        <ele>1447</ele>
        <time>2016-04-29T09:21:57Z</time>
      </trkpt>
      <trkpt lat="45.6297" lon="3.83083">
        <ele>1447</ele>
        <time>2016-04-29T09:22:18Z</time>
      </trkpt>
      <trkpt lat="45.62952" lon="3.83121">
        <ele>1448</ele>
        <time>2016-04-29T09:22:38Z</time>
      </trkpt>
      <trkpt lat="45.62935" lon="3.83149">
        <ele>1450</ele>
        <time>2016-04-29T09:22:56Z</time>
      </trkpt>
      <trkpt lat="45.62913" lon="3.83179">
        <ele>1451</ele>
        <time>2016-04-29T09:23:16Z</time>
      </trkpt>
      <trkpt lat="45.62889" lon="3.83209">
        <ele>1452</ele>
        <time>2016-04-29T09:23:37Z</time>
      </trkpt>
      <trkpt lat="45.62866" lon="3.83243">
        <ele>1454</ele>
        <time>2016-04-29T09:23:59Z</time>
      </trkpt>
      <trkpt lat="45.62844" lon="3.83282">
        <ele>1457</ele>
        <time>2016-04-29T09:24:21Z</time>
      </trkpt>
      <trkpt lat="45.62826" lon="3.83316">
        <ele>1458</ele>
        <time>2016-04-29T09:24:41Z</time>
      </trkpt>
      <trkpt lat="45.62808" lon="3.83345">
        <ele>1460</ele>
        <time>2016-04-29T09:25:01Z</time>
      </trkpt>
      <trkpt lat="45.62794" lon="3.83383">
        <ele>1462</ele>
        <time>2016-04-29T09:25:21Z</time>
      </trkpt>
      <trkpt lat="45.62783" lon="3.8342">
        <ele>1463</ele>
        <time>2016-04-29T09:25:39Z</time>
      </trkpt>
      <trkpt lat="45.62763" lon="3.83456">
        <ele>1464</ele>
        <time>2016-04-29T09:26:00Z</time>
      </trkpt>
      <trkpt lat="45.62747" lon="3.83488">
        <ele>1463</ele>
        <time>2016-04-29T09:26:18Z</time>
      </trkpt>
      <trkpt lat="45.62736" lon="3.8351">
        <ele>1462</ele>
        <time>2016-04-29T09:26:35Z</time>
      </trkpt>
      <trkpt lat="45.62731" lon="3.83516">
        <ele>1462</ele>
        <time>2016-04-29T09:26:58Z</time>
      </trkpt>
      <trkpt lat="45.62714" lon="3.83547">
        <ele>1462</ele>
        <time>2016-04-29T09:27:17Z</time>
      </trkpt>
      <trkpt lat="45.62695" lon="3.83578">
        <ele>1462</ele>
        <time>2016-04-29T09:27:36Z</time>
      </trkpt>
      <trkpt lat="45.6267" lon="3.83617">
        <ele>1461</ele>
        <time>2016-04-29T09:27:58Z</time>
      </trkpt>
      <trkpt lat="45.62647" lon="3.83647">
        <ele>1461</ele>
        <time>2016-04-29T09:28:17Z</time>
      </trkpt>
      <trkpt lat="45.62626" lon="3.8367">
        <ele>1461</ele>
        <time>2016-04-29T09:28:34Z</time>
      </trkpt>
      <trkpt lat="45.62602" lon="3.83695">
        <ele>1462</ele>
        <time>2016-04-29T09:28:53Z</time>
      </trkpt>
      <trkpt lat="45.62582" lon="3.8373">
        <ele>1463</ele>
        <time>2016-04-29T09:29:12Z</time>
      </trkpt>
      <trkpt lat="45.62564" lon="3.83763">
        <ele>1465</ele>
        <time>2016-04-29T09:29:32Z</time>
      </trkpt>
      <trkpt lat="45.62548" lon="3.83797">
        <ele>1466</ele>
        <time>2016-04-29T09:29:51Z</time>
      </trkpt>
      <trkpt lat="45.62531" lon="3.83827">
        <ele>1467</ele>
        <time>2016-04-29T09:30:10Z</time>
      </trkpt>
      <trkpt lat="45.62511" lon="3.83866">
        <ele>1468</ele>
        <time>2016-04-29T09:30:31Z</time>
      </trkpt>
      <trkpt lat="45.62497" lon="3.83901">
        <ele>1468</ele>
        <time>2016-04-29T09:30:48Z</time>
      </trkpt>
      <trkpt lat="45.62486" lon="3.83934">
        <ele>1470</ele>
        <time>2016-04-29T09:31:05Z</time>
      </trkpt>
      <trkpt lat="45.62474" lon="3.83968">
        <ele>1470</ele>
        <time>2016-04-29T09:31:24Z</time>
      </trkpt>
      <trkpt lat="45.62463" lon="3.84001">
        <ele>1471</ele>
        <time>2016-04-29T09:31:42Z</time>
      </trkpt>
      <trkpt lat="45.62451" lon="3.84038">
        <ele>1472</ele>
        <time>2016-04-29T09:32:02Z</time>
      </trkpt>
      <trkpt lat="45.62436" lon="3.84081">
        <ele>1473</ele>
        <time>2016-04-29T09:32:24Z</time>
      </trkpt>
      <trkpt lat="45.62424" lon="3.84114">
        <ele>1474</ele>
        <time>2016-04-29T09:32:41Z</time>
      </trkpt>
      <trkpt lat="45.62418" lon="3.84134">
        <ele>1474</ele>
        <time>2016-04-29T09:32:58Z</time>
      </trkpt>
      <trkpt lat="45.62407" lon="3.8417">
        <ele>1475</ele>
        <time>2016-04-29T09:33:17Z</time>
      </trkpt>
      <trkpt lat="45.62401" lon="3.84189">
        <ele>1474</ele>
        <time>2016-04-29T09:33:27Z</time>
      </trkpt>
      <trkpt lat="45.62389" lon="3.84222">
        <ele>1476</ele>
        <time>2016-04-29T09:33:44Z</time>
      </trkpt>
      <trkpt lat="45.62377" lon="3.84267">
        <ele>1477</ele>
        <time>2016-04-29T09:34:06Z</time>
      </trkpt>
      <trkpt lat="45.62365" lon="3.84306">
        <ele>1477</ele>
        <time>2016-04-29T09:34:25Z</time>
      </trkpt>
      <trkpt lat="45.62349" lon="3.84352">
        <ele>1479</ele>
        <time>2016-04-29T09:34:47Z</time>
      </trkpt>
      <trkpt lat="45.62336" lon="3.84397">
        <ele>1479</ele>
        <time>2016-04-29T09:35:08Z</time>
      </trkpt>
      <trkpt lat="45.62327" lon="3.84436">
        <ele>1480</ele>
        <time>2016-04-29T09:35:26Z</time>
      </trkpt>
      <trkpt lat="45.62313" lon="3.84474">
        <ele>1478</ele>
        <time>2016-04-29T09:35:47Z</time>
      </trkpt>
      <trkpt lat="45.62294" lon="3.84509">
        <ele>1478</ele>
        <time>2016-04-29T09:36:07Z</time>
      </trkpt>
      <trkpt lat="45.62272" lon="3.84546">
        <ele>1477</ele>
        <time>2016-04-29T09:36:28Z</time>
      </trkpt>
      <trkpt lat="45.62261" lon="3.84589">
        <ele>1476</ele>
        <time>2016-04-29T09:36:48Z</time>
      </trkpt>
      <trkpt lat="45.62249" lon="3.84626">
        <ele>1474</ele>
        <time>2016-04-29T09:37:06Z</time>
      </trkpt>
      <trkpt lat="45.62249" lon="3.84628">
        <ele>1474</ele>
        <time>2016-04-29T09:37:19Z</time>
      </trkpt>
      <trkpt lat="45.62246" lon="3.8463">
        <ele>1474</ele>
        <time>2016-04-29T09:37:45Z</time>
      </trkpt>
      <trkpt lat="45.62244" lon="3.84631">
        <ele>1474</ele>
        <time>2016-04-29T09:37:59Z</time>
      </trkpt>
      <trkpt lat="45.62244" lon="3.84632">
        <ele>1474</ele>
        <time>2016-04-29T09:38:13Z</time>
      </trkpt>
      <trkpt lat="45.62236" lon="3.84633">
        <ele>1473</ele>
        <time>2016-04-29T09:38:28Z</time>
      </trkpt>
      <trkpt lat="45.62234" lon="3.84638">
        <ele>1473</ele>
        <time>2016-04-29T09:38:30Z</time>
      </trkpt>
      <trkpt lat="45.62216" lon="3.84648">
        <ele>1473</ele>
        <time>2016-04-29T09:38:46Z</time>
      </trkpt>
      <trkpt lat="45.62192" lon="3.84654">
        <ele>1470</ele>
        <time>2016-04-29T09:39:05Z</time>
      </trkpt>
      <trkpt lat="45.62168" lon="3.84661">
        <ele>1469</ele>
        <time>2016-04-29T09:39:22Z</time>
      </trkpt>
      <trkpt lat="45.62139" lon="3.84655">
        <ele>1467</ele>
        <time>2016-04-29T09:39:41Z</time>
      </trkpt>
      <trkpt lat="45.62135" lon="3.84654">
        <ele>1467</ele>
        <time>2016-04-29T09:39:44Z</time>
      </trkpt>
      <trkpt lat="45.62109" lon="3.8465">
        <ele>1466</ele>
        <time>2016-04-29T09:40:01Z</time>
      </trkpt>
      <trkpt lat="45.62084" lon="3.84641">
        <ele>1464</ele>
        <time>2016-04-29T09:40:18Z</time>
      </trkpt>
      <trkpt lat="45.6206" lon="3.84638">
        <ele>1463</ele>
        <time>2016-04-29T09:40:35Z</time>
      </trkpt>
      <trkpt lat="45.62041" lon="3.84634">
        <ele>1460</ele>
        <time>2016-04-29T09:40:52Z</time>
      </trkpt>
      <trkpt lat="45.62033" lon="3.84632">
        <ele>1460</ele>
        <time>2016-04-29T09:40:58Z</time>
      </trkpt>
      <trkpt lat="45.62013" lon="3.84617">
        <ele>1457</ele>
        <time>2016-04-29T09:41:14Z</time>
      </trkpt>
      <trkpt lat="45.61995" lon="3.84607">
        <ele>1456</ele>
        <time>2016-04-29T09:41:30Z</time>
      </trkpt>
      <trkpt lat="45.61985" lon="3.84601">
        <ele>1454</ele>
        <time>2016-04-29T09:41:38Z</time>
      </trkpt>
      <trkpt lat="45.61979" lon="3.84595">
        <ele>1455</ele>
        <time>2016-04-29T09:41:45Z</time>
      </trkpt>
      <trkpt lat="45.61954" lon="3.84581">
        <ele>1453</ele>
        <time>2016-04-29T09:42:02Z</time>
      </trkpt>
      <trkpt lat="45.6193" lon="3.84574">
        <ele>1451</ele>
        <time>2016-04-29T09:42:19Z</time>
      </trkpt>
      <trkpt lat="45.61916" lon="3.84576">
        <ele>1450</ele>
        <time>2016-04-29T09:42:29Z</time>
      </trkpt>
      <trkpt lat="45.61893" lon="3.84574">
        <ele>1448</ele>
        <time>2016-04-29T09:42:46Z</time>
      </trkpt>
      <trkpt lat="45.61872" lon="3.84566">
        <ele>1446</ele>
        <time>2016-04-29T09:43:00Z</time>
      </trkpt>
      <trkpt lat="45.61849" lon="3.8456">
        <ele>1445</ele>
        <time>2016-04-29T09:43:16Z</time>
      </trkpt>
      <trkpt lat="45.61827" lon="3.84553">
        <ele>1441</ele>
        <time>2016-04-29T09:43:33Z</time>
      </trkpt>
      <trkpt lat="45.6181" lon="3.84553">
        <ele>1441</ele>
        <time>2016-04-29T09:43:49Z</time>
      </trkpt>
      <trkpt lat="45.61788" lon="3.84545">
        <ele>1439</ele>
        <time>2016-04-29T09:44:05Z</time>
      </trkpt>
      <trkpt lat="45.61764" lon="3.84533">
        <ele>1438</ele>
        <time>2016-04-29T09:44:22Z</time>
      </trkpt>
      <trkpt lat="45.61736" lon="3.84515">
        <ele>1437</ele>
        <time>2016-04-29T09:44:42Z</time>
      </trkpt>
      <trkpt lat="45.61713" lon="3.84495">
        <ele>1436</ele>
        <time>2016-04-29T09:45:00Z</time>
      </trkpt>
      <trkpt lat="45.61693" lon="3.84488">
        <ele>1435</ele>
        <time>2016-04-29T09:45:16Z</time>
      </trkpt>
      <trkpt lat="45.6167" lon="3.84487">
        <ele>1434</ele>
        <time>2016-04-29T09:45:33Z</time>
      </trkpt>
      <trkpt lat="45.61667" lon="3.84488">
        <ele>1432</ele>
        <time>2016-04-29T09:45:35Z</time>
      </trkpt>
      <trkpt lat="45.61641" lon="3.84489">
        <ele>1432</ele>
        <time>2016-04-29T09:45:54Z</time>
      </trkpt>
      <trkpt lat="45.61623" lon="3.84488">
        <ele>1431</ele>
        <time>2016-04-29T09:46:07Z</time>
      </trkpt>
      <trkpt lat="45.61611" lon="3.84459">
        <ele>1430</ele>
        <time>2016-04-29T09:46:22Z</time>
      </trkpt>
      <trkpt lat="45.61601" lon="3.84433">
        <ele>1429</ele>
        <time>2016-04-29T09:46:36Z</time>
      </trkpt>
      <trkpt lat="45.61591" lon="3.84398">
        <ele>1427</ele>
        <time>2016-04-29T09:46:54Z</time>
      </trkpt>
      <trkpt lat="45.61584" lon="3.84368">
        <ele>1426</ele>
        <time>2016-04-29T09:47:10Z</time>
      </trkpt>
      <trkpt lat="45.61576" lon="3.84334">
        <ele>1425</ele>
        <time>2016-04-29T09:47:28Z</time>
      </trkpt>
      <trkpt lat="45.61561" lon="3.84309">
        <ele>1423</ele>
        <time>2016-04-29T09:47:45Z</time>
      </trkpt>
      <trkpt lat="45.61539" lon="3.84296">
        <ele>1422</ele>
        <time>2016-04-29T09:48:01Z</time>
      </trkpt>
      <trkpt lat="45.61522" lon="3.84296">
        <ele>1422</ele>
        <time>2016-04-29T09:48:14Z</time>
      </trkpt>
      <trkpt lat="45.61501" lon="3.84295">
        <ele>1421</ele>
        <time>2016-04-29T09:48:28Z</time>
      </trkpt>
      <trkpt lat="45.61476" lon="3.84292">
        <ele>1420</ele>
        <time>2016-04-29T09:48:45Z</time>
      </trkpt>
      <trkpt lat="45.61451" lon="3.8429">
        <ele>1420</ele>
        <time>2016-04-29T09:49:02Z</time>
      </trkpt>
      <trkpt lat="45.61427" lon="3.84286">
        <ele>1420</ele>
        <time>2016-04-29T09:49:20Z</time>
      </trkpt>
      <trkpt lat="45.61402" lon="3.8429">
        <ele>1420</ele>
        <time>2016-04-29T09:49:39Z</time>
      </trkpt>
      <trkpt lat="45.61378" lon="3.84295">
        <ele>1419</ele>
        <time>2016-04-29T09:49:57Z</time>
      </trkpt>
      <trkpt lat="45.61349" lon="3.84298">
        <ele>1419</ele>
        <time>2016-04-29T09:50:17Z</time>
      </trkpt>
      <trkpt lat="45.61329" lon="3.84297">
        <ele>1419</ele>
        <time>2016-04-29T09:50:32Z</time>
      </trkpt>
      <trkpt lat="45.61302" lon="3.84301">
        <ele>1419</ele>
        <time>2016-04-29T09:50:50Z</time>
      </trkpt>
      <trkpt lat="45.61277" lon="3.84308">
        <ele>1418</ele>
        <time>2016-04-29T09:51:08Z</time>
      </trkpt>
      <trkpt lat="45.61255" lon="3.84319">
        <ele>1418</ele>
        <time>2016-04-29T09:51:25Z</time>
      </trkpt>
      <trkpt lat="45.61232" lon="3.84325">
        <ele>1418</ele>
        <time>2016-04-29T09:51:41Z</time>
      </trkpt>
      <trkpt lat="45.6121" lon="3.84328">
        <ele>1418</ele>
        <time>2016-04-29T09:51:56Z</time>
      </trkpt>
      <trkpt lat="45.6119" lon="3.84335">
        <ele>1418</ele>
        <time>2016-04-29T09:52:12Z</time>
      </trkpt>
      <trkpt lat="45.61172" lon="3.84332">
        <ele>1418</ele>
        <time>2016-04-29T09:52:27Z</time>
      </trkpt>
      <trkpt lat="45.61171" lon="3.8433">
        <ele>1419</ele>
        <time>2016-04-29T09:52:41Z</time>
      </trkpt>
      <trkpt lat="45.61169" lon="3.84332">
        <ele>1419</ele>
        <time>2016-04-29T09:52:58Z</time>
      </trkpt>
      <trkpt lat="45.61167" lon="3.84334">
        <ele>1419</ele>
        <time>2016-04-29T09:53:03Z</time>
      </trkpt>
      <trkpt lat="45.61165" lon="3.84336">
        <ele>1419</ele>
        <time>2016-04-29T09:53:05Z</time>
      </trkpt>
      <trkpt lat="45.6116" lon="3.84339">
        <ele>1419</ele>
        <time>2016-04-29T09:53:09Z</time>
      </trkpt>
      <trkpt lat="45.61159" lon="3.84339">
        <ele>1418</ele>
        <time>2016-04-29T09:53:10Z</time>
      </trkpt>
      <trkpt lat="45.61158" lon="3.84339">
        <ele>1418</ele>
        <time>2016-04-29T09:53:11Z</time>
      </trkpt>
      <trkpt lat="45.61155" lon="3.84343">
        <ele>1419</ele>
        <time>2016-04-29T09:53:25Z</time>
      </trkpt>
      <trkpt lat="45.61156" lon="3.8434">
        <ele>1420</ele>
        <time>2016-04-29T09:53:42Z</time>
      </trkpt>
      <trkpt lat="45.61147" lon="3.8434">
        <ele>1420</ele>
        <time>2016-04-29T09:54:01Z</time>
      </trkpt>
      <trkpt lat="45.61119" lon="3.84344">
        <ele>1421</ele>
        <time>2016-04-29T09:54:19Z</time>
      </trkpt>
      <trkpt lat="45.61092" lon="3.84351">
        <ele>1421</ele>
        <time>2016-04-29T09:54:36Z</time>
      </trkpt>
      <trkpt lat="45.61063" lon="3.84355">
        <ele>1423</ele>
        <time>2016-04-29T09:54:54Z</time>
      </trkpt>
      <trkpt lat="45.61037" lon="3.84359">
        <ele>1423</ele>
        <time>2016-04-29T09:55:11Z</time>
      </trkpt>
      <trkpt lat="45.61008" lon="3.84365">
        <ele>1424</ele>
        <time>2016-04-29T09:55:28Z</time>
      </trkpt>
      <trkpt lat="45.60978" lon="3.84372">
        <ele>1424</ele>
        <time>2016-04-29T09:55:47Z</time>
      </trkpt>
      <trkpt lat="45.60949" lon="3.84376">
        <ele>1425</ele>
        <time>2016-04-29T09:56:05Z</time>
      </trkpt>
      <trkpt lat="45.6092" lon="3.84377">
        <ele>1425</ele>
        <time>2016-04-29T09:56:23Z</time>
      </trkpt>
      <trkpt lat="45.60888" lon="3.84378">
        <ele>1425</ele>
        <time>2016-04-29T09:56:42Z</time>
      </trkpt>
      <trkpt lat="45.60857" lon="3.84374">
        <ele>1424</ele>
        <time>2016-04-29T09:57:02Z</time>
      </trkpt>
      <trkpt lat="45.60829" lon="3.84378">
        <ele>1424</ele>
        <time>2016-04-29T09:57:20Z</time>
      </trkpt>
      <trkpt lat="45.60803" lon="3.84376">
        <ele>1421</ele>
        <time>2016-04-29T09:57:36Z</time>
      </trkpt>
      <trkpt lat="45.6078" lon="3.84363">
        <ele>1420</ele>
        <time>2016-04-29T09:57:51Z</time>
      </trkpt>
      <trkpt lat="45.60752" lon="3.84357">
        <ele>1418</ele>
        <time>2016-04-29T09:58:07Z</time>
      </trkpt>
      <trkpt lat="45.60714" lon="3.84361">
        <ele>1418</ele>
        <time>2016-04-29T09:58:29Z</time>
      </trkpt>
      <trkpt lat="45.60692" lon="3.84365">
        <ele>1418</ele>
        <time>2016-04-29T09:58:44Z</time>
      </trkpt>
      <trkpt lat="45.60657" lon="3.84376">
        <ele>1416</ele>
        <time>2016-04-29T09:59:04Z</time>
      </trkpt>
      <trkpt lat="45.60629" lon="3.84374">
        <ele>1418</ele>
        <time>2016-04-29T09:59:23Z</time>
      </trkpt>
      <trkpt lat="45.60615" lon="3.84376">
        <ele>1417</ele>
        <time>2016-04-29T09:59:37Z</time>
      </trkpt>
      <trkpt lat="45.60614" lon="3.84376">
        <ele>1417</ele>
        <time>2016-04-29T10:00:00Z</time>
      </trkpt>
      <trkpt lat="45.60598" lon="3.84385">
        <ele>1416</ele>
        <time>2016-04-29T10:00:12Z</time>
      </trkpt>
      <trkpt lat="45.60578" lon="3.84391">
        <ele>1414</ele>
        <time>2016-04-29T10:00:26Z</time>
      </trkpt>
      <trkpt lat="45.60557" lon="3.844">
        <ele>1412</ele>
        <time>2016-04-29T10:00:40Z</time>
      </trkpt>
      <trkpt lat="45.60525" lon="3.84406">
        <ele>1410</ele>
        <time>2016-04-29T10:01:00Z</time>
      </trkpt>
      <trkpt lat="45.60488" lon="3.84417">
        <ele>1409</ele>
        <time>2016-04-29T10:01:21Z</time>
      </trkpt>
      <trkpt lat="45.60455" lon="3.84427">
        <ele>1408</ele>
        <time>2016-04-29T10:01:41Z</time>
      </trkpt>
      <trkpt lat="45.60418" lon="3.84434">
        <ele>1408</ele>
        <time>2016-04-29T10:02:04Z</time>
      </trkpt>
      <trkpt lat="45.60383" lon="3.84448">
        <ele>1409</ele>
        <time>2016-04-29T10:02:25Z</time>
      </trkpt>
      <trkpt lat="45.60369" lon="3.84481">
        <ele>1408</ele>
        <time>2016-04-29T10:02:41Z</time>
      </trkpt>
      <trkpt lat="45.60344" lon="3.84506">
        <ele>1408</ele>
        <time>2016-04-29T10:03:00Z</time>
      </trkpt>
      <trkpt lat="45.60314" lon="3.8453">
        <ele>1407</ele>
        <time>2016-04-29T10:03:21Z</time>
      </trkpt>
      <trkpt lat="45.60286" lon="3.84553">
        <ele>1405</ele>
        <time>2016-04-29T10:03:41Z</time>
      </trkpt>
      <trkpt lat="45.60258" lon="3.84574">
        <ele>1405</ele>
        <time>2016-04-29T10:04:01Z</time>
      </trkpt>
      <trkpt lat="45.60228" lon="3.84596">
        <ele>1403</ele>
        <time>2016-04-29T10:04:20Z</time>
      </trkpt>
      <trkpt lat="45.60209" lon="3.84615">
        <ele>1401</ele>
        <time>2016-04-29T10:04:36Z</time>
      </trkpt>
      <trkpt lat="45.60207" lon="3.84616">
        <ele>1401</ele>
        <time>2016-04-29T10:04:39Z</time>
      </trkpt>
      <trkpt lat="45.60206" lon="3.84617">
        <ele>1401</ele>
        <time>2016-04-29T10:04:40Z</time>
      </trkpt>
      <trkpt lat="45.60177" lon="3.84639">
        <ele>1400</ele>
        <time>2016-04-29T10:04:59Z</time>
      </trkpt>
      <trkpt lat="45.6015" lon="3.84653">
        <ele>1397</ele>
        <time>2016-04-29T10:05:17Z</time>
      </trkpt>
      <trkpt lat="45.60114" lon="3.84655">
        <ele>1395</ele>
        <time>2016-04-29T10:05:39Z</time>
      </trkpt>
      <trkpt lat="45.60095" lon="3.8463">
        <ele>1394</ele>
        <time>2016-04-29T10:05:55Z</time>
      </trkpt>
      <trkpt lat="45.60081" lon="3.84595">
        <ele>1393</ele>
        <time>2016-04-29T10:06:12Z</time>
      </trkpt>
      <trkpt lat="45.60077" lon="3.84558">
        <ele>1392</ele>
        <time>2016-04-29T10:06:26Z</time>
      </trkpt>
      <trkpt lat="45.60063" lon="3.84527">
        <ele>1390</ele>
        <time>2016-04-29T10:06:41Z</time>
      </trkpt>
      <trkpt lat="45.60044" lon="3.84538">
        <ele>1391</ele>
        <time>2016-04-29T10:06:54Z</time>
      </trkpt>
      <trkpt lat="45.60025" lon="3.84569">
        <ele>1393</ele>
        <time>2016-04-29T10:07:12Z</time>
      </trkpt>
      <trkpt lat="45.60015" lon="3.84574">
        <ele>1396</ele>
        <time>2016-04-29T10:07:19Z</time>
      </trkpt>
      <trkpt lat="45.60014" lon="3.84575">
        <ele>1396</ele>
        <time>2016-04-29T10:07:20Z</time>
      </trkpt>
      <trkpt lat="45.60011" lon="3.84577">
        <ele>1394</ele>
        <time>2016-04-29T10:07:22Z</time>
      </trkpt>
      <trkpt lat="45.59992" lon="3.84606">
        <ele>1395</ele>
        <time>2016-04-29T10:07:39Z</time>
      </trkpt>
      <trkpt lat="45.59972" lon="3.84642">
        <ele>1395</ele>
        <time>2016-04-29T10:07:59Z</time>
      </trkpt>
      <trkpt lat="45.59958" lon="3.84664">
        <ele>1394</ele>
        <time>2016-04-29T10:08:13Z</time>
      </trkpt>
      <trkpt lat="45.59946" lon="3.84683">
        <ele>1395</ele>
        <time>2016-04-29T10:08:29Z</time>
      </trkpt>
      <trkpt lat="45.59945" lon="3.84681">
        <ele>1395</ele>
        <time>2016-04-29T10:08:53Z</time>
      </trkpt>
      <trkpt lat="45.59945" lon="3.84683">
        <ele>1394</ele>
        <time>2016-04-29T10:09:14Z</time>
      </trkpt>
      <trkpt lat="45.59935" lon="3.84694">
        <ele>1394</ele>
        <time>2016-04-29T10:09:28Z</time>
      </trkpt>
      <trkpt lat="45.5992" lon="3.84712">
        <ele>1393</ele>
        <time>2016-04-29T10:09:44Z</time>
      </trkpt>
      <trkpt lat="45.59901" lon="3.84735">
        <ele>1393</ele>
        <time>2016-04-29T10:10:01Z</time>
      </trkpt>
      <trkpt lat="45.59895" lon="3.8474">
        <ele>1393</ele>
        <time>2016-04-29T10:10:06Z</time>
      </trkpt>
      <trkpt lat="45.59894" lon="3.84742">
        <ele>1393</ele>
        <time>2016-04-29T10:10:07Z</time>
      </trkpt>
      <trkpt lat="45.59893" lon="3.84743">
        <ele>1393</ele>
        <time>2016-04-29T10:10:08Z</time>
      </trkpt>
      <trkpt lat="45.59886" lon="3.8475">
        <ele>1390</ele>
        <time>2016-04-29T10:10:14Z</time>
      </trkpt>
      <trkpt lat="45.59882" lon="3.84753">
        <ele>1395</ele>
        <time>2016-04-29T10:10:17Z</time>
      </trkpt>
      <trkpt lat="45.5988" lon="3.84756">
        <ele>1390</ele>
        <time>2016-04-29T10:10:19Z</time>
      </trkpt>
      <trkpt lat="45.59879" lon="3.84757">
        <ele>1391</ele>
        <time>2016-04-29T10:10:20Z</time>
      </trkpt>
      <trkpt lat="45.59878" lon="3.84758">
        <ele>1397</ele>
        <time>2016-04-29T10:10:21Z</time>
      </trkpt>
      <trkpt lat="45.59877" lon="3.84759">
        <ele>1392</ele>
        <time>2016-04-29T10:10:22Z</time>
      </trkpt>
      <trkpt lat="45.59871" lon="3.84765">
        <ele>1391</ele>
        <time>2016-04-29T10:10:27Z</time>
      </trkpt>
      <trkpt lat="45.59851" lon="3.84788">
        <ele>1392</ele>
        <time>2016-04-29T10:10:45Z</time>
      </trkpt>
      <trkpt lat="45.59847" lon="3.84791">
        <ele>1392</ele>
        <time>2016-04-29T10:10:48Z</time>
      </trkpt>
      <trkpt lat="45.59827" lon="3.84815">
        <ele>1391</ele>
        <time>2016-04-29T10:11:07Z</time>
      </trkpt>
      <trkpt lat="45.59807" lon="3.84837">
        <ele>1391</ele>
        <time>2016-04-29T10:11:24Z</time>
      </trkpt>
      <trkpt lat="45.59787" lon="3.84857">
        <ele>1390</ele>
        <time>2016-04-29T10:11:41Z</time>
      </trkpt>
      <trkpt lat="45.59768" lon="3.84876">
        <ele>1390</ele>
        <time>2016-04-29T10:11:58Z</time>
      </trkpt>
      <trkpt lat="45.59746" lon="3.84894">
        <ele>1389</ele>
        <time>2016-04-29T10:12:16Z</time>
      </trkpt>
      <trkpt lat="45.59724" lon="3.84907">
        <ele>1388</ele>
        <time>2016-04-29T10:12:32Z</time>
      </trkpt>
      <trkpt lat="45.59699" lon="3.84915">
        <ele>1387</ele>
        <time>2016-04-29T10:12:49Z</time>
      </trkpt>
      <trkpt lat="45.59676" lon="3.84926">
        <ele>1387</ele>
        <time>2016-04-29T10:13:06Z</time>
      </trkpt>
      <trkpt lat="45.59652" lon="3.84933">
        <ele>1386</ele>
        <time>2016-04-29T10:13:23Z</time>
      </trkpt>
      <trkpt lat="45.59627" lon="3.84932">
        <ele>1385</ele>
        <time>2016-04-29T10:13:40Z</time>
      </trkpt>
      <trkpt lat="45.59603" lon="3.84932">
        <ele>1384</ele>
        <time>2016-04-29T10:13:57Z</time>
      </trkpt>
      <trkpt lat="45.5958" lon="3.8493">
        <ele>1384</ele>
        <time>2016-04-29T10:14:12Z</time>
      </trkpt>
      <trkpt lat="45.59561" lon="3.8493">
        <ele>1383</ele>
        <time>2016-04-29T10:14:26Z</time>
      </trkpt>
      <trkpt lat="45.59537" lon="3.8493">
        <ele>1382</ele>
        <time>2016-04-29T10:14:42Z</time>
      </trkpt>
      <trkpt lat="45.59512" lon="3.84928">
        <ele>1382</ele>
        <time>2016-04-29T10:14:58Z</time>
      </trkpt>
      <trkpt lat="45.59498" lon="3.84926">
        <ele>1382</ele>
        <time>2016-04-29T10:15:08Z</time>
      </trkpt>
      <trkpt lat="45.59497" lon="3.84926">
        <ele>1382</ele>
        <time>2016-04-29T10:15:09Z</time>
      </trkpt>
      <trkpt lat="45.59495" lon="3.84926">
        <ele>1382</ele>
        <time>2016-04-29T10:15:10Z</time>
      </trkpt>
      <trkpt lat="45.59493" lon="3.84926">
        <ele>1382</ele>
        <time>2016-04-29T10:15:11Z</time>
      </trkpt>
      <trkpt lat="45.59491" lon="3.84926">
        <ele>1381</ele>
        <time>2016-04-29T10:15:12Z</time>
      </trkpt>
      <trkpt lat="45.5949" lon="3.84926">
        <ele>1381</ele>
        <time>2016-04-29T10:15:13Z</time>
      </trkpt>
      <trkpt lat="45.59488" lon="3.84926">
        <ele>1381</ele>
        <time>2016-04-29T10:15:14Z</time>
      </trkpt>
      <trkpt lat="45.59467" lon="3.84922">
        <ele>1380</ele>
        <time>2016-04-29T10:15:29Z</time>
      </trkpt>
      <trkpt lat="45.59449" lon="3.84908">
        <ele>1380</ele>
        <time>2016-04-29T10:15:45Z</time>
      </trkpt>
      <trkpt lat="45.59432" lon="3.84896">
        <ele>1378</ele>
        <time>2016-04-29T10:15:59Z</time>
      </trkpt>
      <trkpt lat="45.59416" lon="3.84881">
        <ele>1378</ele>
        <time>2016-04-29T10:16:13Z</time>
      </trkpt>
      <trkpt lat="45.59414" lon="3.84879">
        <ele>1377</ele>
        <time>2016-04-29T10:16:15Z</time>
      </trkpt>
      <trkpt lat="45.59413" lon="3.84877">
        <ele>1378</ele>
        <time>2016-04-29T10:16:16Z</time>
      </trkpt>
      <trkpt lat="45.59412" lon="3.84876">
        <ele>1377</ele>
        <time>2016-04-29T10:16:17Z</time>
      </trkpt>
      <trkpt lat="45.59411" lon="3.84874">
        <ele>1377</ele>
        <time>2016-04-29T10:16:18Z</time>
      </trkpt>
      <trkpt lat="45.5941" lon="3.84873">
        <ele>1378</ele>
        <time>2016-04-29T10:16:19Z</time>
      </trkpt>
      <trkpt lat="45.59408" lon="3.84872">
        <ele>1377</ele>
        <time>2016-04-29T10:16:20Z</time>
      </trkpt>
      <trkpt lat="45.59407" lon="3.8487">
        <ele>1377</ele>
        <time>2016-04-29T10:16:21Z</time>
      </trkpt>
      <trkpt lat="45.59392" lon="3.84848">
        <ele>1376</ele>
        <time>2016-04-29T10:16:35Z</time>
      </trkpt>
      <trkpt lat="45.59378" lon="3.84824">
        <ele>1375</ele>
        <time>2016-04-29T10:16:50Z</time>
      </trkpt>
      <trkpt lat="45.59363" lon="3.84795">
        <ele>1374</ele>
        <time>2016-04-29T10:17:07Z</time>
      </trkpt>
      <trkpt lat="45.59351" lon="3.84772">
        <ele>1373</ele>
        <time>2016-04-29T10:17:21Z</time>
      </trkpt>
      <trkpt lat="45.59351" lon="3.8477">
        <ele>1373</ele>
        <time>2016-04-29T10:17:22Z</time>
      </trkpt>
      <trkpt lat="45.59336" lon="3.84743">
        <ele>1372</ele>
        <time>2016-04-29T10:17:38Z</time>
      </trkpt>
      <trkpt lat="45.59335" lon="3.84739">
        <ele>1372</ele>
        <time>2016-04-29T10:17:40Z</time>
      </trkpt>
      <trkpt lat="45.59335" lon="3.84738">
        <ele>1372</ele>
        <time>2016-04-29T10:17:41Z</time>
      </trkpt>
      <trkpt lat="45.59334" lon="3.84736">
        <ele>1372</ele>
        <time>2016-04-29T10:17:42Z</time>
      </trkpt>
      <trkpt lat="45.59321" lon="3.84712">
        <ele>1371</ele>
        <time>2016-04-29T10:17:57Z</time>
      </trkpt>
      <trkpt lat="45.59307" lon="3.84684">
        <ele>1370</ele>
        <time>2016-04-29T10:18:12Z</time>
      </trkpt>
      <trkpt lat="45.59295" lon="3.84658">
        <ele>1370</ele>
        <time>2016-04-29T10:18:27Z</time>
      </trkpt>
      <trkpt lat="45.59287" lon="3.84639">
        <ele>1368</ele>
        <time>2016-04-29T10:18:38Z</time>
      </trkpt>
      <trkpt lat="45.59277" lon="3.84616">
        <ele>1368</ele>
        <time>2016-04-29T10:18:52Z</time>
      </trkpt>
      <trkpt lat="45.59271" lon="3.84607">
        <ele>1368</ele>
        <time>2016-04-29T10:18:59Z</time>
      </trkpt>
      <trkpt lat="45.59271" lon="3.84605">
        <ele>1368</ele>
        <time>2016-04-29T10:19:00Z</time>
      </trkpt>
      <trkpt lat="45.59264" lon="3.84597">
        <ele>1368</ele>
        <time>2016-04-29T10:19:14Z</time>
      </trkpt>
      <trkpt lat="45.59262" lon="3.84595">
        <ele>1368</ele>
        <time>2016-04-29T10:19:27Z</time>
      </trkpt>
      <trkpt lat="45.59264" lon="3.84582">
        <ele>1368</ele>
        <time>2016-04-29T10:19:40Z</time>
      </trkpt>
      <trkpt lat="45.59264" lon="3.84581">
        <ele>1367</ele>
        <time>2016-04-29T10:20:00Z</time>
      </trkpt>
      <trkpt lat="45.59264" lon="3.8458">
        <ele>1367</ele>
        <time>2016-04-29T10:20:23Z</time>
      </trkpt>
      <trkpt lat="45.59263" lon="3.84581">
        <ele>1368</ele>
        <time>2016-04-29T10:20:46Z</time>
      </trkpt>
      <trkpt lat="45.59264" lon="3.84579">
        <ele>1367</ele>
        <time>2016-04-29T10:21:03Z</time>
      </trkpt>
      <trkpt lat="45.59266" lon="3.84578">
        <ele>1368</ele>
        <time>2016-04-29T10:21:26Z</time>
      </trkpt>
      <trkpt lat="45.59268" lon="3.84581">
        <ele>1368</ele>
        <time>2016-04-29T10:21:40Z</time>
      </trkpt>
      <trkpt lat="45.59267" lon="3.8458">
        <ele>1367</ele>
        <time>2016-04-29T10:22:05Z</time>
      </trkpt>
      <trkpt lat="45.59267" lon="3.84581">
        <ele>1368</ele>
        <time>2016-04-29T10:22:21Z</time>
      </trkpt>
      <trkpt lat="45.59267" lon="3.84576">
        <ele>1368</ele>
        <time>2016-04-29T10:22:36Z</time>
      </trkpt>
      <trkpt lat="45.59264" lon="3.84574">
        <ele>1368</ele>
        <time>2016-04-29T10:23:06Z</time>
      </trkpt>
      <trkpt lat="45.59266" lon="3.84579">
        <ele>1367</ele>
        <time>2016-04-29T10:23:25Z</time>
      </trkpt>
      <trkpt lat="45.59266" lon="3.84581">
        <ele>1368</ele>
        <time>2016-04-29T10:23:49Z</time>
      </trkpt>
      <trkpt lat="45.59267" lon="3.84578">
        <ele>1367</ele>
        <time>2016-04-29T10:24:11Z</time>
      </trkpt>
      <trkpt lat="45.59263" lon="3.84582">
        <ele>1367</ele>
        <time>2016-04-29T10:24:38Z</time>
      </trkpt>
      <trkpt lat="45.59253" lon="3.84576">
        <ele>1367</ele>
        <time>2016-04-29T10:24:52Z</time>
      </trkpt>
      <trkpt lat="45.59251" lon="3.84575">
        <ele>1367</ele>
        <time>2016-04-29T10:24:53Z</time>
      </trkpt>
      <trkpt lat="45.5925" lon="3.84575">
        <ele>1367</ele>
        <time>2016-04-29T10:24:54Z</time>
      </trkpt>
      <trkpt lat="45.59249" lon="3.84574">
        <ele>1367</ele>
        <time>2016-04-29T10:24:55Z</time>
      </trkpt>
      <trkpt lat="45.59248" lon="3.84574">
        <ele>1367</ele>
        <time>2016-04-29T10:24:56Z</time>
      </trkpt>
      <trkpt lat="45.59246" lon="3.84573">
        <ele>1367</ele>
        <time>2016-04-29T10:24:58Z</time>
      </trkpt>
      <trkpt lat="45.59245" lon="3.84572">
        <ele>1367</ele>
        <time>2016-04-29T10:24:59Z</time>
      </trkpt>
      <trkpt lat="45.59238" lon="3.84566">
        <ele>1366</ele>
        <time>2016-04-29T10:25:08Z</time>
      </trkpt>
      <trkpt lat="45.59239" lon="3.84559">
        <ele>1366</ele>
        <time>2016-04-29T10:25:19Z</time>
      </trkpt>
      <trkpt lat="45.59238" lon="3.84559">
        <ele>1366</ele>
        <time>2016-04-29T10:25:20Z</time>
      </trkpt>
      <trkpt lat="45.59223" lon="3.8456">
        <ele>1367</ele>
        <time>2016-04-29T10:25:33Z</time>
      </trkpt>
      <trkpt lat="45.59214" lon="3.84563">
        <ele>1368</ele>
        <time>2016-04-29T10:25:46Z</time>
      </trkpt>
      <trkpt lat="45.59212" lon="3.84562">
        <ele>1367</ele>
        <time>2016-04-29T10:25:49Z</time>
      </trkpt>
      <trkpt lat="45.59211" lon="3.84562">
        <ele>1368</ele>
        <time>2016-04-29T10:25:50Z</time>
      </trkpt>
      <trkpt lat="45.59194" lon="3.84552">
        <ele>1368</ele>
        <time>2016-04-29T10:26:05Z</time>
      </trkpt>
      <trkpt lat="45.59192" lon="3.84556">
        <ele>1369</ele>
        <time>2016-04-29T10:26:19Z</time>
      </trkpt>
      <trkpt lat="45.59195" lon="3.84555">
        <ele>1369</ele>
        <time>2016-04-29T10:26:40Z</time>
      </trkpt>
      <trkpt lat="45.59195" lon="3.84553">
        <ele>1368</ele>
        <time>2016-04-29T10:26:47Z</time>
      </trkpt>
      <trkpt lat="45.59195" lon="3.84553">
        <ele>1372</ele>
        <time>2016-04-29T10:26:48Z</time>
      </trkpt>
      <trkpt lat="45.59194" lon="3.84552">
        <ele>1369</ele>
        <time>2016-04-29T10:26:49Z</time>
      </trkpt>
      <trkpt lat="45.59192" lon="3.84551">
        <ele>1369</ele>
        <time>2016-04-29T10:27:02Z</time>
      </trkpt>
      <trkpt lat="45.59192" lon="3.84551">
        <ele>1369</ele>
        <time>2016-04-29T10:27:17Z</time>
      </trkpt>
      <trkpt lat="45.59185" lon="3.84542">
        <ele>1372</ele>
        <time>2016-04-29T10:27:33Z</time>
      </trkpt>
      <trkpt lat="45.59173" lon="3.84509">
        <ele>1372</ele>
        <time>2016-04-29T10:27:51Z</time>
      </trkpt>
      <trkpt lat="45.59164" lon="3.84473">
        <ele>1374</ele>
        <time>2016-04-29T10:28:08Z</time>
      </trkpt>
      <trkpt lat="45.59157" lon="3.84442">
        <ele>1378</ele>
        <time>2016-04-29T10:28:23Z</time>
      </trkpt>
      <trkpt lat="45.59149" lon="3.8441">
        <ele>1380</ele>
        <time>2016-04-29T10:28:39Z</time>
      </trkpt>
      <trkpt lat="45.59138" lon="3.84369">
        <ele>1382</ele>
        <time>2016-04-29T10:28:58Z</time>
      </trkpt>
      <trkpt lat="45.59125" lon="3.84342">
        <ele>1384</ele>
        <time>2016-04-29T10:29:13Z</time>
      </trkpt>
      <trkpt lat="45.59102" lon="3.84317">
        <ele>1385</ele>
        <time>2016-04-29T10:29:33Z</time>
      </trkpt>
      <trkpt lat="45.59074" lon="3.84317">
        <ele>1388</ele>
        <time>2016-04-29T10:29:52Z</time>
      </trkpt>
      <trkpt lat="45.59043" lon="3.84324">
        <ele>1389</ele>
        <time>2016-04-29T10:30:13Z</time>
      </trkpt>
      <trkpt lat="45.59015" lon="3.84333">
        <ele>1389</ele>
        <time>2016-04-29T10:30:32Z</time>
      </trkpt>
      <trkpt lat="45.5898" lon="3.84346">
        <ele>1388</ele>
        <time>2016-04-29T10:30:53Z</time>
      </trkpt>
      <trkpt lat="45.58946" lon="3.8436">
        <ele>1387</ele>
        <time>2016-04-29T10:31:13Z</time>
      </trkpt>
      <trkpt lat="45.5891" lon="3.84375">
        <ele>1387</ele>
        <time>2016-04-29T10:31:35Z</time>
      </trkpt>
      <trkpt lat="45.58883" lon="3.8439">
        <ele>1386</ele>
        <time>2016-04-29T10:31:53Z</time>
      </trkpt>
      <trkpt lat="45.5885" lon="3.8441">
        <ele>1388</ele>
        <time>2016-04-29T10:32:15Z</time>
      </trkpt>
      <trkpt lat="45.58824" lon="3.84428">
        <ele>1389</ele>
        <time>2016-04-29T10:32:33Z</time>
      </trkpt>
      <trkpt lat="45.58795" lon="3.84446">
        <ele>1389</ele>
        <time>2016-04-29T10:32:53Z</time>
      </trkpt>
      <trkpt lat="45.58764" lon="3.84463">
        <ele>1390</ele>
        <time>2016-04-29T10:33:14Z</time>
      </trkpt>
      <trkpt lat="45.58734" lon="3.84478">
        <ele>1389</ele>
        <time>2016-04-29T10:33:34Z</time>
      </trkpt>
      <trkpt lat="45.587" lon="3.84505">
        <ele>1390</ele>
        <time>2016-04-29T10:33:57Z</time>
      </trkpt>
      <trkpt lat="45.5869" lon="3.84516">
        <ele>1387</ele>
        <time>2016-04-29T10:34:05Z</time>
      </trkpt>
      <trkpt lat="45.58687" lon="3.84519">
        <ele>1389</ele>
        <time>2016-04-29T10:34:07Z</time>
      </trkpt>
      <trkpt lat="45.58659" lon="3.84538">
        <ele>1388</ele>
        <time>2016-04-29T10:34:27Z</time>
      </trkpt>
      <trkpt lat="45.58629" lon="3.84531">
        <ele>1387</ele>
        <time>2016-04-29T10:34:46Z</time>
      </trkpt>
      <trkpt lat="45.58601" lon="3.8452">
        <ele>1386</ele>
        <time>2016-04-29T10:35:05Z</time>
      </trkpt>
      <trkpt lat="45.58584" lon="3.8451">
        <ele>1385</ele>
        <time>2016-04-29T10:35:16Z</time>
      </trkpt>
      <trkpt lat="45.58553" lon="3.845">
        <ele>1384</ele>
        <time>2016-04-29T10:35:35Z</time>
      </trkpt>
      <trkpt lat="45.58514" lon="3.84491">
        <ele>1383</ele>
        <time>2016-04-29T10:35:59Z</time>
      </trkpt>
      <trkpt lat="45.58479" lon="3.84492">
        <ele>1382</ele>
        <time>2016-04-29T10:36:20Z</time>
      </trkpt>
      <trkpt lat="45.58451" lon="3.84483">
        <ele>1382</ele>
        <time>2016-04-29T10:36:38Z</time>
      </trkpt>
      <trkpt lat="45.5842" lon="3.84468">
        <ele>1384</ele>
        <time>2016-04-29T10:36:59Z</time>
      </trkpt>
      <trkpt lat="45.58393" lon="3.84457">
        <ele>1385</ele>
        <time>2016-04-29T10:37:17Z</time>
      </trkpt>
      <trkpt lat="45.5836" lon="3.84446">
        <ele>1385</ele>
        <time>2016-04-29T10:37:38Z</time>
      </trkpt>
      <trkpt lat="45.5833" lon="3.84434">
        <ele>1384</ele>
        <time>2016-04-29T10:37:58Z</time>
      </trkpt>
      <trkpt lat="45.58301" lon="3.84422">
        <ele>1384</ele>
        <time>2016-04-29T10:38:18Z</time>
      </trkpt>
      <trkpt lat="45.58271" lon="3.8441">
        <ele>1383</ele>
        <time>2016-04-29T10:38:37Z</time>
      </trkpt>
      <trkpt lat="45.58239" lon="3.84401">
        <ele>1381</ele>
        <time>2016-04-29T10:38:56Z</time>
      </trkpt>
      <trkpt lat="45.58212" lon="3.84392">
        <ele>1377</ele>
        <time>2016-04-29T10:39:14Z</time>
      </trkpt>
      <trkpt lat="45.58188" lon="3.84381">
        <ele>1374</ele>
        <time>2016-04-29T10:39:30Z</time>
      </trkpt>
      <trkpt lat="45.58157" lon="3.8437">
        <ele>1372</ele>
        <time>2016-04-29T10:39:50Z</time>
      </trkpt>
      <trkpt lat="45.58122" lon="3.84356">
        <ele>1369</ele>
        <time>2016-04-29T10:40:11Z</time>
      </trkpt>
      <trkpt lat="45.58098" lon="3.84348">
        <ele>1366</ele>
        <time>2016-04-29T10:40:26Z</time>
      </trkpt>
      <trkpt lat="45.58085" lon="3.84344">
        <ele>1365</ele>
        <time>2016-04-29T10:40:38Z</time>
      </trkpt>
      <trkpt lat="45.58055" lon="3.84332">
        <ele>1362</ele>
        <time>2016-04-29T10:40:58Z</time>
      </trkpt>
      <trkpt lat="45.58022" lon="3.8432">
        <ele>1360</ele>
        <time>2016-04-29T10:41:18Z</time>
      </trkpt>
      <trkpt lat="45.57996" lon="3.84309">
        <ele>1358</ele>
        <time>2016-04-29T10:41:35Z</time>
      </trkpt>
      <trkpt lat="45.57967" lon="3.84298">
        <ele>1356</ele>
        <time>2016-04-29T10:41:53Z</time>
      </trkpt>
      <trkpt lat="45.57936" lon="3.84287">
        <ele>1357</ele>
        <time>2016-04-29T10:42:12Z</time>
      </trkpt>
      <trkpt lat="45.57905" lon="3.84274">
        <ele>1355</ele>
        <time>2016-04-29T10:42:30Z</time>
      </trkpt>
      <trkpt lat="45.5787" lon="3.84263">
        <ele>1354</ele>
        <time>2016-04-29T10:42:51Z</time>
      </trkpt>
      <trkpt lat="45.57843" lon="3.84247">
        <ele>1353</ele>
        <time>2016-04-29T10:43:08Z</time>
      </trkpt>
      <trkpt lat="45.57817" lon="3.84235">
        <ele>1353</ele>
        <time>2016-04-29T10:43:25Z</time>
      </trkpt>
      <trkpt lat="45.57788" lon="3.84226">
        <ele>1353</ele>
        <time>2016-04-29T10:43:42Z</time>
      </trkpt>
      <trkpt lat="45.57763" lon="3.84215">
        <ele>1352</ele>
        <time>2016-04-29T10:43:58Z</time>
      </trkpt>
      <trkpt lat="45.57733" lon="3.84201">
        <ele>1351</ele>
        <time>2016-04-29T10:44:18Z</time>
      </trkpt>
      <trkpt lat="45.57704" lon="3.84186">
        <ele>1352</ele>
        <time>2016-04-29T10:44:37Z</time>
      </trkpt>
      <trkpt lat="45.57678" lon="3.84174">
        <ele>1352</ele>
        <time>2016-04-29T10:44:55Z</time>
      </trkpt>
      <trkpt lat="45.57657" lon="3.84163">
        <ele>1352</ele>
        <time>2016-04-29T10:45:10Z</time>
      </trkpt>
      <trkpt lat="45.57639" lon="3.84141">
        <ele>1352</ele>
        <time>2016-04-29T10:45:26Z</time>
      </trkpt>
      <trkpt lat="45.57617" lon="3.84128">
        <ele>1354</ele>
        <time>2016-04-29T10:45:42Z</time>
      </trkpt>
      <trkpt lat="45.57592" lon="3.84114">
        <ele>1356</ele>
        <time>2016-04-29T10:46:00Z</time>
      </trkpt>
      <trkpt lat="45.57578" lon="3.841">
        <ele>1356</ele>
        <time>2016-04-29T10:46:15Z</time>
      </trkpt>
      <trkpt lat="45.57575" lon="3.84097">
        <ele>1356</ele>
        <time>2016-04-29T10:46:18Z</time>
      </trkpt>
      <trkpt lat="45.57565" lon="3.84092">
        <ele>1356</ele>
        <time>2016-04-29T10:46:29Z</time>
      </trkpt>
      <trkpt lat="45.57564" lon="3.84091">
        <ele>1356</ele>
        <time>2016-04-29T10:46:30Z</time>
      </trkpt>
      <trkpt lat="45.57563" lon="3.84089">
        <ele>1356</ele>
        <time>2016-04-29T10:46:31Z</time>
      </trkpt>
      <trkpt lat="45.57562" lon="3.8409">
        <ele>1355</ele>
        <time>2016-04-29T10:46:43Z</time>
      </trkpt>
      <trkpt lat="45.57559" lon="3.84093">
        <ele>1354</ele>
        <time>2016-04-29T10:46:55Z</time>
      </trkpt>
      <trkpt lat="45.57557" lon="3.8409">
        <ele>1356</ele>
        <time>2016-04-29T10:47:04Z</time>
      </trkpt>
      <trkpt lat="45.57555" lon="3.84088">
        <ele>1356</ele>
        <time>2016-04-29T10:47:06Z</time>
      </trkpt>
      <trkpt lat="45.57534" lon="3.84072">
        <ele>1355</ele>
        <time>2016-04-29T10:47:22Z</time>
      </trkpt>
      <trkpt lat="45.57508" lon="3.8405">
        <ele>1352</ele>
        <time>2016-04-29T10:47:41Z</time>
      </trkpt>
      <trkpt lat="45.57482" lon="3.84031">
        <ele>1351</ele>
        <time>2016-04-29T10:47:58Z</time>
      </trkpt>
      <trkpt lat="45.57459" lon="3.84019">
        <ele>1350</ele>
        <time>2016-04-29T10:48:14Z</time>
      </trkpt>
      <trkpt lat="45.57436" lon="3.84011">
        <ele>1349</ele>
        <time>2016-04-29T10:48:29Z</time>
      </trkpt>
      <trkpt lat="45.57405" lon="3.84006">
        <ele>1346</ele>
        <time>2016-04-29T10:48:48Z</time>
      </trkpt>
      <trkpt lat="45.57379" lon="3.83998">
        <ele>1347</ele>
        <time>2016-04-29T10:49:04Z</time>
      </trkpt>
      <trkpt lat="45.57355" lon="3.83999">
        <ele>1349</ele>
        <time>2016-04-29T10:49:19Z</time>
      </trkpt>
      <trkpt lat="45.57328" lon="3.8399">
        <ele>1349</ele>
        <time>2016-04-29T10:49:36Z</time>
      </trkpt>
      <trkpt lat="45.57298" lon="3.83979">
        <ele>1349</ele>
        <time>2016-04-29T10:49:54Z</time>
      </trkpt>
      <trkpt lat="45.57277" lon="3.83975">
        <ele>1352</ele>
        <time>2016-04-29T10:50:08Z</time>
      </trkpt>
      <trkpt lat="45.57272" lon="3.83974">
        <ele>1353</ele>
        <time>2016-04-29T10:50:11Z</time>
      </trkpt>
      <trkpt lat="45.57266" lon="3.83972">
        <ele>1355</ele>
        <time>2016-04-29T10:50:15Z</time>
      </trkpt>
      <trkpt lat="45.5725" lon="3.83968">
        <ele>1358</ele>
        <time>2016-04-29T10:50:28Z</time>
      </trkpt>
      <trkpt lat="45.57231" lon="3.83965">
        <ele>1361</ele>
        <time>2016-04-29T10:50:42Z</time>
      </trkpt>
      <trkpt lat="45.57211" lon="3.83965">
        <ele>1364</ele>
        <time>2016-04-29T10:50:56Z</time>
      </trkpt>
      <trkpt lat="45.57206" lon="3.83964">
        <ele>1366</ele>
        <time>2016-04-29T10:50:59Z</time>
      </trkpt>
      <trkpt lat="45.57203" lon="3.83965">
        <ele>1366</ele>
        <time>2016-04-29T10:51:01Z</time>
      </trkpt>
      <trkpt lat="45.57176" lon="3.83962">
        <ele>1370</ele>
        <time>2016-04-29T10:51:18Z</time>
      </trkpt>
      <trkpt lat="45.57158" lon="3.8396">
        <ele>1364</ele>
        <time>2016-04-29T10:51:31Z</time>
      </trkpt>
      <trkpt lat="45.57157" lon="3.8396">
        <ele>1375</ele>
        <time>2016-04-29T10:51:32Z</time>
      </trkpt>
      <trkpt lat="45.57155" lon="3.83959">
        <ele>1370</ele>
        <time>2016-04-29T10:51:33Z</time>
      </trkpt>
      <trkpt lat="45.57133" lon="3.83957">
        <ele>1372</ele>
        <time>2016-04-29T10:51:49Z</time>
      </trkpt>
      <trkpt lat="45.57108" lon="3.83951">
        <ele>1372</ele>
        <time>2016-04-29T10:52:05Z</time>
      </trkpt>
      <trkpt lat="45.57087" lon="3.83944">
        <ele>1371</ele>
        <time>2016-04-29T10:52:19Z</time>
      </trkpt>
      <trkpt lat="45.5707" lon="3.83939">
        <ele>1371</ele>
        <time>2016-04-29T10:52:35Z</time>
      </trkpt>
      <trkpt lat="45.57071" lon="3.8394">
        <ele>1371</ele>
        <time>2016-04-29T10:53:01Z</time>
      </trkpt>
      <trkpt lat="45.57071" lon="3.83939">
        <ele>1370</ele>
        <time>2016-04-29T10:53:17Z</time>
      </trkpt>
      <trkpt lat="45.57072" lon="3.83939">
        <ele>1370</ele>
        <time>2016-04-29T10:53:33Z</time>
      </trkpt>
      <trkpt lat="45.57071" lon="3.83939">
        <ele>1371</ele>
        <time>2016-04-29T10:53:54Z</time>
      </trkpt>
      <trkpt lat="45.57071" lon="3.83935">
        <ele>1371</ele>
        <time>2016-04-29T10:54:23Z</time>
      </trkpt>
      <trkpt lat="45.57067" lon="3.83931">
        <ele>1371</ele>
        <time>2016-04-29T10:54:36Z</time>
      </trkpt>
      <trkpt lat="45.57058" lon="3.83935">
        <ele>1371</ele>
        <time>2016-04-29T10:54:51Z</time>
      </trkpt>
      <trkpt lat="45.57042" lon="3.83933">
        <ele>1370</ele>
        <time>2016-04-29T10:55:06Z</time>
      </trkpt>
      <trkpt lat="45.57036" lon="3.83932">
        <ele>1370</ele>
        <time>2016-04-29T10:55:22Z</time>
      </trkpt>
      <trkpt lat="45.57023" lon="3.83931">
        <ele>1369</ele>
        <time>2016-04-29T10:55:38Z</time>
      </trkpt>
      <trkpt lat="45.57016" lon="3.8393">
        <ele>1368</ele>
        <time>2016-04-29T10:55:44Z</time>
      </trkpt>
      <trkpt lat="45.57011" lon="3.83928">
        <ele>1368</ele>
        <time>2016-04-29T10:55:48Z</time>
      </trkpt>
      <trkpt lat="45.57005" lon="3.83928">
        <ele>1367</ele>
        <time>2016-04-29T10:55:52Z</time>
      </trkpt>
      <trkpt lat="45.56987" lon="3.83924">
        <ele>1366</ele>
        <time>2016-04-29T10:56:07Z</time>
      </trkpt>
      <trkpt lat="45.5697" lon="3.83921">
        <ele>1365</ele>
        <time>2016-04-29T10:56:21Z</time>
      </trkpt>
      <trkpt lat="45.56965" lon="3.83918">
        <ele>1364</ele>
        <time>2016-04-29T10:56:25Z</time>
      </trkpt>
      <trkpt lat="45.56944" lon="3.83914">
        <ele>1362</ele>
        <time>2016-04-29T10:56:41Z</time>
      </trkpt>
      <trkpt lat="45.56937" lon="3.83912">
        <ele>1361</ele>
        <time>2016-04-29T10:56:48Z</time>
      </trkpt>
      <trkpt lat="45.56929" lon="3.83909">
        <ele>1360</ele>
        <time>2016-04-29T10:56:54Z</time>
      </trkpt>
      <trkpt lat="45.56926" lon="3.8391">
        <ele>1360</ele>
        <time>2016-04-29T10:56:57Z</time>
      </trkpt>
      <trkpt lat="45.56907" lon="3.83906">
        <ele>1358</ele>
        <time>2016-04-29T10:57:12Z</time>
      </trkpt>
      <trkpt lat="45.56883" lon="3.83902">
        <ele>1356</ele>
        <time>2016-04-29T10:57:29Z</time>
      </trkpt>
      <trkpt lat="45.56871" lon="3.83901">
        <ele>1355</ele>
        <time>2016-04-29T10:57:37Z</time>
      </trkpt>
      <trkpt lat="45.56859" lon="3.83898">
        <ele>1354</ele>
        <time>2016-04-29T10:57:46Z</time>
      </trkpt>
      <trkpt lat="45.56835" lon="3.83895">
        <ele>1354</ele>
        <time>2016-04-29T10:58:03Z</time>
      </trkpt>
      <trkpt lat="45.56824" lon="3.83894">
        <ele>1354</ele>
        <time>2016-04-29T10:58:11Z</time>
      </trkpt>
      <trkpt lat="45.56807" lon="3.83889">
        <ele>1352</ele>
        <time>2016-04-29T10:58:24Z</time>
      </trkpt>
      <trkpt lat="45.56793" lon="3.83888">
        <ele>1353</ele>
        <time>2016-04-29T10:58:36Z</time>
      </trkpt>
      <trkpt lat="45.56785" lon="3.83886">
        <ele>1353</ele>
        <time>2016-04-29T10:58:41Z</time>
      </trkpt>
      <trkpt lat="45.56773" lon="3.83883">
        <ele>1353</ele>
        <time>2016-04-29T10:58:50Z</time>
      </trkpt>
      <trkpt lat="45.56767" lon="3.83882">
        <ele>1353</ele>
        <time>2016-04-29T10:58:54Z</time>
      </trkpt>
      <trkpt lat="45.56752" lon="3.83874">
        <ele>1352</ele>
        <time>2016-04-29T10:59:05Z</time>
      </trkpt>
      <trkpt lat="45.5673" lon="3.83867">
        <ele>1353</ele>
        <time>2016-04-29T10:59:20Z</time>
      </trkpt>
      <trkpt lat="45.56717" lon="3.83863">
        <ele>1353</ele>
        <time>2016-04-29T10:59:30Z</time>
      </trkpt>
      <trkpt lat="45.56701" lon="3.83862">
        <ele>1354</ele>
        <time>2016-04-29T10:59:44Z</time>
      </trkpt>
      <trkpt lat="45.5668" lon="3.8386">
        <ele>1353</ele>
        <time>2016-04-29T11:00:01Z</time>
      </trkpt>
      <trkpt lat="45.56673" lon="3.83857">
        <ele>1353</ele>
        <time>2016-04-29T11:00:08Z</time>
      </trkpt>
      <trkpt lat="45.56674" lon="3.83851">
        <ele>1353</ele>
        <time>2016-04-29T11:00:11Z</time>
      </trkpt>
      <trkpt lat="45.56677" lon="3.83842">
        <ele>1352</ele>
        <time>2016-04-29T11:00:16Z</time>
      </trkpt>
      <trkpt lat="45.56683" lon="3.83832">
        <ele>1353</ele>
        <time>2016-04-29T11:00:23Z</time>
      </trkpt>
      <trkpt lat="45.56697" lon="3.83812">
        <ele>1353</ele>
        <time>2016-04-29T11:00:38Z</time>
      </trkpt>
      <trkpt lat="45.56698" lon="3.83803">
        <ele>1352</ele>
        <time>2016-04-29T11:00:51Z</time>
      </trkpt>
      <trkpt lat="45.56698" lon="3.83796">
        <ele>1353</ele>
        <time>2016-04-29T11:01:02Z</time>
      </trkpt>
      <trkpt lat="45.56708" lon="3.83794">
        <ele>1353</ele>
        <time>2016-04-29T11:01:10Z</time>
      </trkpt>
      <trkpt lat="45.56722" lon="3.83772">
        <ele>1351</ele>
        <time>2016-04-29T11:01:26Z</time>
      </trkpt>
      <trkpt lat="45.56731" lon="3.83752">
        <ele>1351</ele>
        <time>2016-04-29T11:01:38Z</time>
      </trkpt>
      <trkpt lat="45.56732" lon="3.8375">
        <ele>1351</ele>
        <time>2016-04-29T11:01:40Z</time>
      </trkpt>
      <trkpt lat="45.56727" lon="3.83728">
        <ele>1351</ele>
        <time>2016-04-29T11:01:53Z</time>
      </trkpt>
      <trkpt lat="45.5672" lon="3.83716">
        <ele>1351</ele>
        <time>2016-04-29T11:02:02Z</time>
      </trkpt>
      <trkpt lat="45.56712" lon="3.8371">
        <ele>1351</ele>
        <time>2016-04-29T11:02:08Z</time>
      </trkpt>
      <trkpt lat="45.56709" lon="3.83706">
        <ele>1351</ele>
        <time>2016-04-29T11:02:11Z</time>
      </trkpt>
      <trkpt lat="45.56696" lon="3.83702">
        <ele>1352</ele>
        <time>2016-04-29T11:02:28Z</time>
      </trkpt>
      <trkpt lat="45.56686" lon="3.83695">
        <ele>1352</ele>
        <time>2016-04-29T11:02:40Z</time>
      </trkpt>
      <trkpt lat="45.56681" lon="3.83692">
        <ele>1352</ele>
        <time>2016-04-29T11:02:44Z</time>
      </trkpt>
      <trkpt lat="45.56663" lon="3.83683">
        <ele>1352</ele>
        <time>2016-04-29T11:02:58Z</time>
      </trkpt>
      <trkpt lat="45.56643" lon="3.83681">
        <ele>1353</ele>
        <time>2016-04-29T11:03:12Z</time>
      </trkpt>
      <trkpt lat="45.56635" lon="3.83679">
        <ele>1353</ele>
        <time>2016-04-29T11:03:19Z</time>
      </trkpt>
      <trkpt lat="45.56629" lon="3.83675">
        <ele>1353</ele>
        <time>2016-04-29T11:03:24Z</time>
      </trkpt>
      <trkpt lat="45.56613" lon="3.83666">
        <ele>1352</ele>
        <time>2016-04-29T11:03:39Z</time>
      </trkpt>
      <trkpt lat="45.56609" lon="3.83665">
        <ele>1353</ele>
        <time>2016-04-29T11:03:42Z</time>
      </trkpt>
      <trkpt lat="45.56587" lon="3.8367">
        <ele>1353</ele>
        <time>2016-04-29T11:03:58Z</time>
      </trkpt>
      <trkpt lat="45.56564" lon="3.83673">
        <ele>1352</ele>
        <time>2016-04-29T11:04:14Z</time>
      </trkpt>
      <trkpt lat="45.56552" lon="3.83677">
        <ele>1352</ele>
        <time>2016-04-29T11:04:23Z</time>
      </trkpt>
      <trkpt lat="45.5653" lon="3.83679">
        <ele>1352</ele>
        <time>2016-04-29T11:04:39Z</time>
      </trkpt>
      <trkpt lat="45.56514" lon="3.83682">
        <ele>1352</ele>
        <time>2016-04-29T11:04:54Z</time>
      </trkpt>
      <trkpt lat="45.56494" lon="3.83686">
        <ele>1351</ele>
        <time>2016-04-29T11:05:07Z</time>
      </trkpt>
      <trkpt lat="45.56474" lon="3.83691">
        <ele>1353</ele>
        <time>2016-04-29T11:05:21Z</time>
      </trkpt>
      <trkpt lat="45.56455" lon="3.83687">
        <ele>1351</ele>
        <time>2016-04-29T11:05:35Z</time>
      </trkpt>
      <trkpt lat="45.56451" lon="3.83685">
        <ele>1351</ele>
        <time>2016-04-29T11:05:38Z</time>
      </trkpt>
      <trkpt lat="45.56446" lon="3.83683">
        <ele>1351</ele>
        <time>2016-04-29T11:05:42Z</time>
      </trkpt>
      <trkpt lat="45.56426" lon="3.83684">
        <ele>1350</ele>
        <time>2016-04-29T11:05:58Z</time>
      </trkpt>
      <trkpt lat="45.5641" lon="3.83693">
        <ele>1348</ele>
        <time>2016-04-29T11:06:12Z</time>
      </trkpt>
      <trkpt lat="45.56396" lon="3.83702">
        <ele>1347</ele>
        <time>2016-04-29T11:06:25Z</time>
      </trkpt>
      <trkpt lat="45.56394" lon="3.83703">
        <ele>1348</ele>
        <time>2016-04-29T11:06:40Z</time>
      </trkpt>
      <trkpt lat="45.564" lon="3.83706">
        <ele>1348</ele>
        <time>2016-04-29T11:06:56Z</time>
      </trkpt>
      <trkpt lat="45.56398" lon="3.83703">
        <ele>1345</ele>
        <time>2016-04-29T11:07:07Z</time>
      </trkpt>
      <trkpt lat="45.56399" lon="3.83702">
        <ele>1345</ele>
        <time>2016-04-29T11:07:08Z</time>
      </trkpt>
      <trkpt lat="45.56398" lon="3.83701">
        <ele>1354</ele>
        <time>2016-04-29T11:07:09Z</time>
      </trkpt>
      <trkpt lat="45.56397" lon="3.83701">
        <ele>1349</ele>
        <time>2016-04-29T11:07:10Z</time>
      </trkpt>
      <trkpt lat="45.56397" lon="3.83702">
        <ele>1348</ele>
        <time>2016-04-29T11:07:12Z</time>
      </trkpt>
      <trkpt lat="45.56396" lon="3.83701">
        <ele>1348</ele>
        <time>2016-04-29T11:07:31Z</time>
      </trkpt>
      <trkpt lat="45.56389" lon="3.83701">
        <ele>1349</ele>
        <time>2016-04-29T11:07:53Z</time>
      </trkpt>
      <trkpt lat="45.56372" lon="3.83709">
        <ele>1350</ele>
        <time>2016-04-29T11:08:07Z</time>
      </trkpt>
      <trkpt lat="45.56368" lon="3.8371">
        <ele>1351</ele>
        <time>2016-04-29T11:08:10Z</time>
      </trkpt>
      <trkpt lat="45.56347" lon="3.83733">
        <ele>1353</ele>
        <time>2016-04-29T11:08:29Z</time>
      </trkpt>
      <trkpt lat="45.56333" lon="3.83748">
        <ele>1355</ele>
        <time>2016-04-29T11:08:42Z</time>
      </trkpt>
      <trkpt lat="45.56309" lon="3.8375">
        <ele>1356</ele>
        <time>2016-04-29T11:08:58Z</time>
      </trkpt>
      <trkpt lat="45.56286" lon="3.83769">
        <ele>1358</ele>
        <time>2016-04-29T11:09:15Z</time>
      </trkpt>
      <trkpt lat="45.56272" lon="3.83798">
        <ele>1358</ele>
        <time>2016-04-29T11:09:31Z</time>
      </trkpt>
      <trkpt lat="45.56262" lon="3.83826">
        <ele>1359</ele>
        <time>2016-04-29T11:09:45Z</time>
      </trkpt>
      <trkpt lat="45.56251" lon="3.83847">
        <ele>1359</ele>
        <time>2016-04-29T11:09:59Z</time>
      </trkpt>
      <trkpt lat="45.56249" lon="3.83853">
        <ele>1360</ele>
        <time>2016-04-29T11:10:03Z</time>
      </trkpt>
      <trkpt lat="45.56247" lon="3.83854">
        <ele>1359</ele>
        <time>2016-04-29T11:10:05Z</time>
      </trkpt>
      <trkpt lat="45.56228" lon="3.83861">
        <ele>1359</ele>
        <time>2016-04-29T11:10:20Z</time>
      </trkpt>
      <trkpt lat="45.56202" lon="3.83878">
        <ele>1360</ele>
        <time>2016-04-29T11:10:39Z</time>
      </trkpt>
      <trkpt lat="45.56171" lon="3.83881">
        <ele>1360</ele>
        <time>2016-04-29T11:10:57Z</time>
      </trkpt>
      <trkpt lat="45.56142" lon="3.8388">
        <ele>1361</ele>
        <time>2016-04-29T11:11:16Z</time>
      </trkpt>
      <trkpt lat="45.56114" lon="3.83871">
        <ele>1363</ele>
        <time>2016-04-29T11:11:34Z</time>
      </trkpt>
      <trkpt lat="45.56088" lon="3.83861">
        <ele>1364</ele>
        <time>2016-04-29T11:11:52Z</time>
      </trkpt>
      <trkpt lat="45.56059" lon="3.83852">
        <ele>1365</ele>
        <time>2016-04-29T11:12:11Z</time>
      </trkpt>
      <trkpt lat="45.56038" lon="3.83847">
        <ele>1366</ele>
        <time>2016-04-29T11:12:26Z</time>
      </trkpt>
      <trkpt lat="45.56017" lon="3.83837">
        <ele>1366</ele>
        <time>2016-04-29T11:12:40Z</time>
      </trkpt>
      <trkpt lat="45.55993" lon="3.83838">
        <ele>1365</ele>
        <time>2016-04-29T11:12:56Z</time>
      </trkpt>
      <trkpt lat="45.55969" lon="3.83856">
        <ele>1365</ele>
        <time>2016-04-29T11:13:12Z</time>
      </trkpt>
      <trkpt lat="45.55941" lon="3.83869">
        <ele>1363</ele>
        <time>2016-04-29T11:13:31Z</time>
      </trkpt>
      <trkpt lat="45.55919" lon="3.83875">
        <ele>1362</ele>
        <time>2016-04-29T11:13:46Z</time>
      </trkpt>
      <trkpt lat="45.55896" lon="3.83874">
        <ele>1361</ele>
        <time>2016-04-29T11:14:02Z</time>
      </trkpt>
      <trkpt lat="45.55874" lon="3.83881">
        <ele>1358</ele>
        <time>2016-04-29T11:14:16Z</time>
      </trkpt>
      <trkpt lat="45.55847" lon="3.83885">
        <ele>1357</ele>
        <time>2016-04-29T11:14:32Z</time>
      </trkpt>
      <trkpt lat="45.55818" lon="3.83884">
        <ele>1356</ele>
        <time>2016-04-29T11:14:49Z</time>
      </trkpt>
      <trkpt lat="45.55794" lon="3.83865">
        <ele>1357</ele>
        <time>2016-04-29T11:15:06Z</time>
      </trkpt>
      <trkpt lat="45.55765" lon="3.83852">
        <ele>1358</ele>
        <time>2016-04-29T11:15:26Z</time>
      </trkpt>
      <trkpt lat="45.55759" lon="3.83849">
        <ele>1358</ele>
        <time>2016-04-29T11:15:30Z</time>
      </trkpt>
      <trkpt lat="45.5574" lon="3.83832">
        <ele>1358</ele>
        <time>2016-04-29T11:15:47Z</time>
      </trkpt>
      <trkpt lat="45.55721" lon="3.83813">
        <ele>1358</ele>
        <time>2016-04-29T11:16:03Z</time>
      </trkpt>
      <trkpt lat="45.55703" lon="3.83793">
        <ele>1356</ele>
        <time>2016-04-29T11:16:19Z</time>
      </trkpt>
      <trkpt lat="45.55687" lon="3.8377">
        <ele>1354</ele>
        <time>2016-04-29T11:16:35Z</time>
      </trkpt>
      <trkpt lat="45.55686" lon="3.83769">
        <ele>1353</ele>
        <time>2016-04-29T11:16:36Z</time>
      </trkpt>
      <trkpt lat="45.55672" lon="3.83746">
        <ele>1351</ele>
        <time>2016-04-29T11:16:51Z</time>
      </trkpt>
      <trkpt lat="45.55671" lon="3.8375">
        <ele>1350</ele>
        <time>2016-04-29T11:17:10Z</time>
      </trkpt>
      <trkpt lat="45.55673" lon="3.83751">
        <ele>1350</ele>
        <time>2016-04-29T11:17:24Z</time>
      </trkpt>
      <trkpt lat="45.55672" lon="3.83755">
        <ele>1350</ele>
        <time>2016-04-29T11:17:37Z</time>
      </trkpt>
      <trkpt lat="45.55674" lon="3.8375">
        <ele>1350</ele>
        <time>2016-04-29T11:18:02Z</time>
      </trkpt>
      <trkpt lat="45.55665" lon="3.83741">
        <ele>1349</ele>
        <time>2016-04-29T11:18:16Z</time>
      </trkpt>
      <trkpt lat="45.55654" lon="3.83734">
        <ele>1348</ele>
        <time>2016-04-29T11:18:31Z</time>
      </trkpt>
      <trkpt lat="45.55653" lon="3.83733">
        <ele>1348</ele>
        <time>2016-04-29T11:18:32Z</time>
      </trkpt>
      <trkpt lat="45.55637" lon="3.8372">
        <ele>1346</ele>
        <time>2016-04-29T11:18:48Z</time>
      </trkpt>
      <trkpt lat="45.55635" lon="3.83717">
        <ele>1345</ele>
        <time>2016-04-29T11:18:51Z</time>
      </trkpt>
      <trkpt lat="45.55625" lon="3.83706">
        <ele>1342</ele>
        <time>2016-04-29T11:19:02Z</time>
      </trkpt>
      <trkpt lat="45.55616" lon="3.83694">
        <ele>1340</ele>
        <time>2016-04-29T11:19:12Z</time>
      </trkpt>
      <trkpt lat="45.55603" lon="3.83677">
        <ele>1338</ele>
        <time>2016-04-29T11:19:27Z</time>
      </trkpt>
      <trkpt lat="45.55592" lon="3.83666">
        <ele>1335</ele>
        <time>2016-04-29T11:19:40Z</time>
      </trkpt>
      <trkpt lat="45.55584" lon="3.83659">
        <ele>1334</ele>
        <time>2016-04-29T11:19:46Z</time>
      </trkpt>
      <trkpt lat="45.5557" lon="3.83653">
        <ele>1333</ele>
        <time>2016-04-29T11:20:00Z</time>
      </trkpt>
      <trkpt lat="45.55553" lon="3.83645">
        <ele>1333</ele>
        <time>2016-04-29T11:20:15Z</time>
      </trkpt>
      <trkpt lat="45.55551" lon="3.83643">
        <ele>1333</ele>
        <time>2016-04-29T11:20:17Z</time>
      </trkpt>
      <trkpt lat="45.55533" lon="3.8363">
        <ele>1332</ele>
        <time>2016-04-29T11:20:33Z</time>
      </trkpt>
      <trkpt lat="45.55522" lon="3.83633">
        <ele>1333</ele>
        <time>2016-04-29T11:20:43Z</time>
      </trkpt>
      <trkpt lat="45.55508" lon="3.8365">
        <ele>1333</ele>
        <time>2016-04-29T11:20:57Z</time>
      </trkpt>
      <trkpt lat="45.55499" lon="3.83669">
        <ele>1335</ele>
        <time>2016-04-29T11:21:10Z</time>
      </trkpt>
      <trkpt lat="45.5549" lon="3.83687">
        <ele>1336</ele>
        <time>2016-04-29T11:21:21Z</time>
      </trkpt>
      <trkpt lat="45.55484" lon="3.83699">
        <ele>1336</ele>
        <time>2016-04-29T11:21:36Z</time>
      </trkpt>
      <trkpt lat="45.55483" lon="3.83704">
        <ele>1336</ele>
        <time>2016-04-29T11:21:53Z</time>
      </trkpt>
      <trkpt lat="45.55478" lon="3.83699">
        <ele>1337</ele>
        <time>2016-04-29T11:21:57Z</time>
      </trkpt>
      <trkpt lat="45.55467" lon="3.83681">
        <ele>1336</ele>
        <time>2016-04-29T11:22:11Z</time>
      </trkpt>
      <trkpt lat="45.55451" lon="3.83657">
        <ele>1337</ele>
        <time>2016-04-29T11:22:26Z</time>
      </trkpt>
      <trkpt lat="45.55438" lon="3.83639">
        <ele>1337</ele>
        <time>2016-04-29T11:22:39Z</time>
      </trkpt>
      <trkpt lat="45.55422" lon="3.83626">
        <ele>1337</ele>
        <time>2016-04-29T11:22:53Z</time>
      </trkpt>
      <trkpt lat="45.55408" lon="3.83609">
        <ele>1338</ele>
        <time>2016-04-29T11:23:07Z</time>
      </trkpt>
      <trkpt lat="45.55402" lon="3.83605">
        <ele>1338</ele>
        <time>2016-04-29T11:23:14Z</time>
      </trkpt>
      <trkpt lat="45.55383" lon="3.83587">
        <ele>1338</ele>
        <time>2016-04-29T11:23:28Z</time>
      </trkpt>
      <trkpt lat="45.55368" lon="3.83569">
        <ele>1338</ele>
        <time>2016-04-29T11:23:41Z</time>
      </trkpt>
      <trkpt lat="45.55349" lon="3.83549">
        <ele>1337</ele>
        <time>2016-04-29T11:23:56Z</time>
      </trkpt>
      <trkpt lat="45.55333" lon="3.83532">
        <ele>1337</ele>
        <time>2016-04-29T11:24:09Z</time>
      </trkpt>
      <trkpt lat="45.55322" lon="3.83519">
        <ele>1337</ele>
        <time>2016-04-29T11:24:20Z</time>
      </trkpt>
      <trkpt lat="45.55303" lon="3.83506">
        <ele>1336</ele>
        <time>2016-04-29T11:24:36Z</time>
      </trkpt>
      <trkpt lat="45.5529" lon="3.83491">
        <ele>1336</ele>
        <time>2016-04-29T11:24:50Z</time>
      </trkpt>
      <trkpt lat="45.55279" lon="3.83487">
        <ele>1335</ele>
        <time>2016-04-29T11:25:03Z</time>
      </trkpt>
      <trkpt lat="45.55261" lon="3.83473">
        <ele>1333</ele>
        <time>2016-04-29T11:25:18Z</time>
      </trkpt>
      <trkpt lat="45.55241" lon="3.83464">
        <ele>1333</ele>
        <time>2016-04-29T11:25:33Z</time>
      </trkpt>
      <trkpt lat="45.55218" lon="3.83458">
        <ele>1332</ele>
        <time>2016-04-29T11:25:46Z</time>
      </trkpt>
      <trkpt lat="45.55199" lon="3.83455">
        <ele>1332</ele>
        <time>2016-04-29T11:25:59Z</time>
      </trkpt>
      <trkpt lat="45.55197" lon="3.83454">
        <ele>1331</ele>
        <time>2016-04-29T11:26:01Z</time>
      </trkpt>
      <trkpt lat="45.55183" lon="3.83449">
        <ele>1331</ele>
        <time>2016-04-29T11:26:15Z</time>
      </trkpt>
      <trkpt lat="45.55169" lon="3.83445">
        <ele>1330</ele>
        <time>2016-04-29T11:26:26Z</time>
      </trkpt>
      <trkpt lat="45.55147" lon="3.83441">
        <ele>1329</ele>
        <time>2016-04-29T11:26:40Z</time>
      </trkpt>
      <trkpt lat="45.55136" lon="3.8344">
        <ele>1329</ele>
        <time>2016-04-29T11:26:51Z</time>
      </trkpt>
      <trkpt lat="45.55122" lon="3.83437">
        <ele>1328</ele>
        <time>2016-04-29T11:27:04Z</time>
      </trkpt>
      <trkpt lat="45.55114" lon="3.83435">
        <ele>1327</ele>
        <time>2016-04-29T11:27:08Z</time>
      </trkpt>
      <trkpt lat="45.551" lon="3.8343">
        <ele>1327</ele>
        <time>2016-04-29T11:27:22Z</time>
      </trkpt>
      <trkpt lat="45.5508" lon="3.83421">
        <ele>1326</ele>
        <time>2016-04-29T11:27:35Z</time>
      </trkpt>
      <trkpt lat="45.55059" lon="3.8341">
        <ele>1325</ele>
        <time>2016-04-29T11:27:49Z</time>
      </trkpt>
      <trkpt lat="45.55044" lon="3.83406">
        <ele>1324</ele>
        <time>2016-04-29T11:28:02Z</time>
      </trkpt>
      <trkpt lat="45.5502" lon="3.83402">
        <ele>1324</ele>
        <time>2016-04-29T11:28:16Z</time>
      </trkpt>
      <trkpt lat="45.54997" lon="3.83408">
        <ele>1323</ele>
        <time>2016-04-29T11:28:31Z</time>
      </trkpt>
      <trkpt lat="45.54983" lon="3.83414">
        <ele>1322</ele>
        <time>2016-04-29T11:28:43Z</time>
      </trkpt>
      <trkpt lat="45.54979" lon="3.83414">
        <ele>1322</ele>
        <time>2016-04-29T11:28:46Z</time>
      </trkpt>
      <trkpt lat="45.54957" lon="3.83417">
        <ele>1321</ele>
        <time>2016-04-29T11:29:01Z</time>
      </trkpt>
      <trkpt lat="45.5494" lon="3.83419">
        <ele>1321</ele>
        <time>2016-04-29T11:29:15Z</time>
      </trkpt>
      <trkpt lat="45.54926" lon="3.8342">
        <ele>1320</ele>
        <time>2016-04-29T11:29:29Z</time>
      </trkpt>
      <trkpt lat="45.5491" lon="3.83421">
        <ele>1319</ele>
        <time>2016-04-29T11:29:41Z</time>
      </trkpt>
      <trkpt lat="45.54893" lon="3.83422">
        <ele>1318</ele>
        <time>2016-04-29T11:29:53Z</time>
      </trkpt>
      <trkpt lat="45.54867" lon="3.83424">
        <ele>1317</ele>
        <time>2016-04-29T11:30:08Z</time>
      </trkpt>
      <trkpt lat="45.54846" lon="3.83416">
        <ele>1315</ele>
        <time>2016-04-29T11:30:24Z</time>
      </trkpt>
      <trkpt lat="45.54826" lon="3.83405">
        <ele>1316</ele>
        <time>2016-04-29T11:30:42Z</time>
      </trkpt>
      <trkpt lat="45.5481" lon="3.83392">
        <ele>1315</ele>
        <time>2016-04-29T11:30:58Z</time>
      </trkpt>
      <trkpt lat="45.54794" lon="3.83385">
        <ele>1314</ele>
        <time>2016-04-29T11:31:12Z</time>
      </trkpt>
      <trkpt lat="45.54772" lon="3.83381">
        <ele>1314</ele>
        <time>2016-04-29T11:31:27Z</time>
      </trkpt>
      <trkpt lat="45.54752" lon="3.83383">
        <ele>1313</ele>
        <time>2016-04-29T11:31:40Z</time>
      </trkpt>
      <trkpt lat="45.54735" lon="3.83378">
        <ele>1312</ele>
        <time>2016-04-29T11:31:54Z</time>
      </trkpt>
      <trkpt lat="45.54721" lon="3.83378">
        <ele>1311</ele>
        <time>2016-04-29T11:32:05Z</time>
      </trkpt>
      <trkpt lat="45.54697" lon="3.83379">
        <ele>1311</ele>
        <time>2016-04-29T11:32:21Z</time>
      </trkpt>
      <trkpt lat="45.54676" lon="3.83377">
        <ele>1311</ele>
        <time>2016-04-29T11:32:36Z</time>
      </trkpt>
      <trkpt lat="45.54654" lon="3.83378">
        <ele>1311</ele>
        <time>2016-04-29T11:32:53Z</time>
      </trkpt>
      <trkpt lat="45.54642" lon="3.83383">
        <ele>1310</ele>
        <time>2016-04-29T11:33:05Z</time>
      </trkpt>
      <trkpt lat="45.54624" lon="3.83395">
        <ele>1311</ele>
        <time>2016-04-29T11:33:19Z</time>
      </trkpt>
      <trkpt lat="45.54608" lon="3.83407">
        <ele>1311</ele>
        <time>2016-04-29T11:33:33Z</time>
      </trkpt>
      <trkpt lat="45.54592" lon="3.83426">
        <ele>1311</ele>
        <time>2016-04-29T11:33:48Z</time>
      </trkpt>
      <trkpt lat="45.5459" lon="3.8343">
        <ele>1312</ele>
        <time>2016-04-29T11:33:50Z</time>
      </trkpt>
      <trkpt lat="45.54583" lon="3.83439">
        <ele>1309</ele>
        <time>2016-04-29T11:33:57Z</time>
      </trkpt>
      <trkpt lat="45.54582" lon="3.83441">
        <ele>1311</ele>
        <time>2016-04-29T11:33:59Z</time>
      </trkpt>
      <trkpt lat="45.54569" lon="3.83462">
        <ele>1311</ele>
        <time>2016-04-29T11:34:14Z</time>
      </trkpt>
      <trkpt lat="45.54558" lon="3.83478">
        <ele>1310</ele>
        <time>2016-04-29T11:34:29Z</time>
      </trkpt>
      <trkpt lat="45.54545" lon="3.83493">
        <ele>1310</ele>
        <time>2016-04-29T11:34:42Z</time>
      </trkpt>
      <trkpt lat="45.54533" lon="3.83519">
        <ele>1309</ele>
        <time>2016-04-29T11:34:57Z</time>
      </trkpt>
      <trkpt lat="45.54525" lon="3.83533">
        <ele>1308</ele>
        <time>2016-04-29T11:35:09Z</time>
      </trkpt>
      <trkpt lat="45.54505" lon="3.83558">
        <ele>1308</ele>
        <time>2016-04-29T11:35:26Z</time>
      </trkpt>
      <trkpt lat="45.54503" lon="3.83559">
        <ele>1308</ele>
        <time>2016-04-29T11:35:28Z</time>
      </trkpt>
      <trkpt lat="45.54488" lon="3.83572">
        <ele>1307</ele>
        <time>2016-04-29T11:35:44Z</time>
      </trkpt>
      <trkpt lat="45.54471" lon="3.83581">
        <ele>1306</ele>
        <time>2016-04-29T11:35:57Z</time>
      </trkpt>
      <trkpt lat="45.54451" lon="3.83592">
        <ele>1305</ele>
        <time>2016-04-29T11:36:12Z</time>
      </trkpt>
      <trkpt lat="45.54442" lon="3.83597">
        <ele>1305</ele>
        <time>2016-04-29T11:36:18Z</time>
      </trkpt>
      <trkpt lat="45.54423" lon="3.83609">
        <ele>1304</ele>
        <time>2016-04-29T11:36:31Z</time>
      </trkpt>
      <trkpt lat="45.54407" lon="3.83617">
        <ele>1303</ele>
        <time>2016-04-29T11:36:47Z</time>
      </trkpt>
      <trkpt lat="45.54382" lon="3.83619">
        <ele>1302</ele>
        <time>2016-04-29T11:37:05Z</time>
      </trkpt>
      <trkpt lat="45.54369" lon="3.8362">
        <ele>1302</ele>
        <time>2016-04-29T11:37:16Z</time>
      </trkpt>
      <trkpt lat="45.54351" lon="3.83618">
        <ele>1301</ele>
        <time>2016-04-29T11:37:30Z</time>
      </trkpt>
      <trkpt lat="45.5433" lon="3.83611">
        <ele>1299</ele>
        <time>2016-04-29T11:37:47Z</time>
      </trkpt>
      <trkpt lat="45.54326" lon="3.8361">
        <ele>1299</ele>
        <time>2016-04-29T11:37:50Z</time>
      </trkpt>
      <trkpt lat="45.54305" lon="3.83601">
        <ele>1299</ele>
        <time>2016-04-29T11:38:06Z</time>
      </trkpt>
      <trkpt lat="45.54299" lon="3.836">
        <ele>1298</ele>
        <time>2016-04-29T11:38:10Z</time>
      </trkpt>
      <trkpt lat="45.54281" lon="3.83598">
        <ele>1297</ele>
        <time>2016-04-29T11:38:23Z</time>
      </trkpt>
      <trkpt lat="45.54266" lon="3.836">
        <ele>1297</ele>
        <time>2016-04-29T11:38:32Z</time>
      </trkpt>
      <trkpt lat="45.54252" lon="3.83605">
        <ele>1296</ele>
        <time>2016-04-29T11:38:45Z</time>
      </trkpt>
      <trkpt lat="45.54237" lon="3.83614">
        <ele>1296</ele>
        <time>2016-04-29T11:38:57Z</time>
      </trkpt>
      <trkpt lat="45.54216" lon="3.83625">
        <ele>1295</ele>
        <time>2016-04-29T11:39:12Z</time>
      </trkpt>
      <trkpt lat="45.542" lon="3.8364">
        <ele>1294</ele>
        <time>2016-04-29T11:39:25Z</time>
      </trkpt>
      <trkpt lat="45.54193" lon="3.83643">
        <ele>1293</ele>
        <time>2016-04-29T11:39:30Z</time>
      </trkpt>
      <trkpt lat="45.54178" lon="3.83663">
        <ele>1293</ele>
        <time>2016-04-29T11:39:45Z</time>
      </trkpt>
      <trkpt lat="45.5417" lon="3.83676">
        <ele>1291</ele>
        <time>2016-04-29T11:39:58Z</time>
      </trkpt>
      <trkpt lat="45.54158" lon="3.83702">
        <ele>1291</ele>
        <time>2016-04-29T11:40:14Z</time>
      </trkpt>
      <trkpt lat="45.54149" lon="3.83725">
        <ele>1289</ele>
        <time>2016-04-29T11:40:30Z</time>
      </trkpt>
      <trkpt lat="45.54145" lon="3.83735">
        <ele>1289</ele>
        <time>2016-04-29T11:40:35Z</time>
      </trkpt>
      <trkpt lat="45.54138" lon="3.83753">
        <ele>1288</ele>
        <time>2016-04-29T11:40:44Z</time>
      </trkpt>
      <trkpt lat="45.54135" lon="3.83776">
        <ele>1287</ele>
        <time>2016-04-29T11:40:58Z</time>
      </trkpt>
      <trkpt lat="45.54133" lon="3.83808">
        <ele>1287</ele>
        <time>2016-04-29T11:41:11Z</time>
      </trkpt>
      <trkpt lat="45.54127" lon="3.83827">
        <ele>1286</ele>
        <time>2016-04-29T11:41:23Z</time>
      </trkpt>
      <trkpt lat="45.54123" lon="3.83854">
        <ele>1286</ele>
        <time>2016-04-29T11:41:36Z</time>
      </trkpt>
      <trkpt lat="45.54115" lon="3.83877">
        <ele>1286</ele>
        <time>2016-04-29T11:41:51Z</time>
      </trkpt>
      <trkpt lat="45.54106" lon="3.83896">
        <ele>1286</ele>
        <time>2016-04-29T11:42:04Z</time>
      </trkpt>
      <trkpt lat="45.54102" lon="3.83899">
        <ele>1286</ele>
        <time>2016-04-29T11:42:07Z</time>
      </trkpt>
      <trkpt lat="45.54081" lon="3.83916">
        <ele>1286</ele>
        <time>2016-04-29T11:42:23Z</time>
      </trkpt>
      <trkpt lat="45.5408" lon="3.83918">
        <ele>1286</ele>
        <time>2016-04-29T11:42:25Z</time>
      </trkpt>
      <trkpt lat="45.5406" lon="3.83926">
        <ele>1286</ele>
        <time>2016-04-29T11:42:40Z</time>
      </trkpt>
      <trkpt lat="45.54038" lon="3.83932">
        <ele>1287</ele>
        <time>2016-04-29T11:42:55Z</time>
      </trkpt>
      <trkpt lat="45.54032" lon="3.83938">
        <ele>1287</ele>
        <time>2016-04-29T11:43:15Z</time>
      </trkpt>
      <trkpt lat="45.54018" lon="3.83938">
        <ele>1287</ele>
        <time>2016-04-29T11:43:32Z</time>
      </trkpt>
      <trkpt lat="45.54016" lon="3.83938">
        <ele>1287</ele>
        <time>2016-04-29T11:43:34Z</time>
      </trkpt>
      <trkpt lat="45.54013" lon="3.83939">
        <ele>1287</ele>
        <time>2016-04-29T11:43:36Z</time>
      </trkpt>
      <trkpt lat="45.53999" lon="3.83941">
        <ele>1287</ele>
        <time>2016-04-29T11:43:51Z</time>
      </trkpt>
      <trkpt lat="45.53983" lon="3.83939">
        <ele>1287</ele>
        <time>2016-04-29T11:44:05Z</time>
      </trkpt>
      <trkpt lat="45.53962" lon="3.83938">
        <ele>1286</ele>
        <time>2016-04-29T11:44:22Z</time>
      </trkpt>
      <trkpt lat="45.53953" lon="3.83938">
        <ele>1286</ele>
        <time>2016-04-29T11:44:38Z</time>
      </trkpt>
      <trkpt lat="45.53933" lon="3.83938">
        <ele>1285</ele>
        <time>2016-04-29T11:44:54Z</time>
      </trkpt>
      <trkpt lat="45.53912" lon="3.83937">
        <ele>1285</ele>
        <time>2016-04-29T11:45:09Z</time>
      </trkpt>
      <trkpt lat="45.53895" lon="3.83938">
        <ele>1285</ele>
        <time>2016-04-29T11:45:21Z</time>
      </trkpt>
      <trkpt lat="45.53875" lon="3.8394">
        <ele>1285</ele>
        <time>2016-04-29T11:45:36Z</time>
      </trkpt>
      <trkpt lat="45.53857" lon="3.83939">
        <ele>1285</ele>
        <time>2016-04-29T11:45:50Z</time>
      </trkpt>
      <trkpt lat="45.53835" lon="3.83938">
        <ele>1284</ele>
        <time>2016-04-29T11:46:04Z</time>
      </trkpt>
      <trkpt lat="45.53813" lon="3.83934">
        <ele>1285</ele>
        <time>2016-04-29T11:46:20Z</time>
      </trkpt>
      <trkpt lat="45.53794" lon="3.83926">
        <ele>1284</ele>
        <time>2016-04-29T11:46:33Z</time>
      </trkpt>
      <trkpt lat="45.53771" lon="3.83918">
        <ele>1284</ele>
        <time>2016-04-29T11:46:49Z</time>
      </trkpt>
      <trkpt lat="45.53754" lon="3.83911">
        <ele>1284</ele>
        <time>2016-04-29T11:46:58Z</time>
      </trkpt>
      <trkpt lat="45.53746" lon="3.83908">
        <ele>1284</ele>
        <time>2016-04-29T11:47:05Z</time>
      </trkpt>
      <trkpt lat="45.53727" lon="3.83903">
        <ele>1284</ele>
        <time>2016-04-29T11:47:22Z</time>
      </trkpt>
      <trkpt lat="45.53718" lon="3.839">
        <ele>1284</ele>
        <time>2016-04-29T11:47:32Z</time>
      </trkpt>
      <trkpt lat="45.53699" lon="3.83891">
        <ele>1282</ele>
        <time>2016-04-29T11:47:48Z</time>
      </trkpt>
      <trkpt lat="45.53678" lon="3.83886">
        <ele>1281</ele>
        <time>2016-04-29T11:48:01Z</time>
      </trkpt>
      <trkpt lat="45.53646" lon="3.83901">
        <ele>1280</ele>
        <time>2016-04-29T11:48:18Z</time>
      </trkpt>
      <trkpt lat="45.53627" lon="3.83908">
        <ele>1280</ele>
        <time>2016-04-29T11:48:31Z</time>
      </trkpt>
      <trkpt lat="45.53612" lon="3.83921">
        <ele>1278</ele>
        <time>2016-04-29T11:48:44Z</time>
      </trkpt>
      <trkpt lat="45.53606" lon="3.83924">
        <ele>1279</ele>
        <time>2016-04-29T11:48:50Z</time>
      </trkpt>
      <trkpt lat="45.5359" lon="3.83933">
        <ele>1278</ele>
        <time>2016-04-29T11:49:02Z</time>
      </trkpt>
      <trkpt lat="45.53572" lon="3.83945">
        <ele>1277</ele>
        <time>2016-04-29T11:49:17Z</time>
      </trkpt>
      <trkpt lat="45.5355" lon="3.83958">
        <ele>1276</ele>
        <time>2016-04-29T11:49:32Z</time>
      </trkpt>
      <trkpt lat="45.53544" lon="3.83962">
        <ele>1275</ele>
        <time>2016-04-29T11:49:36Z</time>
      </trkpt>
      <trkpt lat="45.53538" lon="3.83965">
        <ele>1275</ele>
        <time>2016-04-29T11:49:41Z</time>
      </trkpt>
      <trkpt lat="45.53516" lon="3.83976">
        <ele>1274</ele>
        <time>2016-04-29T11:49:58Z</time>
      </trkpt>
      <trkpt lat="45.53502" lon="3.83983">
        <ele>1273</ele>
        <time>2016-04-29T11:50:12Z</time>
      </trkpt>
      <trkpt lat="45.53501" lon="3.83984">
        <ele>1273</ele>
        <time>2016-04-29T11:50:13Z</time>
      </trkpt>
      <trkpt lat="45.53474" lon="3.83996">
        <ele>1272</ele>
        <time>2016-04-29T11:50:31Z</time>
      </trkpt>
      <trkpt lat="45.53457" lon="3.84005">
        <ele>1271</ele>
        <time>2016-04-29T11:50:43Z</time>
      </trkpt>
      <trkpt lat="45.53436" lon="3.84013">
        <ele>1270</ele>
        <time>2016-04-29T11:51:00Z</time>
      </trkpt>
      <trkpt lat="45.53419" lon="3.84016">
        <ele>1269</ele>
        <time>2016-04-29T11:51:14Z</time>
      </trkpt>
      <trkpt lat="45.53402" lon="3.84024">
        <ele>1269</ele>
        <time>2016-04-29T11:51:29Z</time>
      </trkpt>
      <trkpt lat="45.53399" lon="3.84023">
        <ele>1268</ele>
        <time>2016-04-29T11:51:31Z</time>
      </trkpt>
      <trkpt lat="45.53391" lon="3.84022">
        <ele>1268</ele>
        <time>2016-04-29T11:51:35Z</time>
      </trkpt>
      <trkpt lat="45.53379" lon="3.84024">
        <ele>1267</ele>
        <time>2016-04-29T11:51:41Z</time>
      </trkpt>
      <trkpt lat="45.53373" lon="3.84023">
        <ele>1267</ele>
        <time>2016-04-29T11:51:44Z</time>
      </trkpt>
      <trkpt lat="45.53366" lon="3.84022">
        <ele>1267</ele>
        <time>2016-04-29T11:51:50Z</time>
      </trkpt>
      <trkpt lat="45.53346" lon="3.84023">
        <ele>1266</ele>
        <time>2016-04-29T11:52:06Z</time>
      </trkpt>
      <trkpt lat="45.53343" lon="3.84022">
        <ele>1266</ele>
        <time>2016-04-29T11:52:09Z</time>
      </trkpt>
      <trkpt lat="45.5332" lon="3.84025">
        <ele>1264</ele>
        <time>2016-04-29T11:52:23Z</time>
      </trkpt>
      <trkpt lat="45.533" lon="3.84025">
        <ele>1263</ele>
        <time>2016-04-29T11:52:37Z</time>
      </trkpt>
      <trkpt lat="45.53272" lon="3.84023">
        <ele>1263</ele>
        <time>2016-04-29T11:52:54Z</time>
      </trkpt>
      <trkpt lat="45.53263" lon="3.84022">
        <ele>1263</ele>
        <time>2016-04-29T11:53:02Z</time>
      </trkpt>
      <trkpt lat="45.53258" lon="3.84021">
        <ele>1262</ele>
        <time>2016-04-29T11:53:06Z</time>
      </trkpt>
      <trkpt lat="45.53245" lon="3.84023">
        <ele>1261</ele>
        <time>2016-04-29T11:53:18Z</time>
      </trkpt>
      <trkpt lat="45.53234" lon="3.84024">
        <ele>1261</ele>
        <time>2016-04-29T11:53:27Z</time>
      </trkpt>
      <trkpt lat="45.5322" lon="3.84026">
        <ele>1260</ele>
        <time>2016-04-29T11:53:38Z</time>
      </trkpt>
      <trkpt lat="45.53216" lon="3.84025">
        <ele>1259</ele>
        <time>2016-04-29T11:53:42Z</time>
      </trkpt>
      <trkpt lat="45.53207" lon="3.84026">
        <ele>1257</ele>
        <time>2016-04-29T11:53:50Z</time>
      </trkpt>
      <trkpt lat="45.53202" lon="3.84027">
        <ele>1259</ele>
        <time>2016-04-29T11:53:54Z</time>
      </trkpt>
      <trkpt lat="45.53198" lon="3.84028">
        <ele>1258</ele>
        <time>2016-04-29T11:53:56Z</time>
      </trkpt>
      <trkpt lat="45.53177" lon="3.84034">
        <ele>1257</ele>
        <time>2016-04-29T11:54:10Z</time>
      </trkpt>
      <trkpt lat="45.53154" lon="3.84047">
        <ele>1255</ele>
        <time>2016-04-29T11:54:27Z</time>
      </trkpt>
      <trkpt lat="45.53139" lon="3.84062">
        <ele>1254</ele>
        <time>2016-04-29T11:54:39Z</time>
      </trkpt>
      <trkpt lat="45.53135" lon="3.84073">
        <ele>1253</ele>
        <time>2016-04-29T11:54:46Z</time>
      </trkpt>
      <trkpt lat="45.5312" lon="3.84095">
        <ele>1251</ele>
        <time>2016-04-29T11:55:01Z</time>
      </trkpt>
      <trkpt lat="45.53114" lon="3.84113">
        <ele>1250</ele>
        <time>2016-04-29T11:55:13Z</time>
      </trkpt>
      <trkpt lat="45.53099" lon="3.84137">
        <ele>1248</ele>
        <time>2016-04-29T11:55:27Z</time>
      </trkpt>
      <trkpt lat="45.53085" lon="3.84158">
        <ele>1246</ele>
        <time>2016-04-29T11:55:41Z</time>
      </trkpt>
      <trkpt lat="45.53072" lon="3.84174">
        <ele>1246</ele>
        <time>2016-04-29T11:55:53Z</time>
      </trkpt>
      <trkpt lat="45.53065" lon="3.8418">
        <ele>1245</ele>
        <time>2016-04-29T11:55:58Z</time>
      </trkpt>
      <trkpt lat="45.53056" lon="3.84188">
        <ele>1244</ele>
        <time>2016-04-29T11:56:05Z</time>
      </trkpt>
      <trkpt lat="45.5304" lon="3.84208">
        <ele>1243</ele>
        <time>2016-04-29T11:56:20Z</time>
      </trkpt>
      <trkpt lat="45.53036" lon="3.84211">
        <ele>1242</ele>
        <time>2016-04-29T11:56:23Z</time>
      </trkpt>
      <trkpt lat="45.53031" lon="3.84217">
        <ele>1242</ele>
        <time>2016-04-29T11:56:29Z</time>
      </trkpt>
      <trkpt lat="45.53017" lon="3.8423">
        <ele>1240</ele>
        <time>2016-04-29T11:56:43Z</time>
      </trkpt>
      <trkpt lat="45.53" lon="3.84245">
        <ele>1239</ele>
        <time>2016-04-29T11:56:59Z</time>
      </trkpt>
      <trkpt lat="45.52985" lon="3.84253">
        <ele>1237</ele>
        <time>2016-04-29T11:57:13Z</time>
      </trkpt>
      <trkpt lat="45.52977" lon="3.84259">
        <ele>1237</ele>
        <time>2016-04-29T11:57:19Z</time>
      </trkpt>
      <trkpt lat="45.52966" lon="3.84265">
        <ele>1236</ele>
        <time>2016-04-29T11:57:28Z</time>
      </trkpt>
      <trkpt lat="45.52946" lon="3.84283">
        <ele>1234</ele>
        <time>2016-04-29T11:57:46Z</time>
      </trkpt>
      <trkpt lat="45.52929" lon="3.84301">
        <ele>1233</ele>
        <time>2016-04-29T11:57:59Z</time>
      </trkpt>
      <trkpt lat="45.52922" lon="3.8431">
        <ele>1232</ele>
        <time>2016-04-29T11:58:05Z</time>
      </trkpt>
      <trkpt lat="45.52904" lon="3.84328">
        <ele>1230</ele>
        <time>2016-04-29T11:58:23Z</time>
      </trkpt>
      <trkpt lat="45.52892" lon="3.84336">
        <ele>1229</ele>
        <time>2016-04-29T11:58:37Z</time>
      </trkpt>
      <trkpt lat="45.52885" lon="3.84341">
        <ele>1228</ele>
        <time>2016-04-29T11:58:43Z</time>
      </trkpt>
      <trkpt lat="45.52869" lon="3.84348">
        <ele>1226</ele>
        <time>2016-04-29T11:58:55Z</time>
      </trkpt>
      <trkpt lat="45.52845" lon="3.84355">
        <ele>1225</ele>
        <time>2016-04-29T11:59:10Z</time>
      </trkpt>
      <trkpt lat="45.52828" lon="3.84362">
        <ele>1224</ele>
        <time>2016-04-29T11:59:24Z</time>
      </trkpt>
      <trkpt lat="45.52814" lon="3.84365">
        <ele>1222</ele>
        <time>2016-04-29T11:59:37Z</time>
      </trkpt>
      <trkpt lat="45.52799" lon="3.84368">
        <ele>1221</ele>
        <time>2016-04-29T11:59:52Z</time>
      </trkpt>
      <trkpt lat="45.52794" lon="3.84369">
        <ele>1221</ele>
        <time>2016-04-29T11:59:57Z</time>
      </trkpt>
      <trkpt lat="45.52775" lon="3.84371">
        <ele>1219</ele>
        <time>2016-04-29T12:00:10Z</time>
      </trkpt>
      <trkpt lat="45.52764" lon="3.84373">
        <ele>1218</ele>
        <time>2016-04-29T12:00:17Z</time>
      </trkpt>
      <trkpt lat="45.52743" lon="3.84374">
        <ele>1217</ele>
        <time>2016-04-29T12:00:32Z</time>
      </trkpt>
      <trkpt lat="45.52742" lon="3.84374">
        <ele>1218</ele>
        <time>2016-04-29T12:00:33Z</time>
      </trkpt>
      <trkpt lat="45.52721" lon="3.84377">
        <ele>1216</ele>
        <time>2016-04-29T12:00:48Z</time>
      </trkpt>
      <trkpt lat="45.52701" lon="3.84384">
        <ele>1214</ele>
        <time>2016-04-29T12:01:03Z</time>
      </trkpt>
      <trkpt lat="45.52683" lon="3.84397">
        <ele>1213</ele>
        <time>2016-04-29T12:01:17Z</time>
      </trkpt>
      <trkpt lat="45.52666" lon="3.84416">
        <ele>1211</ele>
        <time>2016-04-29T12:01:35Z</time>
      </trkpt>
      <trkpt lat="45.52649" lon="3.84439">
        <ele>1209</ele>
        <time>2016-04-29T12:01:51Z</time>
      </trkpt>
      <trkpt lat="45.52638" lon="3.84461">
        <ele>1209</ele>
        <time>2016-04-29T12:02:06Z</time>
      </trkpt>
      <trkpt lat="45.52632" lon="3.8449">
        <ele>1207</ele>
        <time>2016-04-29T12:02:23Z</time>
      </trkpt>
      <trkpt lat="45.52627" lon="3.84515">
        <ele>1206</ele>
        <time>2016-04-29T12:02:38Z</time>
      </trkpt>
      <trkpt lat="45.52625" lon="3.84536">
        <ele>1204</ele>
        <time>2016-04-29T12:02:52Z</time>
      </trkpt>
      <trkpt lat="45.52619" lon="3.84543">
        <ele>1203</ele>
        <time>2016-04-29T12:02:58Z</time>
      </trkpt>
      <trkpt lat="45.52613" lon="3.84542">
        <ele>1202</ele>
        <time>2016-04-29T12:03:06Z</time>
      </trkpt>
      <trkpt lat="45.52612" lon="3.84539">
        <ele>1201</ele>
        <time>2016-04-29T12:03:08Z</time>
      </trkpt>
      <trkpt lat="45.52611" lon="3.8453">
        <ele>1201</ele>
        <time>2016-04-29T12:03:14Z</time>
      </trkpt>
      <trkpt lat="45.5261" lon="3.84524">
        <ele>1201</ele>
        <time>2016-04-29T12:03:18Z</time>
      </trkpt>
      <trkpt lat="45.5261" lon="3.84517">
        <ele>1200</ele>
        <time>2016-04-29T12:03:22Z</time>
      </trkpt>
      <trkpt lat="45.52613" lon="3.8451">
        <ele>1202</ele>
        <time>2016-04-29T12:03:32Z</time>
      </trkpt>
      <trkpt lat="45.52614" lon="3.84507">
        <ele>1202</ele>
        <time>2016-04-29T12:03:46Z</time>
      </trkpt>
      <trkpt lat="45.52614" lon="3.84505">
        <ele>1202</ele>
        <time>2016-04-29T12:04:03Z</time>
      </trkpt>
      <trkpt lat="45.5261" lon="3.84504">
        <ele>1202</ele>
        <time>2016-04-29T12:04:33Z</time>
      </trkpt>
      <trkpt lat="45.52613" lon="3.84508">
        <ele>1201</ele>
        <time>2016-04-29T12:04:51Z</time>
      </trkpt>
      <trkpt lat="45.52612" lon="3.84508">
        <ele>1201</ele>
        <time>2016-04-29T12:05:18Z</time>
      </trkpt>
      <trkpt lat="45.52612" lon="3.84508">
        <ele>1201</ele>
        <time>2016-04-29T12:05:44Z</time>
      </trkpt>
      <trkpt lat="45.52614" lon="3.84507">
        <ele>1202</ele>
        <time>2016-04-29T12:06:01Z</time>
      </trkpt>
      <trkpt lat="45.52611" lon="3.84509">
        <ele>1201</ele>
        <time>2016-04-29T12:06:34Z</time>
      </trkpt>
      <trkpt lat="45.52611" lon="3.84509">
        <ele>1202</ele>
        <time>2016-04-29T12:06:59Z</time>
      </trkpt>
      <trkpt lat="45.52613" lon="3.84506">
        <ele>1201</ele>
        <time>2016-04-29T12:07:20Z</time>
      </trkpt>
      <trkpt lat="45.52615" lon="3.84504">
        <ele>1201</ele>
        <time>2016-04-29T12:07:37Z</time>
      </trkpt>
      <trkpt lat="45.52615" lon="3.84506">
        <ele>1201</ele>
        <time>2016-04-29T12:08:03Z</time>
      </trkpt>
      <trkpt lat="45.52612" lon="3.84506">
        <ele>1201</ele>
        <time>2016-04-29T12:08:37Z</time>
      </trkpt>
      <trkpt lat="45.52612" lon="3.84508">
        <ele>1201</ele>
        <time>2016-04-29T12:09:00Z</time>
      </trkpt>
      <trkpt lat="45.52611" lon="3.84509">
        <ele>1201</ele>
        <time>2016-04-29T12:09:29Z</time>
      </trkpt>
      <trkpt lat="45.52612" lon="3.84509">
        <ele>1201</ele>
        <time>2016-04-29T12:09:58Z</time>
      </trkpt>
      <trkpt lat="45.52609" lon="3.8451">
        <ele>1201</ele>
        <time>2016-04-29T12:10:27Z</time>
      </trkpt>
      <trkpt lat="45.52611" lon="3.84508">
        <ele>1201</ele>
        <time>2016-04-29T12:10:46Z</time>
      </trkpt>
      <trkpt lat="45.52611" lon="3.84508">
        <ele>1201</ele>
        <time>2016-04-29T12:11:14Z</time>
      </trkpt>
      <trkpt lat="45.52613" lon="3.84509">
        <ele>1202</ele>
        <time>2016-04-29T12:11:38Z</time>
      </trkpt>
      <trkpt lat="45.52608" lon="3.84513">
        <ele>1202</ele>
        <time>2016-04-29T12:11:45Z</time>
      </trkpt>
      <trkpt lat="45.52603" lon="3.84522">
        <ele>1201</ele>
        <time>2016-04-29T12:11:52Z</time>
      </trkpt>
      <trkpt lat="45.52605" lon="3.8454">
        <ele>1202</ele>
        <time>2016-04-29T12:12:02Z</time>
      </trkpt>
      <trkpt lat="45.52609" lon="3.84568">
        <ele>1201</ele>
        <time>2016-04-29T12:12:17Z</time>
      </trkpt>
      <trkpt lat="45.52615" lon="3.8459">
        <ele>1201</ele>
        <time>2016-04-29T12:12:32Z</time>
      </trkpt>
      <trkpt lat="45.52622" lon="3.84613">
        <ele>1200</ele>
        <time>2016-04-29T12:12:46Z</time>
      </trkpt>
      <trkpt lat="45.52622" lon="3.8462">
        <ele>1200</ele>
        <time>2016-04-29T12:12:51Z</time>
      </trkpt>
      <trkpt lat="45.5262" lon="3.84641">
        <ele>1200</ele>
        <time>2016-04-29T12:13:03Z</time>
      </trkpt>
      <trkpt lat="45.52618" lon="3.84648">
        <ele>1199</ele>
        <time>2016-04-29T12:13:07Z</time>
      </trkpt>
      <trkpt lat="45.5262" lon="3.8466">
        <ele>1199</ele>
        <time>2016-04-29T12:13:20Z</time>
      </trkpt>
      <trkpt lat="45.5262" lon="3.84667">
        <ele>1199</ele>
        <time>2016-04-29T12:13:34Z</time>
      </trkpt>
      <trkpt lat="45.52624" lon="3.84663">
        <ele>1199</ele>
        <time>2016-04-29T12:13:52Z</time>
      </trkpt>
      <trkpt lat="45.52623" lon="3.84654">
        <ele>1199</ele>
        <time>2016-04-29T12:14:06Z</time>
      </trkpt>
      <trkpt lat="45.52627" lon="3.84645">
        <ele>1199</ele>
        <time>2016-04-29T12:14:31Z</time>
      </trkpt>
      <trkpt lat="45.52628" lon="3.84621">
        <ele>1200</ele>
        <time>2016-04-29T12:14:46Z</time>
      </trkpt>
      <trkpt lat="45.52629" lon="3.84603">
        <ele>1201</ele>
        <time>2016-04-29T12:14:58Z</time>
      </trkpt>
      <trkpt lat="45.52634" lon="3.84594">
        <ele>1201</ele>
        <time>2016-04-29T12:15:09Z</time>
      </trkpt>
      <trkpt lat="45.52635" lon="3.84597">
        <ele>1201</ele>
        <time>2016-04-29T12:15:23Z</time>
      </trkpt>
      <trkpt lat="45.52635" lon="3.84592">
        <ele>1201</ele>
        <time>2016-04-29T12:15:45Z</time>
      </trkpt>
      <trkpt lat="45.52631" lon="3.84589">
        <ele>1201</ele>
        <time>2016-04-29T12:16:11Z</time>
      </trkpt>
      <trkpt lat="45.5263" lon="3.84591">
        <ele>1201</ele>
        <time>2016-04-29T12:16:27Z</time>
      </trkpt>
      <trkpt lat="45.5263" lon="3.84588">
        <ele>1201</ele>
        <time>2016-04-29T12:16:44Z</time>
      </trkpt>
      <trkpt lat="45.52632" lon="3.84585">
        <ele>1201</ele>
        <time>2016-04-29T12:17:00Z</time>
      </trkpt>
      <trkpt lat="45.52629" lon="3.84589">
        <ele>1201</ele>
        <time>2016-04-29T12:17:21Z</time>
      </trkpt>
      <trkpt lat="45.52627" lon="3.84593">
        <ele>1201</ele>
        <time>2016-04-29T12:17:38Z</time>
      </trkpt>
      <trkpt lat="45.52624" lon="3.84592">
        <ele>1201</ele>
        <time>2016-04-29T12:18:02Z</time>
      </trkpt>
      <trkpt lat="45.52623" lon="3.84595">
        <ele>1200</ele>
        <time>2016-04-29T12:18:28Z</time>
      </trkpt>
      <trkpt lat="45.52624" lon="3.846">
        <ele>1200</ele>
        <time>2016-04-29T12:18:42Z</time>
      </trkpt>
      <trkpt lat="45.52629" lon="3.84607">
        <ele>1200</ele>
        <time>2016-04-29T12:18:57Z</time>
      </trkpt>
      <trkpt lat="45.52632" lon="3.8461">
        <ele>1201</ele>
        <time>2016-04-29T12:19:00Z</time>
      </trkpt>
      <trkpt lat="45.52634" lon="3.84613">
        <ele>1200</ele>
        <time>2016-04-29T12:19:02Z</time>
      </trkpt>
      <trkpt lat="45.52641" lon="3.84617">
        <ele>1200</ele>
        <time>2016-04-29T12:19:08Z</time>
      </trkpt>
      <trkpt lat="45.52648" lon="3.84628">
        <ele>1201</ele>
        <time>2016-04-29T12:19:16Z</time>
      </trkpt>
      <trkpt lat="45.52668" lon="3.84646">
        <ele>1200</ele>
        <time>2016-04-29T12:19:32Z</time>
      </trkpt>
      <trkpt lat="45.52684" lon="3.84657">
        <ele>1199</ele>
        <time>2016-04-29T12:19:46Z</time>
      </trkpt>
      <trkpt lat="45.52693" lon="3.84665">
        <ele>1199</ele>
        <time>2016-04-29T12:19:55Z</time>
      </trkpt>
      <trkpt lat="45.52698" lon="3.84671">
        <ele>1200</ele>
        <time>2016-04-29T12:20:00Z</time>
      </trkpt>
      <trkpt lat="45.52709" lon="3.84675">
        <ele>1200</ele>
        <time>2016-04-29T12:20:07Z</time>
      </trkpt>
      <trkpt lat="45.52715" lon="3.84679">
        <ele>1199</ele>
        <time>2016-04-29T12:20:13Z</time>
      </trkpt>
      <trkpt lat="45.5272" lon="3.84681">
        <ele>1199</ele>
        <time>2016-04-29T12:20:16Z</time>
      </trkpt>
      <trkpt lat="45.52742" lon="3.8468">
        <ele>1199</ele>
        <time>2016-04-29T12:20:30Z</time>
      </trkpt>
      <trkpt lat="45.52758" lon="3.84678">
        <ele>1200</ele>
        <time>2016-04-29T12:20:43Z</time>
      </trkpt>
      <trkpt lat="45.52774" lon="3.84674">
        <ele>1199</ele>
        <time>2016-04-29T12:20:55Z</time>
      </trkpt>
      <trkpt lat="45.52788" lon="3.84671">
        <ele>1200</ele>
        <time>2016-04-29T12:21:09Z</time>
      </trkpt>
      <trkpt lat="45.52783" lon="3.8467">
        <ele>1200</ele>
        <time>2016-04-29T12:21:31Z</time>
      </trkpt>
      <trkpt lat="45.52779" lon="3.84675">
        <ele>1200</ele>
        <time>2016-04-29T12:21:35Z</time>
      </trkpt>
      <trkpt lat="45.52776" lon="3.84676">
        <ele>1200</ele>
        <time>2016-04-29T12:21:37Z</time>
      </trkpt>
      <trkpt lat="45.52768" lon="3.84675">
        <ele>1199</ele>
        <time>2016-04-29T12:21:43Z</time>
      </trkpt>
      <trkpt lat="45.52751" lon="3.84679">
        <ele>1199</ele>
        <time>2016-04-29T12:21:56Z</time>
      </trkpt>
      <trkpt lat="45.52731" lon="3.84683">
        <ele>1200</ele>
        <time>2016-04-29T12:22:11Z</time>
      </trkpt>
      <trkpt lat="45.52728" lon="3.84683">
        <ele>1199</ele>
        <time>2016-04-29T12:22:13Z</time>
      </trkpt>
      <trkpt lat="45.52707" lon="3.84682">
        <ele>1198</ele>
        <time>2016-04-29T12:22:29Z</time>
      </trkpt>
      <trkpt lat="45.52691" lon="3.84678">
        <ele>1199</ele>
        <time>2016-04-29T12:22:40Z</time>
      </trkpt>
      <trkpt lat="45.52684" lon="3.84672">
        <ele>1199</ele>
        <time>2016-04-29T12:22:47Z</time>
      </trkpt>
      <trkpt lat="45.52672" lon="3.84661">
        <ele>1200</ele>
        <time>2016-04-29T12:22:56Z</time>
      </trkpt>
      <trkpt lat="45.52665" lon="3.84655">
        <ele>1200</ele>
        <time>2016-04-29T12:23:01Z</time>
      </trkpt>
      <trkpt lat="45.52662" lon="3.84651">
        <ele>1201</ele>
        <time>2016-04-29T12:23:04Z</time>
      </trkpt>
      <trkpt lat="45.5266" lon="3.8465">
        <ele>1201</ele>
        <time>2016-04-29T12:23:06Z</time>
      </trkpt>
      <trkpt lat="45.52647" lon="3.84632">
        <ele>1201</ele>
        <time>2016-04-29T12:23:20Z</time>
      </trkpt>
      <trkpt lat="45.52638" lon="3.84609">
        <ele>1201</ele>
        <time>2016-04-29T12:23:33Z</time>
      </trkpt>
      <trkpt lat="45.5263" lon="3.84589">
        <ele>1201</ele>
        <time>2016-04-29T12:23:47Z</time>
      </trkpt>
      <trkpt lat="45.52631" lon="3.8459">
        <ele>1201</ele>
        <time>2016-04-29T12:24:05Z</time>
      </trkpt>
      <trkpt lat="45.52632" lon="3.84587">
        <ele>1201</ele>
        <time>2016-04-29T12:24:19Z</time>
      </trkpt>
      <trkpt lat="45.52627" lon="3.84584">
        <ele>1201</ele>
        <time>2016-04-29T12:24:33Z</time>
      </trkpt>
      <trkpt lat="45.52617" lon="3.84555">
        <ele>1201</ele>
        <time>2016-04-29T12:24:51Z</time>
      </trkpt>
      <trkpt lat="45.52612" lon="3.84538">
        <ele>1202</ele>
        <time>2016-04-29T12:25:02Z</time>
      </trkpt>
      <trkpt lat="45.52612" lon="3.84536">
        <ele>1202</ele>
        <time>2016-04-29T12:25:03Z</time>
      </trkpt>
      <trkpt lat="45.52613" lon="3.84521">
        <ele>1201</ele>
        <time>2016-04-29T12:25:09Z</time>
      </trkpt>
      <trkpt lat="45.52615" lon="3.84502">
        <ele>1202</ele>
        <time>2016-04-29T12:25:23Z</time>
      </trkpt>
      <trkpt lat="45.52616" lon="3.84497">
        <ele>1202</ele>
        <time>2016-04-29T12:25:35Z</time>
      </trkpt>
      <trkpt lat="45.52612" lon="3.84497">
        <ele>1201</ele>
        <time>2016-04-29T12:25:54Z</time>
      </trkpt>
      <trkpt lat="45.52613" lon="3.84498">
        <ele>1201</ele>
        <time>2016-04-29T12:26:13Z</time>
      </trkpt>
      <trkpt lat="45.52615" lon="3.84501">
        <ele>1201</ele>
        <time>2016-04-29T12:26:36Z</time>
      </trkpt>
      <trkpt lat="45.52617" lon="3.84493">
        <ele>1201</ele>
        <time>2016-04-29T12:26:51Z</time>
      </trkpt>
      <trkpt lat="45.52615" lon="3.84497">
        <ele>1201</ele>
        <time>2016-04-29T12:27:12Z</time>
      </trkpt>
      <trkpt lat="45.52619" lon="3.84485">
        <ele>1201</ele>
        <time>2016-04-29T12:27:35Z</time>
      </trkpt>
      <trkpt lat="45.52607" lon="3.84486">
        <ele>1201</ele>
        <time>2016-04-29T12:27:53Z</time>
      </trkpt>
      <trkpt lat="45.52609" lon="3.84491">
        <ele>1201</ele>
        <time>2016-04-29T12:28:23Z</time>
      </trkpt>
      <trkpt lat="45.52614" lon="3.84499">
        <ele>1200</ele>
        <time>2016-04-29T12:28:36Z</time>
      </trkpt>
      <trkpt lat="45.52614" lon="3.845">
        <ele>1201</ele>
        <time>2016-04-29T12:28:57Z</time>
      </trkpt>
      <trkpt lat="45.52616" lon="3.84496">
        <ele>1200</ele>
        <time>2016-04-29T12:29:23Z</time>
      </trkpt>
      <trkpt lat="45.52616" lon="3.84496">
        <ele>1200</ele>
        <time>2016-04-29T12:29:33Z</time>
      </trkpt>
      <trkpt lat="45.52613" lon="3.84496">
        <ele>1200</ele>
        <time>2016-04-29T12:29:45Z</time>
      </trkpt>
      <trkpt lat="45.52618" lon="3.84495">
        <ele>1201</ele>
        <time>2016-04-29T12:30:00Z</time>
      </trkpt>
      <trkpt lat="45.52614" lon="3.84497">
        <ele>1200</ele>
        <time>2016-04-29T12:30:16Z</time>
      </trkpt>
      <trkpt lat="45.52614" lon="3.84494">
        <ele>1200</ele>
        <time>2016-04-29T12:30:36Z</time>
      </trkpt>
      <trkpt lat="45.52614" lon="3.84494">
        <ele>1199</ele>
        <time>2016-04-29T12:30:58Z</time>
      </trkpt>
      <trkpt lat="45.52613" lon="3.8449">
        <ele>1197</ele>
        <time>2016-04-29T12:31:06Z</time>
      </trkpt>
      <trkpt lat="45.52609" lon="3.84527">
        <ele>1201</ele>
      </trkpt>
      <trkpt lat="45.52611" lon="3.84546">
        <ele>1200.9</ele>
      </trkpt>
      <trkpt lat="45.52608" lon="3.84546">
        <ele>1200.6</ele>
      </trkpt>
      <trkpt lat="45.52598" lon="3.84545">
        <ele>1199.9</ele>
      </trkpt>
      <trkpt lat="45.52578" lon="3.84535">
        <ele>1195.1</ele>
      </trkpt>
      <trkpt lat="45.52553" lon="3.84535">
        <ele>1195.2</ele>
      </trkpt>
      <trkpt lat="45.52527" lon="3.84539">
        <ele>1195.4</ele>
      </trkpt>
      <trkpt lat="45.52499" lon="3.84551">
        <ele>1197.5</ele>
      </trkpt>
      <trkpt lat="45.52473" lon="3.8457">
        <ele>1198.1</ele>
      </trkpt>
      <trkpt lat="45.52448" lon="3.84593">
        <ele>1198.1</ele>
      </trkpt>
      <trkpt lat="45.52429" lon="3.84622">
        <ele>1197.4</ele>
      </trkpt>
      <trkpt lat="45.52369" lon="3.84723">
        <ele>1201.7</ele>
      </trkpt>
      <trkpt lat="45.5235" lon="3.84734">
        <ele>1203.3</ele>
      </trkpt>
      <trkpt lat="45.52333" lon="3.84739">
        <ele>1207.1</ele>
      </trkpt>
      <trkpt lat="45.52254" lon="3.84745">
        <ele>1209</ele>
      </trkpt>
      <trkpt lat="45.52199" lon="3.84752">
        <ele>1210.9</ele>
      </trkpt>
      <trkpt lat="45.52177" lon="3.84755">
        <ele>1211.6</ele>
      </trkpt>
      <trkpt lat="45.52153" lon="3.84751">
        <ele>1213.3</ele>
      </trkpt>
      <trkpt lat="45.52111" lon="3.84741">
        <ele>1211.3</ele>
      </trkpt>
      <trkpt lat="45.52083" lon="3.84744">
        <ele>1212</ele>
      </trkpt>
      <trkpt lat="45.52057" lon="3.84754">
        <ele>1214.2</ele>
      </trkpt>
      <trkpt lat="45.52025" lon="3.84774">
        <ele>1214.7</ele>
      </trkpt>
      <trkpt lat="45.52017" lon="3.8478">
        <ele>1214.8</ele>
      </trkpt>
      <trkpt lat="45.52025" lon="3.84774">
        <ele>1214.7</ele>
      </trkpt>
      <trkpt lat="45.52025" lon="3.84788">
        <ele>1215.3</ele>
      </trkpt>
      <trkpt lat="45.52029" lon="3.84814">
        <ele>1216.2</ele>
      </trkpt>
      <trkpt lat="45.52028" lon="3.84833">
        <ele>1216.5</ele>
      </trkpt>
    </trkseg>
  </trk>
</gpx>